| time (UTC) | temp F | wind direction | speed MPH | gust MPH | rain 1hr in | rain 24hr in | rain mn in | humidity % | barometer mb |
| 20260509192124 | 57 | 241 | 1.0 | 3.0 | 0.32 | 0.32 | 0.32 | 91 | 1003.1 |
| 20260509192045 | 57 | 154 | 0.0 | 3.0 | 0.32 | 0.32 | 0.32 | 91 | 1003.1 |
| 20260509192018 | 56 | 171 | 2.0 | 3.0 | 0.32 | 0.32 | 0.32 | 91 | 1003.1 |
| 20260509191912 | 56 | 236 | 2.0 | 3.0 | 0.32 | 0.32 | 0.32 | 91 | 1003.1 |
| 20260509191806 | 56 | 225 | 1.0 | 3.0 | 0.32 | 0.32 | 0.32 | 91 | 1003.4 |
| 20260509191659 | 55 | 134 | 1.0 | 3.0 | 0.32 | 0.32 | 0.32 | 92 | 1003.1 |
| 20260509191553 | 55 | 229 | 1.0 | 3.0 | 0.32 | 0.32 | 0.32 | 91 | 1003.4 |
| 20260509191537 | 55 | 197 | 1.0 | 3.0 | 0.32 | 0.32 | 0.32 | 92 | 1003.4 |
| 20260509191447 | 55 | 240 | 2.0 | 3.0 | 0.32 | 0.32 | 0.32 | 91 | 1003.4 |
| 20260509191341 | 54 | 216 | 1.0 | 3.0 | 0.32 | 0.32 | 0.32 | 91 | 1003.1 |
| 20260509191236 | 54 | 234 | 2.0 | 3.0 | 0.32 | 0.32 | 0.32 | 91 | 1003.1 |
| 20260509191130 | 53 | 174 | 2.0 | 3.0 | 0.32 | 0.32 | 0.32 | 92 | 1003.1 |
| 20260509191031 | 53 | 228 | 1.0 | 3.0 | 0.32 | 0.32 | 0.32 | 91 | 1003.4 |
| 20260509191025 | 53 | 231 | 1.0 | 3.0 | 0.32 | 0.32 | 0.32 | 91 | 1003.4 |
| 20260509190919 | 52 | 184 | 2.0 | 3.0 | 0.32 | 0.32 | 0.32 | 91 | 1003.4 |
| 20260509190813 | 52 | 228 | 1.0 | 3.0 | 0.32 | 0.32 | 0.32 | 91 | 1003.1 |
| 20260509190708 | 52 | 212 | 1.0 | 3.0 | 0.32 | 0.32 | 0.32 | 91 | 1003.1 |
| 20260509190603 | 52 | 194 | 2.0 | 3.0 | 0.32 | 0.32 | 0.32 | 91 | 1003.4 |
| 20260509190525 | 52 | 221 | 1.0 | 3.0 | 0.32 | 0.32 | 0.32 | 91 | 1003.4 |
| 20260509190457 | 52 | 232 | 2.0 | 6.0 | 0.32 | 0.32 | 0.32 | 91 | 1003.4 |
| 20260509190351 | 52 | 211 | 2.0 | 9.0 | 0.32 | 0.32 | 0.32 | 91 | 1003.4 |
| 20260509190246 | 51 | 265 | 1.0 | 10.0 | 0.32 | 0.32 | 0.32 | 91 | 1003.4 |
| 20260509190140 | 51 | 221 | 2.0 | 10.0 | 0.32 | 0.32 | 0.32 | 90 | 1003.4 |
| 20260509190034 | 51 | 211 | 1.0 | 10.0 | 0.32 | 0.32 | 0.32 | 90 | 1003.4 |
| 20260509190019 | 51 | 191 | 2.0 | 10.0 | 0.32 | 0.32 | 0.32 | 90 | 1003.4 |
| 20260509185929 | 51 | 227 | 2.0 | 10.0 | 0.32 | 0.32 | 0.32 | 90 | 1003.4 |
| 20260509185823 | 51 | 261 | 2.0 | 10.0 | 0.32 | 0.32 | 0.32 | 90 | 1003.4 |
| 20260509185717 | 50 | 189 | 2.0 | 10.0 | 0.32 | 0.32 | 0.32 | 90 | 1003.4 |
| 20260509185612 | 50 | 232 | 1.0 | 10.0 | 0.31 | 0.31 | 0.31 | 90 | 1003.4 |
| 20260509185511 | 51 | 221 | 4.0 | 10.0 | 0.31 | 0.31 | 0.31 | 89 | 1003.4 |
| 20260509185505 | 51 | 227 | 2.0 | 10.0 | 0.31 | 0.31 | 0.31 | 89 | 1003.4 |
| 20260509185359 | 51 | 242 | 2.0 | 10.0 | 0.31 | 0.31 | 0.31 | 89 | 1003.4 |
| 20260509185254 | 51 | 143 | 5.0 | 14.0 | 0.30 | 0.30 | 0.31 | 89 | 1003.4 |
| 20260509185148 | 51 | 216 | 4.0 | 21.0 | 0.29 | 0.29 | 0.30 | 89 | 1003.8 |
| 20260509185043 | 51 | 196 | 3.0 | 21.0 | 0.27 | 0.27 | 0.29 | 89 | 1003.4 |
| 20260509185006 | 51 | 241 | 2.0 | 21.0 | 0.27 | 0.27 | 0.29 | 89 | 1003.4 |
| 20260509184937 | 51 | 121 | 2.0 | 21.0 | 0.24 | 0.24 | 0.27 | 88 | 1003.4 |
| 20260509184831 | 51 | 169 | 2.0 | 23.0 | 0.21 | 0.21 | 0.23 | 88 | 1003.8 |
| 20260509184727 | 51 | 217 | 5.0 | 23.0 | 0.19 | 0.19 | 0.20 | 87 | 1003.8 |
| 20260509184621 | 53 | 229 | 2.0 | 23.0 | 0.17 | 0.17 | 0.19 | 86 | 1003.8 |
| 20260509184515 | 55 | 91 | 3.0 | 23.0 | 0.09 | 0.09 | 0.16 | 84 | 1003.4 |
| 20260509184459 | 55 | 120 | 7.0 | 23.0 | 0.09 | 0.09 | 0.13 | 83 | 1003.4 |
| 20260509184409 | 57 | 253 | 8.0 | 23.0 | 0.04 | 0.04 | 0.08 | 80 | 1003.8 |
| 20260509184304 | 59 | 315 | 5.0 | 23.0 | 0.01 | 0.01 | 0.03 | 75 | 1003.8 |
| 20260509184158 | 61 | 263 | 14.0 | 23.0 | 0.00 | 0.00 | 0.01 | 69 | 1003.4 |
| 20260509184052 | 62 | 227 | 6.0 | 23.0 | 0.00 | 0.00 | 0.00 | 64 | 1003.4 |
| 20260509183950 | 64 | 302 | 10.0 | 23.0 | 0.00 | 0.00 | 0.00 | 58 | 1003.4 |
| 20260509183945 | 65 | 337 | 13.0 | 23.0 | 0.00 | 0.00 | 0.00 | 56 | 1002.3 |
| 20260509183840 | 65 | 23 | 4.0 | 13.0 | 0.00 | 0.00 | 0.00 | 56 | 1002.3 |
| 20260509183733 | 65 | 279 | 8.0 | 13.0 | 0.00 | 0.00 | 0.00 | 55 | 1002.3 |
| 20260509183627 | 66 | 273 | 4.0 | 13.0 | 0.00 | 0.00 | 0.00 | 56 | 1002.0 |
| 20260509183523 | 66 | 304 | 3.0 | 13.0 | 0.00 | 0.00 | 0.00 | 54 | 1002.3 |
| 20260509183444 | 66 | 221 | 3.0 | 13.0 | 0.00 | 0.00 | 0.00 | 54 | 1002.3 |
| 20260509183416 | 66 | 271 | 6.0 | 13.0 | 0.00 | 0.00 | 0.00 | 53 | 1002.0 |
| 20260509183311 | 66 | 243 | 3.0 | 13.0 | 0.00 | 0.00 | 0.00 | 53 | 1002.0 |
| 20260509183205 | 66 | 219 | 7.0 | 13.0 | 0.00 | 0.00 | 0.00 | 53 | 1002.0 |
| 20260509183059 | 66 | 218 | 4.0 | 11.0 | 0.00 | 0.00 | 0.00 | 54 | 1002.0 |
| 20260509182938 | 66 | 228 | 6.0 | 13.0 | 0.00 | 0.00 | 0.00 | 54 | 1002.0 |
| 20260509182848 | 66 | 229 | 3.0 | 13.0 | 0.00 | 0.00 | 0.00 | 54 | 1002.0 |
| 20260509182742 | 66 | 249 | 3.0 | 13.0 | 0.00 | 0.00 | 0.00 | 54 | 1002.0 |
| 20260509182637 | 66 | 256 | 6.0 | 13.0 | 0.00 | 0.00 | 0.00 | 54 | 1001.6 |
| 20260509182531 | 66 | 238 | 4.0 | 13.0 | 0.00 | 0.00 | 0.00 | 55 | 1001.6 |
| 20260509182432 | 66 | 201 | 3.0 | 13.0 | 0.00 | 0.00 | 0.00 | 55 | 1002.0 |
| 20260509182426 | 66 | 308 | 4.0 | 13.0 | 0.00 | 0.00 | 0.00 | 55 | 1002.0 |
| 20260509182320 | 66 | 206 | 7.0 | 13.0 | 0.00 | 0.00 | 0.00 | 55 | 1001.6 |
| 20260509182215 | 66 | 242 | 4.0 | 17.0 | 0.00 | 0.00 | 0.00 | 55 | 1001.6 |
| 20260509182121 | 66 | 197 | 4.0 | 17.0 | 0.00 | 0.00 | 0.00 | 55 | 1001.6 |
| 20260509182002 | 66 | 281 | 7.0 | 17.0 | 0.00 | 0.00 | 0.00 | 55 | 1001.6 |
| 20260509181925 | 66 | 246 | 6.0 | 17.0 | 0.00 | 0.00 | 0.00 | 56 | 1001.6 |
| 20260509181857 | 66 | 197 | 7.0 | 17.0 | 0.00 | 0.00 | 0.00 | 55 | 1001.6 |
| 20260509181751 | 66 | 221 | 5.0 | 18.0 | 0.00 | 0.00 | 0.00 | 56 | 1001.6 |
| 20260509181645 | 66 | 232 | 9.0 | 18.0 | 0.00 | 0.00 | 0.00 | 55 | 1001.6 |
| 20260509181538 | 66 | 205 | 10.0 | 18.0 | 0.00 | 0.00 | 0.00 | 55 | 1001.3 |
| 20260509181433 | 66 | 201 | 9.0 | 18.0 | 0.00 | 0.00 | 0.00 | 55 | 1001.6 |
| 20260509181418 | 67 | 194 | 7.0 | 18.0 | 0.00 | 0.00 | 0.00 | 55 | 1001.6 |
| 20260509181327 | 67 | 205 | 12.0 | 18.0 | 0.00 | 0.00 | 0.00 | 54 | 1001.6 |
| 20260509181221 | 66 | 153 | 5.0 | 18.0 | 0.00 | 0.00 | 0.00 | 56 | 1001.6 |
| 20260509181117 | 67 | 186 | 8.0 | 18.0 | 0.00 | 0.00 | 0.00 | 55 | 1001.6 |
| 20260509181011 | 67 | 228 | 6.0 | 18.0 | 0.00 | 0.00 | 0.00 | 55 | 1001.6 |
| 20260509180911 | 67 | 248 | 9.0 | 23.0 | 0.00 | 0.00 | 0.00 | 55 | 1001.6 |
| 20260509180905 | 67 | 231 | 8.0 | 23.0 | 0.00 | 0.00 | 0.00 | 55 | 1001.6 |
| 20260509180759 | 67 | 223 | 4.0 | 23.0 | 0.00 | 0.00 | 0.00 | 55 | 1001.6 |
| 20260509180654 | 67 | 218 | 6.0 | 23.0 | 0.00 | 0.00 | 0.00 | 55 | 1001.6 |
| 20260509180548 | 67 | 216 | 6.0 | 23.0 | 0.00 | 0.00 | 0.00 | 55 | 1001.6 |
| 20260509180442 | 66 | 243 | 8.0 | 23.0 | 0.00 | 0.00 | 0.00 | 54 | 1001.6 |
| 20260509180404 | 66 | 220 | 3.0 | 23.0 | 0.00 | 0.00 | 0.00 | 56 | 1001.6 |
| 20260509180337 | 66 | 191 | 6.0 | 23.0 | 0.00 | 0.00 | 0.00 | 55 | 1001.6 |
| 20260509180231 | 66 | 123 | 11.0 | 23.0 | 0.00 | 0.00 | 0.00 | 55 | 1001.6 |
| 20260509180125 | 66 | 248 | 6.0 | 23.0 | 0.00 | 0.00 | 0.00 | 55 | 1001.6 |
| 20260509180019 | 66 | 160 | 11.0 | 23.0 | 0.00 | 0.00 | 0.00 | 55 | 1001.6 |
| 20260509175913 | 67 | 205 | 9.0 | 14.0 | 0.00 | 0.00 | 0.00 | 55 | 1001.3 |
| 20260509175857 | 67 | 205 | 9.0 | 14.0 | 0.00 | 0.00 | 0.00 | 55 | 1001.3 |
| 20260509175806 | 67 | 214 | 8.0 | 14.0 | 0.00 | 0.00 | 0.00 | 55 | 1001.6 |
| 20260509175701 | 67 | 258 | 4.0 | 19.0 | 0.00 | 0.00 | 0.00 | 55 | 1001.6 |
| 20260509175556 | 67 | 263 | 6.0 | 19.0 | 0.00 | 0.00 | 0.00 | 55 | 1001.6 |
| 20260509175450 | 67 | 229 | 5.0 | 19.0 | 0.00 | 0.00 | 0.00 | 55 | 1001.6 |
| 20260509175350 | 67 | 152 | 4.0 | 19.0 | 0.00 | 0.00 | 0.00 | 55 | 1001.6 |
| 20260509175344 | 67 | 210 | 4.0 | 19.0 | 0.00 | 0.00 | 0.00 | 55 | 1001.6 |
| 20260509175238 | 67 | 231 | 6.0 | 19.0 | 0.00 | 0.00 | 0.00 | 55 | 1001.6 |
| 20260509175132 | 67 | 228 | 7.0 | 19.0 | 0.00 | 0.00 | 0.00 | 55 | 1001.6 |
| 20260509175026 | 67 | 187 | 11.0 | 19.0 | 0.00 | 0.00 | 0.00 | 54 | 1001.6 |
| 20260509174920 | 67 | 124 | 9.0 | 19.0 | 0.00 | 0.00 | 0.00 | 55 | 1001.6 |
| 20260509174843 | 67 | 178 | 6.0 | 19.0 | 0.00 | 0.00 | 0.00 | 55 | 1001.6 |
| 20260509174815 | 67 | 229 | 14.0 | 19.0 | 0.00 | 0.00 | 0.00 | 55 | 1001.6 |
| 20260509174709 | 67 | 235 | 7.0 | 17.0 | 0.00 | 0.00 | 0.00 | 54 | 1001.6 |
| 20260509174603 | 67 | 238 | 5.0 | 17.0 | 0.00 | 0.00 | 0.00 | 54 | 1002.0 |
| 20260509174458 | 67 | 236 | 7.0 | 17.0 | 0.00 | 0.00 | 0.00 | 55 | 1001.6 |
| 20260509174352 | 67 | 164 | 14.0 | 17.0 | 0.00 | 0.00 | 0.00 | 53 | 1001.6 |
| 20260509174336 | 67 | 188 | 10.0 | 17.0 | 0.00 | 0.00 | 0.00 | 53 | 1001.6 |
| 20260509174259 | 67 | 252 | 6.0 | 17.0 | 0.00 | 0.00 | 0.00 | 54 | 1001.6 |
| 20260509174140 | 67 | 234 | 11.0 | 17.0 | 0.00 | 0.00 | 0.00 | 54 | 1001.6 |
| 20260509174036 | 68 | 177 | 7.0 | 17.0 | 0.00 | 0.00 | 0.00 | 54 | 1001.6 |
| 20260509173930 | 68 | 231 | 11.0 | 19.0 | 0.00 | 0.00 | 0.00 | 54 | 1001.6 |
| 20260509173829 | 68 | 237 | 9.0 | 19.0 | 0.00 | 0.00 | 0.00 | 53 | 1002.0 |
| 20260509173823 | 68 | 273 | 5.0 | 19.0 | 0.00 | 0.00 | 0.00 | 53 | 1002.0 |
| 20260509173719 | 68 | 263 | 5.0 | 19.0 | 0.00 | 0.00 | 0.00 | 54 | 1002.0 |
| 20260509173613 | 67 | 115 | 4.0 | 19.0 | 0.00 | 0.00 | 0.00 | 56 | 1002.0 |
| 20260509173507 | 67 | 232 | 5.0 | 19.0 | 0.00 | 0.00 | 0.00 | 55 | 1002.0 |
| 20260509173401 | 67 | 251 | 6.0 | 19.0 | 0.00 | 0.00 | 0.00 | 54 | 1002.0 |
| 20260509173324 | 67 | 94 | 6.0 | 19.0 | 0.00 | 0.00 | 0.00 | 54 | 1002.0 |
| 20260509173256 | 67 | 249 | 8.0 | 19.0 | 0.00 | 0.00 | 0.00 | 54 | 1002.0 |
| 20260509173150 | 67 | 198 | 5.0 | 19.0 | 0.00 | 0.00 | 0.00 | 56 | 1002.0 |
| 20260509173042 | 67 | 224 | 7.0 | 19.0 | 0.00 | 0.00 | 0.00 | 56 | 1001.6 |
| 20260509172937 | 67 | 205 | 7.0 | 17.0 | 0.00 | 0.00 | 0.00 | 56 | 1001.6 |
| 20260509172815 | 67 | 228 | 13.0 | 17.0 | 0.00 | 0.00 | 0.00 | 55 | 1002.0 |
| 20260509172725 | 67 | 237 | 4.0 | 17.0 | 0.00 | 0.00 | 0.00 | 59 | 1001.6 |
| 20260509172620 | 67 | 182 | 8.0 | 17.0 | 0.00 | 0.00 | 0.00 | 59 | 1002.0 |
| 20260509172520 | 67 | 180 | 11.0 | 16.0 | 0.00 | 0.00 | 0.00 | 58 | 1002.0 |
| 20260509172408 | 67 | 230 | 3.0 | 16.0 | 0.00 | 0.00 | 0.00 | 58 | 1002.0 |
| 20260509172309 | 67 | 208 | 8.0 | 16.0 | 0.00 | 0.00 | 0.00 | 58 | 1002.0 |
| 20260509172306 | 67 | 208 | 8.0 | 16.0 | 0.00 | 0.00 | 0.00 | 58 | 1002.0 |
| 20260509172157 | 67 | 214 | 9.0 | 16.0 | 0.00 | 0.00 | 0.00 | 58 | 1002.0 |
| 20260509172051 | 66 | 200 | 9.0 | 16.0 | 0.00 | 0.00 | 0.00 | 58 | 1002.0 |
| 20260509171946 | 67 | 243 | 7.0 | 22.0 | 0.00 | 0.00 | 0.00 | 58 | 1002.0 |
| 20260509171840 | 67 | 204 | 11.0 | 22.0 | 0.00 | 0.00 | 0.00 | 58 | 1001.6 |
| 20260509171802 | 67 | 166 | 8.0 | 22.0 | 0.00 | 0.00 | 0.00 | 58 | 1001.6 |
| 20260509171734 | 67 | 129 | 3.0 | 22.0 | 0.00 | 0.00 | 0.00 | 58 | 1002.0 |
| 20260509171629 | 67 | 108 | 6.0 | 22.0 | 0.00 | 0.00 | 0.00 | 58 | 1001.6 |
| 20260509171523 | 67 | 218 | 3.0 | 22.0 | 0.00 | 0.00 | 0.00 | 58 | 1001.6 |
| 20260509171417 | 66 | 197 | 8.0 | 22.0 | 0.00 | 0.00 | 0.00 | 59 | 1001.6 |
| 20260509171311 | 66 | 205 | 6.0 | 22.0 | 0.00 | 0.00 | 0.00 | 59 | 1001.6 |
| 20260509171256 | 66 | 167 | 10.0 | 22.0 | 0.00 | 0.00 | 0.00 | 58 | 1001.6 |
| 20260509171206 | 67 | 192 | 12.0 | 22.0 | 0.00 | 0.00 | 0.00 | 58 | 1002.0 |
| 20260509171101 | 67 | 95 | 9.0 | 22.0 | 0.00 | 0.00 | 0.00 | 58 | 1002.0 |
| 20260509170955 | 67 | 157 | 7.0 | 18.0 | 0.00 | 0.00 | 0.00 | 58 | 1002.0 |
| 20260509170850 | 66 | 223 | 5.0 | 18.0 | 0.00 | 0.00 | 0.00 | 57 | 1002.0 |
| 20260509170749 | 66 | 181 | 4.0 | 18.0 | 0.00 | 0.00 | 0.00 | 59 | 1002.0 |
| 20260509170743 | 66 | 234 | 4.0 | 18.0 | 0.00 | 0.00 | 0.00 | 58 | 1002.0 |
| 20260509170638 | 66 | 231 | 6.0 | 18.0 | 0.00 | 0.00 | 0.00 | 58 | 1002.0 |
| 20260509170532 | 67 | 240 | 11.0 | 19.0 | 0.00 | 0.00 | 0.00 | 58 | 1002.3 |
| 20260509170426 | 67 | 141 | 8.0 | 19.0 | 0.00 | 0.00 | 0.00 | 58 | 1002.3 |
| 20260509170320 | 67 | 278 | 7.0 | 19.0 | 0.00 | 0.00 | 0.00 | 57 | 1002.0 |
| 20260509170244 | 66 | 228 | 9.0 | 19.0 | 0.00 | 0.00 | 0.00 | 58 | 1002.0 |
| 20260509170215 | 66 | 227 | 6.0 | 19.0 | 0.00 | 0.00 | 0.00 | 58 | 1002.0 |
| 20260509170110 | 66 | 227 | 6.0 | 19.0 | 0.00 | 0.00 | 0.00 | 58 | 1002.0 |
| 20260509170005 | 67 | 186 | 9.0 | 21.0 | 0.00 | 0.00 | 0.00 | 57 | 1002.3 |
| 20260509165859 | 66 | 174 | 5.0 | 21.0 | 0.00 | 0.00 | 0.00 | 57 | 1001.6 |
| 20260509165753 | 67 | 231 | 3.0 | 21.0 | 0.00 | 0.00 | 0.00 | 58 | 1002.3 |
| 20260509165737 | 67 | 231 | 3.0 | 21.0 | 0.00 | 0.00 | 0.00 | 58 | 1001.6 |
| 20260509165646 | 67 | 178 | 13.0 | 21.0 | 0.00 | 0.00 | 0.00 | 57 | 1002.0 |
| 20260509165541 | 66 | 208 | 6.0 | 21.0 | 0.00 | 0.00 | 0.00 | 57 | 1002.0 |
| 20260509165435 | 66 | 187 | 4.0 | 21.0 | 0.00 | 0.00 | 0.00 | 59 | 1002.0 |
| 20260509165330 | 66 | 219 | 5.0 | 21.0 | 0.00 | 0.00 | 0.00 | 58 | 1002.0 |
| 20260509165230 | 66 | 125 | 6.0 | 21.0 | 0.00 | 0.00 | 0.00 | 57 | 1002.0 |
| 20260509165224 | 66 | 171 | 12.0 | 21.0 | 0.00 | 0.00 | 0.00 | 57 | 1002.0 |
| 20260509165118 | 67 | 168 | 11.0 | 21.0 | 0.00 | 0.00 | 0.00 | 57 | 1002.0 |
| 20260509165014 | 67 | 208 | 9.0 | 19.0 | 0.00 | 0.00 | 0.00 | 56 | 1002.3 |
| 20260509164907 | 67 | 207 | 4.0 | 23.0 | 0.00 | 0.00 | 0.00 | 57 | 1002.3 |
| 20260509164835 | 62 | 172 | 4.0 | 13.0 | 0.00 | 0.00 | 0.00 | 66 | 1002.8 |
| 20260509164831 | 64 | 211 | 12.0 | 15.0 | 0.00 | 0.00 | 0.00 | 61 | 1002.0 |
| 20260509164827 | 67 | 224 | 11.0 | 23.0 | 0.00 | 0.00 | 0.00 | 55 | 1002.0 |
| 20260509164817 | 67 | 145 | 9.0 | 23.0 | 0.00 | 0.00 | 0.00 | 56 | 1002.0 |
| 20260509164812 | 67 | 154 | 6.0 | 23.0 | 0.00 | 0.00 | 0.00 | 56 | 1002.0 |
| 20260509164551 | 66 | 183 | 6.0 | 23.0 | 0.00 | 0.00 | 0.00 | 59 | 1002.0 |
| 20260509164542 | 65 | 134 | 6.0 | 23.0 | 0.00 | 0.00 | 0.00 | 59 | 1002.0 |
| 20260509164538 | 65 | 253 | 4.0 | 23.0 | 0.00 | 0.00 | 0.00 | 58 | 1002.3 |
| 20260509164529 | 65 | 189 | 5.0 | 23.0 | 0.00 | 0.00 | 0.00 | 58 | 1002.0 |
| 20260509164521 | 65 | 220 | 2.0 | 23.0 | 0.00 | 0.00 | 0.00 | 59 | 1002.0 |
| 20260509164255 | 65 | 268 | 12.0 | 23.0 | 0.00 | 0.00 | 0.00 | 57 | 1002.0 |
| 20260509164035 | 65 | 203 | 6.0 | 16.0 | 0.00 | 0.00 | 0.00 | 60 | 1002.3 |
| 20260509164031 | 65 | 204 | 11.0 | 23.0 | 0.00 | 0.00 | 0.00 | 58 | 1002.0 |
| 20260509164022 | 65 | 181 | 10.0 | 23.0 | 0.00 | 0.00 | 0.00 | 58 | 1002.0 |
| 20260509164013 | 65 | 226 | 9.0 | 19.0 | 0.00 | 0.00 | 0.00 | 58 | 1002.3 |
| 20260509163751 | 65 | 223 | 6.0 | 16.0 | 0.00 | 0.00 | 0.00 | 60 | 1002.3 |
| 20260509163744 | 65 | 207 | 10.0 | 16.0 | 0.00 | 0.00 | 0.00 | 59 | 1002.3 |
| 20260509163520 | 65 | 188 | 8.0 | 15.0 | 0.00 | 0.00 | 0.00 | 59 | 1002.3 |
| 20260509163516 | 65 | 208 | 13.0 | 15.0 | 0.00 | 0.00 | 0.00 | 60 | 1002.3 |
| 20260509163507 | 65 | 181 | 12.0 | 15.0 | 0.00 | 0.00 | 0.00 | 60 | 1002.3 |
| 20260509163459 | 65 | 196 | 7.0 | 15.0 | 0.00 | 0.00 | 0.00 | 60 | 1002.3 |
| 20260509163223 | 65 | 203 | 6.0 | 15.0 | 0.00 | 0.00 | 0.00 | 60 | 1002.3 |
| 20260509163215 | 65 | 182 | 10.0 | 15.0 | 0.00 | 0.00 | 0.00 | 60 | 1002.3 |
| 20260509162955 | 63 | 222 | 4.0 | 16.0 | 0.00 | 0.00 | 0.00 | 65 | 1002.8 |
| 20260509162951 | 65 | 236 | 4.0 | 15.0 | 0.00 | 0.00 | 0.00 | 62 | 1002.3 |
| 20260509162942 | 64 | 229 | 5.0 | 15.0 | 0.00 | 0.00 | 0.00 | 62 | 1002.3 |
| 20260509162934 | 64 | 211 | 12.0 | 15.0 | 0.00 | 0.00 | 0.00 | 61 | 1002.0 |
| 20260509162712 | 64 | 247 | 2.0 | 15.0 | 0.00 | 0.00 | 0.00 | 64 | 1002.0 |
| 20260509162703 | 63 | 211 | 7.0 | 15.0 | 0.00 | 0.00 | 0.00 | 63 | 1002.3 |
| 20260509162439 | 63 | 192 | 11.0 | 16.0 | 0.00 | 0.00 | 0.00 | 64 | 1002.3 |
| 20260509162431 | 63 | 188 | 6.0 | 16.0 | 0.00 | 0.00 | 0.00 | 64 | 1002.8 |
| 20260509162209 | 63 | 220 | 4.0 | 16.0 | 0.00 | 0.00 | 0.00 | 65 | 1002.8 |
| 20260509162201 | 63 | 177 | 4.0 | 16.0 | 0.00 | 0.00 | 0.00 | 64 | 1002.8 |
| 20260509161940 | 63 | 187 | 6.0 | 16.0 | 0.00 | 0.00 | 0.00 | 65 | 1002.8 |
| 20260509161936 | 63 | 203 | 5.0 | 16.0 | 0.00 | 0.00 | 0.00 | 65 | 1002.8 |
| 20260509161928 | 63 | 205 | 4.0 | 16.0 | 0.00 | 0.00 | 0.00 | 64 | 1002.8 |
| 20260509161919 | 63 | 214 | 7.0 | 16.0 | 0.00 | 0.00 | 0.00 | 65 | 1002.8 |
| 20260509161654 | 63 | 244 | 4.0 | 16.0 | 0.00 | 0.00 | 0.00 | 65 | 1002.3 |
| 20260509161633 | 63 | 224 | 10.0 | 16.0 | 0.00 | 0.00 | 0.00 | 64 | 1002.8 |
| 20260509161413 | 63 | 240 | 7.0 | 13.0 | 0.00 | 0.00 | 0.00 | 65 | 1002.8 |
| 20260509161405 | 62 | 184 | 10.0 | 13.0 | 0.00 | 0.00 | 0.00 | 66 | 1002.8 |
| 20260509161356 | 62 | 236 | 3.0 | 13.0 | 0.00 | 0.00 | 0.00 | 66 | 1002.8 |
| 20260509161047 | 62 | 223 | 5.0 | 13.0 | 0.00 | 0.00 | 0.00 | 66 | 1002.8 |
| 20260509160941 | 62 | 129 | 5.0 | 13.0 | 0.00 | 0.00 | 0.00 | 66 | 1002.8 |
| 20260509160904 | 62 | 186 | 9.0 | 13.0 | 0.00 | 0.00 | 0.00 | 66 | 1002.8 |
| 20260509160859 | 62 | 201 | 5.0 | 13.0 | 0.00 | 0.00 | 0.00 | 66 | 1002.8 |
| 20260509160850 | 62 | 180 | 7.0 | 13.0 | 0.00 | 0.00 | 0.00 | 67 | 1002.8 |
| 20260509160625 | 62 | 186 | 7.0 | 13.0 | 0.00 | 0.00 | 0.00 | 66 | 1002.8 |
| 20260509160519 | 62 | 216 | 7.0 | 15.0 | 0.00 | 0.00 | 0.00 | 66 | 1002.8 |
| 20260509160413 | 62 | 218 | 3.0 | 15.0 | 0.00 | 0.00 | 0.00 | 65 | 1002.8 |
| 20260509160307 | 62 | 218 | 6.0 | 16.0 | 0.00 | 0.00 | 0.00 | 65 | 1002.8 |
| 20260509160201 | 63 | 187 | 4.0 | 16.0 | 0.00 | 0.00 | 0.00 | 65 | 1002.8 |
| 20260509160123 | 63 | 149 | 5.0 | 16.0 | 0.00 | 0.00 | 0.00 | 65 | 1002.8 |
| 20260509160109 | 63 | 138 | 6.0 | 16.0 | 0.00 | 0.00 | 0.00 | 65 | 1002.8 |
| 20260509155951 | 63 | 191 | 6.0 | 16.0 | 0.00 | 0.00 | 0.00 | 65 | 1002.8 |
| 20260509155844 | 62 | 235 | 6.0 | 16.0 | 0.00 | 0.00 | 0.00 | 65 | 1002.8 |
| 20260509155738 | 62 | 195 | 4.0 | 16.0 | 0.00 | 0.00 | 0.00 | 65 | 1002.8 |
| 20260509155616 | 63 | 204 | 9.0 | 16.0 | 0.00 | 0.00 | 0.00 | 65 | 1002.8 |
| 20260509155526 | 63 | 206 | 9.0 | 16.0 | 0.00 | 0.00 | 0.00 | 65 | 1002.8 |
| 20260509155420 | 63 | 193 | 14.0 | 16.0 | 0.00 | 0.00 | 0.00 | 65 | 1002.8 |
| 20260509155315 | 63 | 204 | 9.0 | 15.0 | 0.00 | 0.00 | 0.00 | 65 | 1002.8 |
| 20260509155210 | 63 | 207 | 6.0 | 15.0 | 0.00 | 0.00 | 0.00 | 67 | 1002.8 |
| 20260509155110 | 63 | 177 | 6.0 | 15.0 | 0.00 | 0.00 | 0.00 | 66 | 1002.8 |
| 20260509155104 | 63 | 235 | 7.0 | 15.0 | 0.00 | 0.00 | 0.00 | 66 | 1002.8 |
| 20260509154956 | 63 | 178 | 12.0 | 15.0 | 0.00 | 0.00 | 0.00 | 66 | 1002.8 |
| 20260509154851 | 63 | 209 | 6.0 | 14.0 | 0.00 | 0.00 | 0.00 | 66 | 1002.8 |
| 20260509154745 | 63 | 198 | 6.0 | 14.0 | 0.00 | 0.00 | 0.00 | 66 | 1002.8 |
| 20260509154640 | 63 | 228 | 7.0 | 14.0 | 0.00 | 0.00 | 0.00 | 66 | 1002.8 |
| 20260509154601 | 63 | 175 | 6.0 | 14.0 | 0.00 | 0.00 | 0.00 | 66 | 1002.8 |
| 20260509154533 | 63 | 206 | 9.0 | 14.0 | 0.00 | 0.00 | 0.00 | 65 | 1002.8 |
| 20260509154428 | 63 | 199 | 3.0 | 13.0 | 0.00 | 0.00 | 0.00 | 67 | 1002.8 |
| 20260509154323 | 63 | 200 | 3.0 | 13.0 | 0.00 | 0.00 | 0.00 | 66 | 1002.8 |
| 20260509154218 | 64 | 176 | 4.0 | 15.0 | 0.00 | 0.00 | 0.00 | 66 | 1002.8 |
| 20260509154111 | 64 | 219 | 7.0 | 15.0 | 0.00 | 0.00 | 0.00 | 66 | 1002.8 |
| 20260509154056 | 64 | 207 | 6.0 | 15.0 | 0.00 | 0.00 | 0.00 | 66 | 1002.8 |
| 20260509154005 | 63 | 164 | 4.0 | 15.0 | 0.00 | 0.00 | 0.00 | 67 | 1002.8 |
| 20260509153829 | 63 | 200 | 3.0 | 15.0 | 0.00 | 0.00 | 0.00 | 67 | 1002.8 |
| 20260509153723 | 62 | 191 | 7.0 | 15.0 | 0.00 | 0.00 | 0.00 | 66 | 1002.8 |
| 20260509153618 | 62 | 217 | 3.0 | 15.0 | 0.00 | 0.00 | 0.00 | 67 | 1002.8 |
| 20260509153551 | 62 | 205 | 4.0 | 15.0 | 0.00 | 0.00 | 0.00 | 66 | 1002.8 |
| 20260509153512 | 62 | 186 | 6.0 | 15.0 | 0.00 | 0.00 | 0.00 | 66 | 1003.1 |
| 20260509153406 | 62 | 168 | 7.0 | 15.0 | 0.00 | 0.00 | 0.00 | 66 | 1002.8 |
| 20260509153301 | 62 | 172 | 5.0 | 17.0 | 0.00 | 0.00 | 0.00 | 68 | 1003.1 |
| 20260509153156 | 62 | 130 | 3.0 | 17.0 | 0.00 | 0.00 | 0.00 | 69 | 1003.1 |
| 20260509153049 | 61 | 170 | 6.0 | 17.0 | 0.00 | 0.00 | 0.00 | 69 | 1002.8 |
| 20260509152943 | 61 | 233 | 8.0 | 17.0 | 0.00 | 0.00 | 0.00 | 69 | 1003.4 |
| 20260509152838 | 61 | 219 | 7.0 | 17.0 | 0.00 | 0.00 | 0.00 | 69 | 1003.1 |
| 20260509152732 | 61 | 200 | 6.0 | 17.0 | 0.00 | 0.00 | 0.00 | 69 | 1003.1 |
| 20260509152627 | 61 | 186 | 9.0 | 17.0 | 0.00 | 0.00 | 0.00 | 68 | 1003.1 |
| 20260509152538 | 61 | 192 | 9.0 | 17.0 | 0.00 | 0.00 | 0.00 | 68 | 1003.1 |
| 20260509152521 | 61 | 157 | 5.0 | 17.0 | 0.00 | 0.00 | 0.00 | 68 | 1003.1 |
| 20260509152415 | 61 | 143 | 5.0 | 17.0 | 0.00 | 0.00 | 0.00 | 69 | 1003.4 |
| 20260509152309 | 61 | 169 | 6.0 | 13.0 | 0.00 | 0.00 | 0.00 | 70 | 1003.4 |
| 20260509152203 | 61 | 201 | 8.0 | 13.0 | 0.00 | 0.00 | 0.00 | 69 | 1003.1 |
| 20260509152057 | 62 | 227 | 5.0 | 11.0 | 0.00 | 0.00 | 0.00 | 69 | 1003.1 |
| 20260509152031 | 62 | 147 | 8.0 | 11.0 | 0.00 | 0.00 | 0.00 | 70 | 1003.1 |
| 20260509151952 | 62 | 226 | 6.0 | 11.0 | 0.00 | 0.00 | 0.00 | 69 | 1003.1 |
| 20260509151846 | 62 | 195 | 6.0 | 11.0 | 0.00 | 0.00 | 0.00 | 69 | 1003.1 |
| 20260509151740 | 62 | 195 | 6.0 | 11.0 | 0.00 | 0.00 | 0.00 | 69 | 1003.1 |
| 20260509151635 | 61 | 110 | 3.0 | 11.0 | 0.00 | 0.00 | 0.00 | 69 | 1003.4 |
| 20260509151530 | 61 | 180 | 4.0 | 11.0 | 0.00 | 0.00 | 0.00 | 70 | 1003.1 |
| 20260509151424 | 61 | 157 | 3.0 | 14.0 | 0.00 | 0.00 | 0.00 | 70 | 1003.1 |
| 20260509151318 | 61 | 205 | 8.0 | 14.0 | 0.00 | 0.00 | 0.00 | 70 | 1003.4 |
| 20260509151212 | 60 | 224 | 10.0 | 14.0 | 0.00 | 0.00 | 0.00 | 70 | 1003.4 |
| 20260509151107 | 60 | 144 | 2.0 | 14.0 | 0.00 | 0.00 | 0.00 | 70 | 1003.4 |
| 20260509151019 | 60 | 163 | 9.0 | 14.0 | 0.00 | 0.00 | 0.00 | 71 | 1003.4 |
| 20260509151002 | 60 | 193 | 5.0 | 14.0 | 0.00 | 0.00 | 0.00 | 72 | 1003.4 |
| 20260509150855 | 60 | 218 | 6.0 | 14.0 | 0.00 | 0.00 | 0.00 | 71 | 1003.1 |
| 20260509150750 | 60 | 221 | 6.0 | 14.0 | 0.00 | 0.00 | 0.00 | 71 | 1003.4 |
| 20260509150644 | 60 | 143 | 8.0 | 14.0 | 0.00 | 0.00 | 0.00 | 72 | 1003.4 |
| 20260509150538 | 60 | 200 | 7.0 | 14.0 | 0.00 | 0.00 | 0.00 | 72 | 1003.4 |
| 20260509150512 | 60 | 196 | 9.0 | 14.0 | 0.00 | 0.00 | 0.00 | 72 | 1003.4 |
| 20260509150433 | 60 | 209 | 7.0 | 11.0 | 0.00 | 0.00 | 0.00 | 72 | 1003.4 |
| 20260509150327 | 60 | 164 | 6.0 | 11.0 | 0.00 | 0.00 | 0.00 | 72 | 1003.4 |
| 20260509150221 | 60 | 210 | 4.0 | 11.0 | 0.00 | 0.00 | 0.00 | 73 | 1003.4 |
| 20260509150129 | 60 | 186 | 3.0 | 13.0 | 0.00 | 0.00 | 0.00 | 73 | 1003.4 |
| 20260509150010 | 60 | 222 | 6.0 | 13.0 | 0.00 | 0.00 | 0.00 | 73 | 1003.4 |
| 20260509145904 | 60 | 120 | 2.0 | 13.0 | 0.00 | 0.00 | 0.00 | 73 | 1003.4 |
| 20260509145758 | 60 | 154 | 3.0 | 13.0 | 0.00 | 0.00 | 0.00 | 73 | 1003.4 |
| 20260509145654 | 60 | 199 | 7.0 | 13.0 | 0.00 | 0.00 | 0.00 | 72 | 1003.4 |
| 20260509145545 | 60 | 215 | 4.0 | 13.0 | 0.00 | 0.00 | 0.00 | 72 | 1003.8 |
| 20260509145457 | 60 | 213 | 6.0 | 13.0 | 0.00 | 0.00 | 0.00 | 72 | 1003.8 |
| 20260509145439 | 60 | 175 | 6.0 | 13.0 | 0.00 | 0.00 | 0.00 | 73 | 1003.1 |
| 20260509145334 | 60 | 188 | 8.0 | 13.0 | 0.00 | 0.00 | 0.00 | 73 | 1003.1 |
| 20260509145228 | 60 | 132 | 4.0 | 13.0 | 0.00 | 0.00 | 0.00 | 73 | 1003.1 |
| 20260509145123 | 60 | 113 | 7.0 | 11.0 | 0.00 | 0.00 | 0.00 | 73 | 1003.4 |
| 20260509145017 | 60 | 215 | 7.0 | 11.0 | 0.00 | 0.00 | 0.00 | 74 | 1003.4 |
| 20260509144950 | 60 | 172 | 9.0 | 11.0 | 0.00 | 0.00 | 0.00 | 74 | 1003.4 |
| 20260509144910 | 60 | 207 | 5.0 | 11.0 | 0.00 | 0.00 | 0.00 | 74 | 1003.4 |
| 20260509144804 | 60 | 227 | 5.0 | 11.0 | 0.00 | 0.00 | 0.00 | 74 | 1003.4 |
| 20260509144659 | 60 | 228 | 7.0 | 11.0 | 0.00 | 0.00 | 0.00 | 74 | 1003.4 |
| 20260509144552 | 60 | 227 | 7.0 | 13.0 | 0.00 | 0.00 | 0.00 | 74 | 1003.4 |
| 20260509144446 | 59 | 207 | 6.0 | 13.0 | 0.00 | 0.00 | 0.00 | 75 | 1003.4 |
| 20260509144341 | 59 | 201 | 4.0 | 13.0 | 0.00 | 0.00 | 0.00 | 75 | 1003.4 |
| 20260509144235 | 59 | 175 | 4.0 | 13.0 | 0.00 | 0.00 | 0.00 | 75 | 1003.4 |
| 20260509144129 | 59 | 216 | 7.0 | 13.0 | 0.00 | 0.00 | 0.00 | 75 | 1003.4 |
| 20260509144023 | 59 | 163 | 2.0 | 13.0 | 0.00 | 0.00 | 0.00 | 76 | 1003.4 |
| 20260509143935 | 59 | 160 | 6.0 | 13.0 | 0.00 | 0.00 | 0.00 | 75 | 1003.4 |
| 20260509143918 | 59 | 160 | 3.0 | 13.0 | 0.00 | 0.00 | 0.00 | 75 | 1003.4 |
| 20260509143812 | 59 | 121 | 4.0 | 13.0 | 0.00 | 0.00 | 0.00 | 75 | 1003.4 |
| 20260509143706 | 59 | 191 | 6.0 | 15.0 | 0.00 | 0.00 | 0.00 | 75 | 1003.4 |
| 20260509143559 | 59 | 177 | 4.0 | 15.0 | 0.00 | 0.00 | 0.00 | 75 | 1003.4 |
| 20260509143454 | 59 | 234 | 6.0 | 15.0 | 0.00 | 0.00 | 0.00 | 76 | 1003.4 |
| 20260509143428 | 59 | 220 | 4.0 | 15.0 | 0.00 | 0.00 | 0.00 | 76 | 1003.4 |
| 20260509143349 | 58 | 232 | 2.0 | 15.0 | 0.00 | 0.00 | 0.00 | 77 | 1003.4 |
| 20260509143244 | 58 | 216 | 3.0 | 15.0 | 0.00 | 0.00 | 0.00 | 76 | 1003.8 |
| 20260509143137 | 58 | 221 | 6.0 | 15.0 | 0.00 | 0.00 | 0.00 | 76 | 1003.8 |
| 20260509143032 | 58 | 162 | 5.0 | 15.0 | 0.00 | 0.00 | 0.00 | 76 | 1003.8 |
| 20260509142926 | 57 | 139 | 2.0 | 15.0 | 0.00 | 0.00 | 0.00 | 78 | 1003.8 |
| 20260509142820 | 57 | 180 | 3.0 | 15.0 | 0.00 | 0.00 | 0.00 | 78 | 1003.8 |
| 20260509142715 | 57 | 202 | 8.0 | 13.0 | 0.00 | 0.00 | 0.00 | 78 | 1003.4 |
| 20260509142609 | 57 | 213 | 6.0 | 11.0 | 0.00 | 0.00 | 0.00 | 79 | 1003.8 |
| 20260509142503 | 57 | 225 | 6.0 | 16.0 | 0.00 | 0.00 | 0.00 | 79 | 1003.8 |
| 20260509142414 | 57 | 164 | 8.0 | 16.0 | 0.00 | 0.00 | 0.00 | 78 | 1003.8 |
| 20260509142357 | 57 | 219 | 8.0 | 16.0 | 0.00 | 0.00 | 0.00 | 79 | 1003.8 |
| 20260509142251 | 57 | 242 | 5.0 | 16.0 | 0.00 | 0.00 | 0.00 | 79 | 1003.8 |
| 20260509142147 | 57 | 178 | 4.0 | 16.0 | 0.00 | 0.00 | 0.00 | 79 | 1003.8 |
| 20260509142041 | 57 | 192 | 4.0 | 16.0 | 0.00 | 0.00 | 0.00 | 80 | 1003.8 |
| 20260509141935 | 57 | 190 | 4.0 | 16.0 | 0.00 | 0.00 | 0.00 | 80 | 1003.8 |
| 20260509141908 | 57 | 206 | 5.0 | 16.0 | 0.00 | 0.00 | 0.00 | 79 | 1003.8 |
| 20260509141829 | 57 | 156 | 4.0 | 16.0 | 0.00 | 0.00 | 0.00 | 80 | 1003.4 |
| 20260509141723 | 56 | 211 | 8.0 | 16.0 | 0.00 | 0.00 | 0.00 | 80 | 1003.4 |
| 20260509141617 | 56 | 216 | 9.0 | 16.0 | 0.00 | 0.00 | 0.00 | 80 | 1003.8 |
| 20260509141512 | 56 | 159 | 3.0 | 14.0 | 0.00 | 0.00 | 0.00 | 82 | 1003.8 |
| 20260509141407 | 56 | 207 | 11.0 | 14.0 | 0.00 | 0.00 | 0.00 | 81 | 1003.8 |
| 20260509141301 | 56 | 168 | 10.0 | 14.0 | 0.00 | 0.00 | 0.00 | 82 | 1004.1 |
| 20260509141155 | 56 | 199 | 6.0 | 13.0 | 0.00 | 0.00 | 0.00 | 83 | 1003.8 |
| 20260509141049 | 55 | 167 | 1.0 | 13.0 | 0.00 | 0.00 | 0.00 | 83 | 1003.8 |
| 20260509140944 | 55 | 201 | 2.0 | 13.0 | 0.00 | 0.00 | 0.00 | 83 | 1003.8 |
| 20260509140855 | 55 | 166 | 11.0 | 13.0 | 0.00 | 0.00 | 0.00 | 83 | 1003.8 |
| 20260509140839 | 55 | 206 | 11.0 | 13.0 | 0.00 | 0.00 | 0.00 | 83 | 1003.8 |
| 20260509140734 | 55 | 181 | 3.0 | 11.0 | 0.00 | 0.00 | 0.00 | 84 | 1003.8 |
| 20260509140627 | 55 | 206 | 6.0 | 11.0 | 0.00 | 0.00 | 0.00 | 83 | 1003.8 |
| 20260509140521 | 55 | 160 | 3.0 | 11.0 | 0.00 | 0.00 | 0.00 | 84 | 1003.8 |
| 20260509140416 | 55 | 105 | 2.0 | 11.0 | 0.00 | 0.00 | 0.00 | 84 | 1003.8 |
| 20260509140349 | 55 | 216 | 5.0 | 11.0 | 0.00 | 0.00 | 0.00 | 84 | 1003.8 |
| 20260509140309 | 55 | 206 | 5.0 | 10.0 | 0.00 | 0.00 | 0.00 | 84 | 1004.1 |
| 20260509140204 | 55 | 179 | 2.0 | 11.0 | 0.00 | 0.00 | 0.00 | 84 | 1004.1 |
| 20260509140105 | 55 | 193 | 7.0 | 11.0 | 0.00 | 0.00 | 0.00 | 84 | 1004.1 |
| 20260509135953 | 54 | 215 | 4.0 | 11.0 | 0.00 | 0.00 | 0.00 | 86 | 1004.1 |
| 20260509135847 | 54 | 138 | 3.0 | 11.0 | 0.00 | 0.00 | 0.00 | 86 | 1003.8 |
| 20260509135741 | 54 | 212 | 6.0 | 11.0 | 0.00 | 0.00 | 0.00 | 86 | 1003.8 |
| 20260509135635 | 54 | 213 | 10.0 | 11.0 | 0.00 | 0.00 | 0.00 | 86 | 1004.1 |
| 20260509135531 | 54 | 193 | 6.0 | 11.0 | 0.00 | 0.00 | 0.00 | 86 | 1004.1 |
| 20260509135425 | 54 | 193 | 8.0 | 11.0 | 0.00 | 0.00 | 0.00 | 86 | 1004.1 |
| 20260509135336 | 54 | 178 | 8.0 | 11.0 | 0.00 | 0.00 | 0.00 | 86 | 1004.1 |
| 20260509135319 | 54 | 216 | 9.0 | 11.0 | 0.00 | 0.00 | 0.00 | 86 | 1004.1 |
| 20260509135213 | 54 | 197 | 4.0 | 9.0 | 0.00 | 0.00 | 0.00 | 86 | 1004.1 |
| 20260509135108 | 54 | 188 | 3.0 | 9.0 | 0.00 | 0.00 | 0.00 | 86 | 1004.1 |
| 20260509135002 | 54 | 196 | 2.0 | 9.0 | 0.00 | 0.00 | 0.00 | 87 | 1004.5 |
| 20260509134856 | 53 | 212 | 6.0 | 9.0 | 0.00 | 0.00 | 0.00 | 87 | 1004.1 |
| 20260509134830 | 53 | 179 | 4.0 | 9.0 | 0.00 | 0.00 | 0.00 | 87 | 1004.1 |
| 20260509134751 | 53 | 194 | 4.0 | 9.0 | 0.00 | 0.00 | 0.00 | 87 | 1004.1 |
| 20260509134645 | 53 | 198 | 4.0 | 9.0 | 0.00 | 0.00 | 0.00 | 87 | 1004.5 |
| 20260509134539 | 53 | 160 | 1.0 | 9.0 | 0.00 | 0.00 | 0.00 | 87 | 1004.5 |
| 20260509134434 | 53 | 188 | 6.0 | 9.0 | 0.00 | 0.00 | 0.00 | 87 | 1004.5 |
| 20260509134328 | 53 | 225 | 4.0 | 9.0 | 0.00 | 0.00 | 0.00 | 87 | 1004.5 |
| 20260509134222 | 53 | 198 | 6.0 | 9.0 | 0.00 | 0.00 | 0.00 | 87 | 1004.5 |
| 20260509134117 | 53 | 151 | 1.0 | 9.0 | 0.00 | 0.00 | 0.00 | 88 | 1004.5 |
| 20260509134010 | 53 | 228 | 4.0 | 9.0 | 0.00 | 0.00 | 0.00 | 88 | 1004.5 |
| 20260509133905 | 53 | 233 | 6.0 | 9.0 | 0.00 | 0.00 | 0.00 | 88 | 1004.1 |
| 20260509133817 | 53 | 100 | 5.0 | 8.0 | 0.00 | 0.00 | 0.00 | 88 | 1004.5 |
| 20260509133800 | 53 | 200 | 7.0 | 8.0 | 0.00 | 0.00 | 0.00 | 87 | 1004.5 |
| 20260509133654 | 53 | 158 | 4.0 | 10.0 | 0.00 | 0.00 | 0.00 | 88 | 1004.5 |
| 20260509133548 | 53 | 226 | 5.0 | 10.0 | 0.00 | 0.00 | 0.00 | 88 | 1004.1 |
| 20260509133443 | 53 | 154 | 3.0 | 10.0 | 0.00 | 0.00 | 0.00 | 88 | 1004.8 |
| 20260509133337 | 53 | 185 | 4.0 | 10.0 | 0.00 | 0.00 | 0.00 | 88 | 1004.8 |
| 20260509133310 | 53 | 230 | 5.0 | 10.0 | 0.00 | 0.00 | 0.00 | 88 | 1004.8 |
| 20260509133231 | 53 | 212 | 2.0 | 10.0 | 0.00 | 0.00 | 0.00 | 88 | 1004.5 |
| 20260509133125 | 53 | 193 | 4.0 | 10.0 | 0.00 | 0.00 | 0.00 | 88 | 1004.5 |
| 20260509133021 | 53 | 196 | 3.0 | 10.0 | 0.00 | 0.00 | 0.00 | 88 | 1004.5 |
| 20260509132914 | 53 | 162 | 3.0 | 10.0 | 0.00 | 0.00 | 0.00 | 89 | 1004.8 |
| 20260509132808 | 53 | 172 | 9.0 | 10.0 | 0.00 | 0.00 | 0.00 | 88 | 1004.8 |
| 20260509132703 | 53 | 226 | 8.0 | 10.0 | 0.00 | 0.00 | 0.00 | 89 | 1004.5 |
| 20260509132549 | 53 | 226 | 7.0 | 10.0 | 0.00 | 0.00 | 0.00 | 89 | 1004.5 |
| 20260509132444 | 52 | 163 | 4.0 | 10.0 | 0.00 | 0.00 | 0.00 | 89 | 1004.8 |
| 20260509132338 | 52 | 209 | 6.0 | 8.0 | 0.00 | 0.00 | 0.00 | 89 | 1004.8 |
| 20260509132300 | 52 | 181 | 8.0 | 8.0 | 0.00 | 0.00 | 0.00 | 89 | 1004.8 |
| 20260509132231 | 52 | 202 | 7.0 | 8.0 | 0.00 | 0.00 | 0.00 | 89 | 1004.8 |
| 20260509132126 | 52 | 204 | 5.0 | 10.0 | 0.00 | 0.00 | 0.00 | 89 | 1004.8 |
| 20260509132021 | 52 | 149 | 7.0 | 10.0 | 0.00 | 0.00 | 0.00 | 89 | 1004.8 |
| 20260509131915 | 53 | 189 | 4.0 | 13.0 | 0.00 | 0.00 | 0.00 | 89 | 1004.8 |
| 20260509131809 | 52 | 143 | 1.0 | 13.0 | 0.00 | 0.00 | 0.00 | 90 | 1004.5 |
| 20260509131753 | 52 | 143 | 1.0 | 13.0 | 0.00 | 0.00 | 0.00 | 90 | 1004.5 |
| 20260509131716 | 52 | 218 | 3.0 | 13.0 | 0.00 | 0.00 | 0.00 | 90 | 1004.8 |
| 20260509131558 | 52 | 162 | 1.0 | 13.0 | 0.00 | 0.00 | 0.00 | 90 | 1004.5 |
| 20260509131505 | 52 | 183 | 5.0 | 13.0 | 0.00 | 0.00 | 0.00 | 90 | 1004.5 |
| 20260509131346 | 52 | 218 | 4.0 | 13.0 | 0.00 | 0.00 | 0.00 | 91 | 1004.5 |
| 20260509131257 | 52 | 185 | 4.0 | 13.0 | 0.00 | 0.00 | 0.00 | 91 | 1004.5 |
| 20260509131253 | 52 | 191 | 5.0 | 13.0 | 0.00 | 0.00 | 0.00 | 91 | 1004.5 |
| 20260509131135 | 51 | 222 | 9.0 | 13.0 | 0.00 | 0.00 | 0.00 | 91 | 1004.5 |
| 20260509131030 | 51 | 161 | 4.0 | 13.0 | 0.00 | 0.00 | 0.00 | 92 | 1004.5 |
| 20260509130924 | 51 | 193 | 4.0 | 10.0 | 0.00 | 0.00 | 0.00 | 92 | 1004.8 |
| 20260509130818 | 51 | 161 | 5.0 | 10.0 | 0.00 | 0.00 | 0.00 | 92 | 1004.5 |
| 20260509130741 | 51 | 197 | 5.0 | 10.0 | 0.00 | 0.00 | 0.00 | 93 | 1004.5 |
| 20260509130713 | 51 | 142 | 4.0 | 10.0 | 0.00 | 0.00 | 0.00 | 93 | 1004.5 |
| 20260509130606 | 51 | 195 | 4.0 | 10.0 | 0.00 | 0.00 | 0.00 | 93 | 1004.8 |
| 20260509130512 | 51 | 213 | 4.0 | 10.0 | 0.00 | 0.00 | 0.00 | 93 | 1004.8 |
| 20260509130353 | 51 | 221 | 7.0 | 10.0 | 0.00 | 0.00 | 0.00 | 94 | 1004.8 |
| 20260509130250 | 51 | 192 | 4.0 | 10.0 | 0.00 | 0.00 | 0.00 | 94 | 1004.5 |
| 20260509130234 | 51 | 235 | 6.0 | 10.0 | 0.00 | 0.00 | 0.00 | 94 | 1004.5 |
| 20260509130144 | 51 | 160 | 2.0 | 10.0 | 0.00 | 0.00 | 0.00 | 94 | 1004.8 |
| 20260509130039 | 50 | 199 | 5.0 | 10.0 | 0.00 | 0.00 | 0.00 | 94 | 1004.8 |
| 20260509125933 | 50 | 145 | 2.0 | 10.0 | 0.00 | 0.00 | 0.00 | 94 | 1004.5 |
| 20260509125827 | 50 | 223 | 8.0 | 10.0 | 0.00 | 0.00 | 0.00 | 95 | 1004.8 |
| 20260509125722 | 50 | 159 | 4.0 | 10.0 | 0.00 | 0.00 | 0.00 | 95 | 1004.8 |
| 20260509125616 | 50 | 205 | 6.0 | 10.0 | 0.00 | 0.00 | 0.00 | 95 | 1004.8 |
| 20260509125511 | 50 | 208 | 1.0 | 9.0 | 0.00 | 0.00 | 0.00 | 95 | 1005.1 |
| 20260509125406 | 50 | 200 | 8.0 | 9.0 | 0.00 | 0.00 | 0.00 | 95 | 1004.8 |
| 20260509125300 | 50 | 100 | 2.0 | 9.0 | 0.00 | 0.00 | 0.00 | 96 | 1004.8 |
| 20260509125222 | 50 | 148 | 2.0 | 9.0 | 0.00 | 0.00 | 0.00 | 96 | 1004.8 |
| 20260509125153 | 50 | 161 | 1.0 | 9.0 | 0.00 | 0.00 | 0.00 | 96 | 1004.8 |
| 20260509125048 | 50 | 235 | 3.0 | 9.0 | 0.00 | 0.00 | 0.00 | 96 | 1005.1 |
| 20260509124942 | 50 | 172 | 5.0 | 9.0 | 0.00 | 0.00 | 0.00 | 96 | 1004.8 |
| 20260509124836 | 50 | 204 | 4.0 | 8.0 | 0.00 | 0.00 | 0.00 | 96 | 1004.8 |
| 20260509124730 | 50 | 225 | 6.0 | 9.0 | 0.00 | 0.00 | 0.00 | 96 | 1004.8 |
| 20260509124715 | 50 | 191 | 6.0 | 9.0 | 0.00 | 0.00 | 0.00 | 96 | 1004.8 |
| 20260509124625 | 49 | 213 | 4.0 | 9.0 | 0.00 | 0.00 | 0.00 | 96 | 1004.8 |
| 20260509124519 | 49 | 186 | 4.0 | 9.0 | 0.00 | 0.00 | 0.00 | 96 | 1004.8 |
| 20260509124413 | 49 | 207 | 5.0 | 9.0 | 0.00 | 0.00 | 0.00 | 96 | 1004.8 |
| 20260509124308 | 49 | 200 | 4.0 | 9.0 | 0.00 | 0.00 | 0.00 | 96 | 1004.8 |
| 20260509124208 | 49 | 203 | 3.0 | 9.0 | 0.00 | 0.00 | 0.00 | 96 | 1004.8 |
| 20260509124202 | 49 | 184 | 4.0 | 9.0 | 0.00 | 0.00 | 0.00 | 96 | 1004.8 |
| 20260509124056 | 49 | 168 | 6.0 | 9.0 | 0.00 | 0.00 | 0.00 | 96 | 1004.5 |
| 20260509123950 | 49 | 200 | 1.0 | 9.0 | 0.00 | 0.00 | 0.00 | 96 | 1004.8 |
| 20260509123845 | 49 | 218 | 6.0 | 9.0 | 0.00 | 0.00 | 0.00 | 96 | 1004.8 |
| 20260509123739 | 49 | 185 | 6.0 | 9.0 | 0.00 | 0.00 | 0.00 | 96 | 1004.8 |
| 20260509123701 | 49 | 195 | 2.0 | 7.0 | 0.00 | 0.00 | 0.00 | 97 | 1004.8 |
| 20260509123633 | 49 | 222 | 2.0 | 7.0 | 0.00 | 0.00 | 0.00 | 97 | 1004.8 |
| 20260509123527 | 49 | 211 | 1.0 | 7.0 | 0.00 | 0.00 | 0.00 | 97 | 1004.5 |
| 20260509123423 | 49 | 228 | 2.0 | 7.0 | 0.00 | 0.00 | 0.00 | 97 | 1004.8 |
| 20260509123317 | 49 | 215 | 3.0 | 7.0 | 0.00 | 0.00 | 0.00 | 97 | 1004.8 |
| 20260509123211 | 49 | 179 | 3.0 | 7.0 | 0.00 | 0.00 | 0.00 | 97 | 1004.8 |
| 20260509123155 | 49 | 159 | 3.0 | 7.0 | 0.00 | 0.00 | 0.00 | 97 | 1004.8 |
| 20260509123106 | 49 | 178 | 4.0 | 7.0 | 0.00 | 0.00 | 0.00 | 97 | 1004.8 |
| 20260509123000 | 49 | 191 | 3.0 | 7.0 | 0.00 | 0.00 | 0.00 | 97 | 1004.8 |
| 20260509122854 | 49 | 195 | 4.0 | 7.0 | 0.00 | 0.00 | 0.00 | 97 | 1004.8 |
| 20260509122748 | 49 | 210 | 2.0 | 6.0 | 0.00 | 0.00 | 0.00 | 97 | 1004.8 |
| 20260509122650 | 49 | 206 | 3.0 | 6.0 | 0.00 | 0.00 | 0.00 | 97 | 1004.8 |
| 20260509122642 | 49 | 206 | 3.0 | 6.0 | 0.00 | 0.00 | 0.00 | 97 | 1004.5 |
| 20260509122538 | 48 | 183 | 2.0 | 7.0 | 0.00 | 0.00 | 0.00 | 97 | 1004.5 |
| 20260509122432 | 48 | 199 | 2.0 | 7.0 | 0.00 | 0.00 | 0.00 | 97 | 1004.8 |
| 20260509122326 | 48 | 189 | 4.0 | 7.0 | 0.00 | 0.00 | 0.00 | 97 | 1004.8 |
| 20260509122220 | 48 | 220 | 3.0 | 7.0 | 0.00 | 0.00 | 0.00 | 97 | 1004.8 |
| 20260509122143 | 48 | 233 | 4.0 | 7.0 | 0.00 | 0.00 | 0.00 | 97 | 1004.8 |
| 20260509122114 | 48 | 206 | 4.0 | 7.0 | 0.00 | 0.00 | 0.00 | 97 | 1004.8 |
| 20260509122009 | 48 | 201 | 1.0 | 7.0 | 0.00 | 0.00 | 0.00 | 97 | 1005.1 |
| 20260509121903 | 48 | 175 | 3.0 | 7.0 | 0.00 | 0.00 | 0.00 | 97 | 1004.8 |
| 20260509121758 | 48 | 213 | 3.0 | 7.0 | 0.00 | 0.00 | 0.00 | 97 | 1004.8 |
| 20260509121652 | 48 | 167 | 3.0 | 7.0 | 0.00 | 0.00 | 0.00 | 97 | 1004.8 |
| 20260509121636 | 48 | 201 | 6.0 | 7.0 | 0.00 | 0.00 | 0.00 | 97 | 1004.8 |
| 20260509121558 | 48 | 218 | 2.0 | 9.0 | 0.00 | 0.00 | 0.00 | 97 | 1004.5 |
| 20260509121441 | 48 | 167 | 4.0 | 9.0 | 0.00 | 0.00 | 0.00 | 97 | 1004.8 |
| 20260509121335 | 48 | 221 | 3.0 | 9.0 | 0.00 | 0.00 | 0.00 | 97 | 1004.5 |
| 20260509121229 | 48 | 211 | 1.0 | 9.0 | 0.00 | 0.00 | 0.00 | 97 | 1004.8 |
| 20260509121129 | 48 | 206 | 3.0 | 9.0 | 0.00 | 0.00 | 0.00 | 97 | 1004.8 |
| 20260509121123 | 48 | 210 | 2.0 | 9.0 | 0.00 | 0.00 | 0.00 | 97 | 1004.8 |
| 20260509121017 | 48 | 219 | 3.0 | 9.0 | 0.00 | 0.00 | 0.00 | 97 | 1004.8 |
| 20260509120912 | 48 | 201 | 3.0 | 9.0 | 0.00 | 0.00 | 0.00 | 97 | 1004.8 |
| 20260509120807 | 48 | 168 | 5.0 | 9.0 | 0.00 | 0.00 | 0.00 | 97 | 1004.8 |
| 20260509120701 | 48 | 183 | 3.0 | 9.0 | 0.00 | 0.00 | 0.00 | 97 | 1004.8 |
| 20260509120623 | 48 | 203 | 7.0 | 9.0 | 0.00 | 0.00 | 0.00 | 97 | 1004.8 |
| 20260509120555 | 48 | 230 | 4.0 | 9.0 | 0.00 | 0.00 | 0.00 | 97 | 1004.8 |
| 20260509120450 | 48 | 212 | 3.0 | 9.0 | 0.00 | 0.00 | 0.00 | 97 | 1004.5 |
| 20260509120344 | 48 | 187 | 4.0 | 9.0 | 0.00 | 0.00 | 0.00 | 97 | 1004.8 |
| 20260509120238 | 48 | 236 | 6.0 | 9.0 | 0.00 | 0.00 | 0.00 | 96 | 1004.8 |
| 20260509120133 | 48 | 224 | 3.0 | 9.0 | 0.00 | 0.00 | 0.00 | 97 | 1004.5 |
| 20260509120117 | 48 | 208 | 3.0 | 9.0 | 0.00 | 0.00 | 0.00 | 96 | 1004.5 |
| 20260509120024 | 48 | 239 | 5.0 | 9.0 | 0.00 | 0.00 | 0.00 | 96 | 1004.8 |
| 20260509115920 | 48 | 218 | 4.0 | 9.0 | 0.00 | 0.00 | 0.00 | 96 | 1004.5 |
| 20260509115814 | 48 | 174 | 6.0 | 9.0 | 0.00 | 0.00 | 0.00 | 96 | 1004.8 |
| 20260509115708 | 48 | 177 | 7.0 | 9.0 | 0.00 | 0.00 | 0.00 | 96 | 1004.5 |
| 20260509115608 | 47 | 202 | 4.0 | 8.0 | 0.00 | 0.00 | 0.00 | 96 | 1004.8 |
| 20260509115602 | 47 | 202 | 4.0 | 8.0 | 0.00 | 0.00 | 0.00 | 96 | 1004.8 |
| 20260509115456 | 47 | 188 | 3.0 | 8.0 | 0.00 | 0.00 | 0.00 | 96 | 1004.5 |
| 20260509115351 | 47 | 206 | 4.0 | 8.0 | 0.00 | 0.00 | 0.00 | 96 | 1004.5 |
| 20260509115245 | 47 | 184 | 6.0 | 7.0 | 0.00 | 0.00 | 0.00 | 96 | 1004.5 |
| 20260509115140 | 47 | 181 | 5.0 | 7.0 | 0.00 | 0.00 | 0.00 | 96 | 1004.5 |
| 20260509115103 | 47 | 179 | 2.0 | 7.0 | 0.00 | 0.00 | 0.00 | 96 | 1004.5 |
| 20260509115034 | 47 | 118 | 1.0 | 8.0 | 0.00 | 0.00 | 0.00 | 96 | 1004.5 |
| 20260509114929 | 47 | 170 | 2.0 | 8.0 | 0.00 | 0.00 | 0.00 | 96 | 1004.8 |
| 20260509114823 | 47 | 208 | 4.0 | 8.0 | 0.00 | 0.00 | 0.00 | 96 | 1004.8 |
| 20260509114717 | 47 | 162 | 4.0 | 8.0 | 0.00 | 0.00 | 0.00 | 96 | 1004.8 |
| 20260509114611 | 47 | 196 | 4.0 | 8.0 | 0.00 | 0.00 | 0.00 | 96 | 1004.8 |
| 20260509114555 | 47 | 207 | 3.0 | 8.0 | 0.00 | 0.00 | 0.00 | 96 | 1004.8 |
| 20260509114506 | 47 | 190 | 5.0 | 8.0 | 0.00 | 0.00 | 0.00 | 96 | 1004.8 |
| 20260509114400 | 47 | 159 | 2.0 | 8.0 | 0.00 | 0.00 | 0.00 | 96 | 1004.8 |
| 20260509114254 | 47 | 207 | 4.0 | 8.0 | 0.00 | 0.00 | 0.00 | 96 | 1005.1 |
| 20260509114149 | 46 | 185 | 6.0 | 8.0 | 0.00 | 0.00 | 0.00 | 96 | 1005.1 |
| 20260509114050 | 46 | 208 | 4.0 | 7.0 | 0.00 | 0.00 | 0.00 | 96 | 1005.1 |
| 20260509114043 | 46 | 179 | 4.0 | 7.0 | 0.00 | 0.00 | 0.00 | 96 | 1004.8 |
| 20260509113938 | 46 | 207 | 6.0 | 7.0 | 0.00 | 0.00 | 0.00 | 96 | 1005.1 |
| 20260509113832 | 47 | 221 | 3.0 | 7.0 | 0.00 | 0.00 | 0.00 | 96 | 1005.1 |
| 20260509113726 | 47 | 216 | 4.0 | 7.0 | 0.00 | 0.00 | 0.00 | 96 | 1005.1 |
| 20260509113618 | 47 | 220 | 3.0 | 7.0 | 0.00 | 0.00 | 0.00 | 96 | 1005.1 |
| 20260509113541 | 47 | 167 | 4.0 | 7.0 | 0.00 | 0.00 | 0.00 | 96 | 1005.1 |
| 20260509113513 | 47 | 149 | 4.0 | 7.0 | 0.00 | 0.00 | 0.00 | 96 | 1005.1 |
| 20260509113407 | 47 | 207 | 5.0 | 6.0 | 0.00 | 0.00 | 0.00 | 96 | 1005.1 |
| 20260509113302 | 47 | 183 | 2.0 | 6.0 | 0.00 | 0.00 | 0.00 | 96 | 1005.1 |
| 20260509113156 | 47 | 175 | 3.0 | 6.0 | 0.00 | 0.00 | 0.00 | 96 | 1005.1 |
| 20260509113051 | 47 | 203 | 4.0 | 6.0 | 0.00 | 0.00 | 0.00 | 96 | 1004.8 |
| 20260509113035 | 47 | 179 | 5.0 | 6.0 | 0.00 | 0.00 | 0.00 | 96 | 1005.1 |
| 20260509112946 | 47 | 187 | 3.0 | 4.0 | 0.00 | 0.00 | 0.00 | 96 | 1005.1 |
| 20260509112840 | 47 | 208 | 4.0 | 4.0 | 0.00 | 0.00 | 0.00 | 96 | 1004.8 |
| 20260509112734 | 47 | 205 | 4.0 | 4.0 | 0.00 | 0.00 | 0.00 | 96 | 1004.8 |
| 20260509112628 | 47 | 216 | 4.0 | 4.0 | 0.00 | 0.00 | 0.00 | 96 | 1005.1 |
| 20260509112523 | 47 | 210 | 3.0 | 4.0 | 0.00 | 0.00 | 0.00 | 96 | 1004.8 |
| 20260509112416 | 47 | 226 | 3.0 | 4.0 | 0.00 | 0.00 | 0.00 | 96 | 1005.1 |
| 20260509112310 | 47 | 194 | 3.0 | 4.0 | 0.00 | 0.00 | 0.00 | 96 | 1005.1 |
| 20260509112204 | 47 | 207 | 2.0 | 4.0 | 0.00 | 0.00 | 0.00 | 96 | 1005.1 |
| 20260509112059 | 47 | 204 | 3.0 | 4.0 | 0.00 | 0.00 | 0.00 | 96 | 1004.8 |
| 20260509112022 | 47 | 199 | 4.0 | 4.0 | 0.00 | 0.00 | 0.00 | 96 | 1004.8 |
| 20260509111953 | 47 | 206 | 2.0 | 4.0 | 0.00 | 0.00 | 0.00 | 96 | 1004.8 |
| 20260509111848 | 47 | 197 | 3.0 | 4.0 | 0.00 | 0.00 | 0.00 | 96 | 1005.1 |
| 20260509111743 | 47 | 202 | 2.0 | 4.0 | 0.00 | 0.00 | 0.00 | 96 | 1004.8 |
| 20260509111637 | 47 | 197 | 2.0 | 4.0 | 0.00 | 0.00 | 0.00 | 96 | 1004.8 |
| 20260509111531 | 47 | 187 | 2.0 | 4.0 | 0.00 | 0.00 | 0.00 | 96 | 1004.8 |
| 20260509111515 | 47 | 195 | 2.0 | 4.0 | 0.00 | 0.00 | 0.00 | 96 | 1004.8 |
| 20260509111426 | 47 | 187 | 2.0 | 4.0 | 0.00 | 0.00 | 0.00 | 96 | 1004.8 |
| 20260509111319 | 47 | 203 | 3.0 | 4.0 | 0.00 | 0.00 | 0.00 | 96 | 1005.1 |
| 20260509111214 | 47 | 197 | 3.0 | 4.0 | 0.00 | 0.00 | 0.00 | 96 | 1004.8 |
| 20260509111108 | 47 | 191 | 3.0 | 4.0 | 0.00 | 0.00 | 0.00 | 96 | 1004.8 |
| 20260509111009 | 46 | 218 | 2.0 | 4.0 | 0.00 | 0.00 | 0.00 | 96 | 1004.5 |
| 20260509111003 | 46 | 211 | 3.0 | 4.0 | 0.00 | 0.00 | 0.00 | 96 | 1004.5 |
| 20260509110857 | 46 | 208 | 2.0 | 4.0 | 0.00 | 0.00 | 0.00 | 96 | 1004.8 |
| 20260509110751 | 46 | 201 | 2.0 | 4.0 | 0.00 | 0.00 | 0.00 | 96 | 1005.1 |
| 20260509110645 | 46 | 186 | 2.0 | 4.0 | 0.00 | 0.00 | 0.00 | 96 | 1005.1 |
| 20260509110541 | 46 | 197 | 2.0 | 4.0 | 0.00 | 0.00 | 0.00 | 96 | 1004.8 |
| 20260509110503 | 46 | 193 | 3.0 | 4.0 | 0.00 | 0.00 | 0.00 | 96 | 1004.8 |
| 20260509110435 | 46 | 200 | 3.0 | 4.0 | 0.00 | 0.00 | 0.00 | 96 | 1004.8 |
| 20260509110328 | 46 | 201 | 4.0 | 4.0 | 0.00 | 0.00 | 0.00 | 96 | 1004.8 |
| 20260509110223 | 46 | 189 | 3.0 | 4.0 | 0.00 | 0.00 | 0.00 | 96 | 1005.1 |
| 20260509110117 | 46 | 213 | 4.0 | 4.0 | 0.00 | 0.00 | 0.00 | 96 | 1004.8 |
| 20260509110012 | 46 | 193 | 2.0 | 4.0 | 0.00 | 0.00 | 0.00 | 96 | 1004.8 |
| 20260509105956 | 46 | 195 | 3.0 | 4.0 | 0.00 | 0.00 | 0.00 | 96 | 1004.8 |
| 20260509105906 | 46 | 198 | 3.0 | 4.0 | 0.00 | 0.00 | 0.00 | 96 | 1004.8 |
| 20260509105807 | 46 | 201 | 2.0 | 4.0 | 0.00 | 0.00 | 0.00 | 96 | 1005.1 |
| 20260509105701 | 46 | 220 | 2.0 | 4.0 | 0.00 | 0.00 | 0.00 | 96 | 1005.1 |
| 20260509105556 | 46 | 200 | 3.0 | 4.0 | 0.00 | 0.00 | 0.00 | 96 | 1005.1 |
| 20260509105457 | 46 | 197 | 2.0 | 4.0 | 0.00 | 0.00 | 0.00 | 96 | 1005.1 |
| 20260509105450 | 46 | 209 | 2.0 | 4.0 | 0.00 | 0.00 | 0.00 | 96 | 1005.1 |
| 20260509105345 | 46 | 202 | 3.0 | 4.0 | 0.00 | 0.00 | 0.00 | 96 | 1004.8 |
| 20260509105239 | 46 | 207 | 2.0 | 4.0 | 0.00 | 0.00 | 0.00 | 96 | 1004.8 |
| 20260509105133 | 46 | 198 | 2.0 | 3.0 | 0.00 | 0.00 | 0.00 | 96 | 1005.1 |
| 20260509105027 | 46 | 203 | 2.0 | 3.0 | 0.00 | 0.00 | 0.00 | 96 | 1004.8 |
| 20260509104950 | 46 | 207 | 2.0 | 3.0 | 0.00 | 0.00 | 0.00 | 96 | 1004.8 |
| 20260509104922 | 46 | 190 | 2.0 | 3.0 | 0.00 | 0.00 | 0.00 | 96 | 1004.8 |
| 20260509104816 | 46 | 203 | 2.0 | 3.0 | 0.00 | 0.00 | 0.00 | 96 | 1004.8 |
| 20260509104710 | 46 | 177 | 2.0 | 3.0 | 0.00 | 0.00 | 0.00 | 96 | 1004.8 |
| 20260509104604 | 45 | 191 | 2.0 | 3.0 | 0.00 | 0.00 | 0.00 | 96 | 1005.1 |
| 20260509104457 | 45 | 205 | 3.0 | 3.0 | 0.00 | 0.00 | 0.00 | 96 | 1004.8 |
| 20260509104442 | 45 | 203 | 2.0 | 3.0 | 0.00 | 0.00 | 0.00 | 96 | 1004.8 |
| 20260509104352 | 44 | 192 | 2.0 | 2.0 | 0.00 | 0.00 | 0.00 | 96 | 1004.8 |
| 20260509104246 | 44 | 215 | 0.0 | 0.0 | 0.00 | 0.00 | 0.00 | 96 | 1005.1 |
| 20260509104140 | 44 | 198 | 0.0 | 0.0 | 0.00 | 0.00 | 0.00 | 96 | 1004.8 |
| 20260509104035 | 44 | 193 | 0.0 | 0.0 | 0.00 | 0.00 | 0.00 | 95 | 1004.8 |
| 20260509103936 | 44 | 187 | 0.0 | 0.0 | 0.00 | 0.00 | 0.00 | 95 | 1005.1 |
| 20260509103929 | 44 | 181 | 0.0 | 0.0 | 0.00 | 0.00 | 0.00 | 95 | 1005.1 |
| 20260509103824 | 44 | 185 | 0.0 | 0.0 | 0.00 | 0.00 | 0.00 | 95 | 1004.8 |
| 20260509103718 | 44 | 181 | 0.0 | 0.0 | 0.00 | 0.00 | 0.00 | 95 | 1004.5 |
| 20260509103610 | 44 | 176 | 0.0 | 0.0 | 0.00 | 0.00 | 0.00 | 95 | 1004.8 |
| 20260509103504 | 44 | 184 | 0.0 | 0.0 | 0.00 | 0.00 | 0.00 | 95 | 1004.8 |
| 20260509103426 | 44 | 186 | 0.0 | 0.0 | 0.00 | 0.00 | 0.00 | 95 | 1005.1 |
| 20260509103358 | 44 | 186 | 0.0 | 0.0 | 0.00 | 0.00 | 0.00 | 95 | 1005.1 |
| 20260509103252 | 44 | 189 | 0.0 | 0.0 | 0.00 | 0.00 | 0.00 | 95 | 1005.1 |
| 20260509103147 | 44 | 186 | 0.0 | 0.0 | 0.00 | 0.00 | 0.00 | 95 | 1005.1 |
| 20260509103041 | 44 | 187 | 0.0 | 0.0 | 0.00 | 0.00 | 0.00 | 95 | 1004.8 |
| 20260509102920 | 44 | 186 | 0.0 | 0.0 | 0.00 | 0.00 | 0.00 | 95 | 1005.1 |
| 20260509102830 | 44 | 186 | 0.0 | 0.0 | 0.00 | 0.00 | 0.00 | 95 | 1004.8 |
| 20260509102724 | 44 | 186 | 0.0 | 0.0 | 0.00 | 0.00 | 0.00 | 95 | 1004.8 |
| 20260509102617 | 44 | 187 | 0.0 | 0.0 | 0.00 | 0.00 | 0.00 | 95 | 1005.1 |
| 20260509102512 | 44 | 187 | 0.0 | 0.0 | 0.00 | 0.00 | 0.00 | 95 | 1005.1 |
| 20260509102406 | 44 | 187 | 0.0 | 0.0 | 0.00 | 0.00 | 0.00 | 95 | 1005.1 |
| 20260509102300 | 44 | 187 | 0.0 | 0.0 | 0.00 | 0.00 | 0.00 | 95 | 1005.1 |
| 20260509102155 | 43 | 158 | 0.0 | 0.0 | 0.00 | 0.00 | 0.00 | 95 | 1005.1 |
| 20260509102049 | 43 | 146 | 0.0 | 0.0 | 0.00 | 0.00 | 0.00 | 95 | 1005.1 |
| 20260509101944 | 43 | 146 | 0.0 | 0.0 | 0.00 | 0.00 | 0.00 | 95 | 1005.1 |
| 20260509101907 | 43 | 146 | 0.0 | 0.0 | 0.00 | 0.00 | 0.00 | 95 | 1005.1 |
| 20260509101838 | 43 | 146 | 0.0 | 0.0 | 0.00 | 0.00 | 0.00 | 94 | 1004.8 |
| 20260509101733 | 44 | 144 | 0.0 | 0.0 | 0.00 | 0.00 | 0.00 | 94 | 1005.1 |
| 20260509101627 | 44 | 144 | 0.0 | 0.0 | 0.00 | 0.00 | 0.00 | 94 | 1004.8 |
| 20260509101521 | 44 | 144 | 0.0 | 0.0 | 0.00 | 0.00 | 0.00 | 94 | 1004.8 |
| 20260509101416 | 44 | 144 | 0.0 | 0.0 | 0.00 | 0.00 | 0.00 | 94 | 1005.1 |
| 20260509101401 | 44 | 144 | 0.0 | 0.0 | 0.00 | 0.00 | 0.00 | 94 | 1005.1 |
| 20260509101311 | 44 | 144 | 0.0 | 0.0 | 0.00 | 0.00 | 0.00 | 94 | 1005.1 |
| 20260509101205 | 44 | 144 | 0.0 | 0.0 | 0.00 | 0.00 | 0.00 | 94 | 1005.1 |
| 20260509101100 | 44 | 143 | 0.0 | 0.0 | 0.00 | 0.00 | 0.00 | 94 | 1005.1 |
| 20260509100954 | 44 | 143 | 0.0 | 0.0 | 0.00 | 0.00 | 0.00 | 94 | 1005.1 |
| 20260509100847 | 44 | 143 | 0.0 | 0.0 | 0.00 | 0.00 | 0.00 | 94 | 1005.1 |
| 20260509100742 | 44 | 143 | 0.0 | 0.0 | 0.00 | 0.00 | 0.00 | 94 | 1005.1 |
| 20260509100636 | 44 | 143 | 0.0 | 0.0 | 0.00 | 0.00 | 0.00 | 94 | 1005.1 |
| 20260509100530 | 44 | 143 | 0.0 | 0.0 | 0.00 | 0.00 | 0.00 | 94 | 1005.1 |
| 20260509100424 | 44 | 142 | 0.0 | 0.0 | 0.00 | 0.00 | 0.00 | 95 | 1004.8 |
| 20260509100348 | 44 | 140 | 0.0 | 0.0 | 0.00 | 0.00 | 0.00 | 94 | 1004.8 |
| 20260509100319 | 44 | 139 | 0.0 | 0.0 | 0.00 | 0.00 | 0.00 | 94 | 1005.1 |
| 20260509100214 | 44 | 129 | 0.0 | 0.0 | 0.00 | 0.00 | 0.00 | 94 | 1005.5 |
| 20260509100108 | 43 | 127 | 0.0 | 0.0 | 0.00 | 0.00 | 0.00 | 94 | 1005.1 |
| 20260509100004 | 43 | 127 | 0.0 | 0.0 | 0.00 | 0.00 | 0.00 | 94 | 1005.1 |
| 20260509095929 | 44 | 183 | 0.0 | 0.0 | 0.00 | 0.00 | 0.00 | 92 | 1005.1 |
| 20260509095925 | 43 | 183 | 0.0 | 0.0 | 0.00 | 0.00 | 0.00 | 93 | 1005.1 |
| 20260509095910 | 43 | 127 | 0.0 | 0.0 | 0.00 | 0.00 | 0.00 | 93 | 1005.1 |
| 20260509095906 | 43 | 127 | 0.0 | 0.0 | 0.00 | 0.00 | 0.00 | 93 | 1005.1 |
| 20260509095857 | 43 | 127 | 0.0 | 0.0 | 0.00 | 0.00 | 0.00 | 93 | 1005.5 |
| 20260509095633 | 44 | 127 | 0.0 | 0.0 | 0.00 | 0.00 | 0.00 | 93 | 1005.1 |
| 20260509095629 | 43 | 127 | 0.0 | 0.0 | 0.00 | 0.00 | 0.00 | 93 | 1005.1 |
| 20260509095621 | 44 | 127 | 0.0 | 0.0 | 0.00 | 0.00 | 0.00 | 93 | 1005.1 |
| 20260509095359 | 44 | 127 | 0.0 | 0.0 | 0.00 | 0.00 | 0.00 | 93 | 1005.1 |
| 20260509095350 | 44 | 127 | 0.0 | 0.0 | 0.00 | 0.00 | 0.00 | 93 | 1005.1 |
| 20260509095128 | 44 | 127 | 0.0 | 0.0 | 0.00 | 0.00 | 0.00 | 93 | 1004.8 |
| 20260509095120 | 44 | 127 | 0.0 | 0.0 | 0.00 | 0.00 | 0.00 | 93 | 1005.1 |
| 20260509095111 | 44 | 127 | 0.0 | 0.0 | 0.00 | 0.00 | 0.00 | 94 | 1004.8 |
| 20260509094850 | 44 | 127 | 0.0 | 0.0 | 0.00 | 0.00 | 0.00 | 93 | 1005.1 |
| 20260509094846 | 44 | 127 | 0.0 | 0.0 | 0.00 | 0.00 | 0.00 | 93 | 1005.1 |
| 20260509094838 | 44 | 169 | 0.0 | 0.0 | 0.00 | 0.00 | 0.00 | 94 | 1005.1 |
| 20260509094616 | 43 | 182 | 0.0 | 0.0 | 0.00 | 0.00 | 0.00 | 93 | 1005.1 |
| 20260509094607 | 43 | 182 | 0.0 | 0.0 | 0.00 | 0.00 | 0.00 | 93 | 1005.1 |
| 20260509094558 | 43 | 183 | 0.0 | 0.0 | 0.00 | 0.00 | 0.00 | 93 | 1005.1 |
| 20260509094324 | 43 | 183 | 0.0 | 0.0 | 0.00 | 0.00 | 0.00 | 93 | 1005.1 |
| 20260509094315 | 43 | 183 | 0.0 | 0.0 | 0.00 | 0.00 | 0.00 | 92 | 1005.1 |
| 20260509094050 | 43 | 183 | 0.0 | 0.0 | 0.00 | 0.00 | 0.00 | 92 | 1005.1 |
| 20260509094041 | 43 | 183 | 0.0 | 0.0 | 0.00 | 0.00 | 0.00 | 92 | 1005.1 |
| 20260509093815 | 43 | 183 | 0.0 | 0.0 | 0.00 | 0.00 | 0.00 | 93 | 1005.1 |
| 20260509093807 | 43 | 183 | 0.0 | 0.0 | 0.00 | 0.00 | 0.00 | 92 | 1005.1 |
| 20260509093758 | 44 | 183 | 0.0 | 0.0 | 0.00 | 0.00 | 0.00 | 92 | 1005.1 |
| 20260509093535 | 44 | 183 | 0.0 | 0.0 | 0.00 | 0.00 | 0.00 | 92 | 1005.1 |
| 20260509093526 | 44 | 183 | 0.0 | 0.0 | 0.00 | 0.00 | 0.00 | 92 | 1005.1 |
| 20260509093240 | 44 | 183 | 0.0 | 0.0 | 0.00 | 0.00 | 0.00 | 92 | 1005.1 |
| 20260509093134 | 44 | 183 | 0.0 | 0.0 | 0.00 | 0.00 | 0.00 | 92 | 1005.1 |
| 20260509093036 | 44 | 181 | 0.0 | 0.0 | 0.00 | 0.00 | 0.00 | 92 | 1004.8 |
| 20260509093027 | 44 | 181 | 0.0 | 0.0 | 0.00 | 0.00 | 0.00 | 92 | 1005.1 |
| 20260509093019 | 44 | 181 | 0.0 | 0.0 | 0.00 | 0.00 | 0.00 | 92 | 1005.1 |
| 20260509092711 | 44 | 181 | 0.0 | 0.0 | 0.00 | 0.00 | 0.00 | 91 | 1005.1 |
| 20260509092606 | 44 | 181 | 0.0 | 0.0 | 0.00 | 0.00 | 0.00 | 91 | 1005.1 |
| 20260509092542 | 44 | 181 | 0.0 | 0.0 | 0.00 | 0.00 | 0.00 | 91 | 1005.1 |
| 20260509092538 | 44 | 181 | 0.0 | 0.0 | 0.00 | 0.00 | 0.00 | 91 | 1005.1 |
| 20260509092530 | 44 | 181 | 0.0 | 0.0 | 0.00 | 0.00 | 0.00 | 91 | 1005.1 |
| 20260509092249 | 44 | 191 | 0.0 | 0.0 | 0.00 | 0.00 | 0.00 | 91 | 1005.1 |
| 20260509092143 | 44 | 190 | 0.0 | 0.0 | 0.00 | 0.00 | 0.00 | 91 | 1005.1 |
| 20260509092037 | 44 | 191 | 0.0 | 0.0 | 0.00 | 0.00 | 0.00 | 91 | 1005.5 |
| 20260509092026 | 45 | 193 | 0.0 | 0.0 | 0.00 | 0.00 | 0.00 | 91 | 1005.1 |
| 20260509092020 | 45 | 193 | 0.0 | 0.0 | 0.00 | 0.00 | 0.00 | 91 | 1005.1 |
| 20260509092011 | 45 | 193 | 0.0 | 0.0 | 0.00 | 0.00 | 0.00 | 91 | 1005.1 |
| 20260509091720 | 45 | 191 | 0.0 | 0.0 | 0.00 | 0.00 | 0.00 | 91 | 1005.1 |
| 20260509091614 | 45 | 191 | 0.0 | 0.0 | 0.00 | 0.00 | 0.00 | 91 | 1005.1 |
| 20260509091520 | 45 | 191 | 0.0 | 0.0 | 0.00 | 0.00 | 0.00 | 91 | 1005.1 |
| 20260509091403 | 45 | 190 | 0.0 | 0.0 | 0.00 | 0.00 | 0.00 | 91 | 1005.5 |
| 20260509091257 | 45 | 191 | 0.0 | 0.0 | 0.00 | 0.00 | 0.00 | 91 | 1005.1 |
| 20260509091241 | 45 | 190 | 0.0 | 0.0 | 0.00 | 0.00 | 0.00 | 90 | 1005.1 |
| 20260509091151 | 45 | 189 | 0.0 | 0.0 | 0.00 | 0.00 | 0.00 | 90 | 1005.1 |
| 20260509091058 | 45 | 191 | 0.0 | 0.0 | 0.00 | 0.00 | 0.00 | 90 | 1005.1 |
| 20260509090940 | 45 | 190 | 0.0 | 0.0 | 0.00 | 0.00 | 0.00 | 91 | 1005.1 |
| 20260509090833 | 45 | 189 | 0.0 | 0.0 | 0.00 | 0.00 | 0.00 | 90 | 1005.1 |
| 20260509090735 | 45 | 189 | 0.0 | 0.0 | 0.00 | 0.00 | 0.00 | 91 | 1005.5 |
| 20260509090728 | 45 | 193 | 0.0 | 0.0 | 0.00 | 0.00 | 0.00 | 91 | 1005.5 |
| 20260509090622 | 45 | 192 | 0.0 | 0.0 | 0.00 | 0.00 | 0.00 | 91 | 1005.1 |
| 20260509090517 | 45 | 205 | 0.0 | 0.0 | 0.00 | 0.00 | 0.00 | 91 | 1005.1 |
| 20260509090411 | 45 | 200 | 0.0 | 0.0 | 0.00 | 0.00 | 0.00 | 91 | 1005.1 |
| 20260509090305 | 45 | 200 | 0.0 | 1.0 | 0.00 | 0.00 | 0.00 | 91 | 1005.1 |
| 20260509090228 | 45 | 197 | 0.0 | 1.0 | 0.00 | 0.00 | 0.00 | 91 | 1005.1 |
| 20260509090200 | 45 | 196 | 0.0 | 1.0 | 0.00 | 0.00 | 0.00 | 91 | 1005.1 |
| 20260509090106 | 45 | 191 | 0.0 | 1.0 | 0.00 | 0.00 | 0.00 | 91 | 1005.1 |
| 20260509085948 | 45 | 187 | 0.0 | 1.0 | 0.00 | 0.00 | 0.00 | 91 | 1005.5 |
| 20260509085842 | 45 | 193 | 0.0 | 2.0 | 0.00 | 0.00 | 0.00 | 90 | 1005.1 |
| 20260509085721 | 45 | 184 | 0.0 | 2.0 | 0.00 | 0.00 | 0.00 | 90 | 1005.5 |
| 20260509085631 | 45 | 181 | 0.0 | 2.0 | 0.00 | 0.00 | 0.00 | 91 | 1005.1 |
| 20260509085526 | 45 | 183 | 0.0 | 2.0 | 0.00 | 0.00 | 0.00 | 91 | 1005.1 |
| 20260509085420 | 45 | 184 | 0.0 | 2.0 | 0.00 | 0.00 | 0.00 | 90 | 1005.1 |
| 20260509085315 | 45 | 184 | 0.0 | 2.0 | 0.00 | 0.00 | 0.00 | 90 | 1005.1 |
| 20260509085216 | 45 | 181 | 1.0 | 2.0 | 0.00 | 0.00 | 0.00 | 90 | 1005.1 |
| 20260509085209 | 45 | 178 | 0.0 | 2.0 | 0.00 | 0.00 | 0.00 | 90 | 1005.1 |
| 20260509085102 | 45 | 168 | 0.0 | 2.0 | 0.00 | 0.00 | 0.00 | 90 | 1005.5 |
| 20260509084957 | 45 | 168 | 1.0 | 2.0 | 0.00 | 0.00 | 0.00 | 90 | 1005.5 |
| 20260509084851 | 45 | 178 | 1.0 | 3.0 | 0.00 | 0.00 | 0.00 | 90 | 1005.1 |
| 20260509084746 | 45 | 207 | 1.0 | 3.0 | 0.00 | 0.00 | 0.00 | 90 | 1005.1 |
| 20260509084708 | 45 | 217 | 0.0 | 3.0 | 0.00 | 0.00 | 0.00 | 90 | 1005.1 |
| 20260509084639 | 45 | 217 | 1.0 | 3.0 | 0.00 | 0.00 | 0.00 | 90 | 1005.5 |
| 20260509084533 | 45 | 206 | 1.0 | 3.0 | 0.00 | 0.00 | 0.00 | 90 | 1005.5 |
| 20260509084429 | 45 | 177 | 2.0 | 3.0 | 0.00 | 0.00 | 0.00 | 90 | 1005.1 |
| 20260509084323 | 45 | 177 | 1.0 | 6.0 | 0.00 | 0.00 | 0.00 | 90 | 1005.5 |
| 20260509084217 | 45 | 178 | 0.0 | 6.0 | 0.00 | 0.00 | 0.00 | 90 | 1005.5 |
| 20260509084202 | 45 | 178 | 1.0 | 6.0 | 0.00 | 0.00 | 0.00 | 90 | 1005.5 |
| 20260509084110 | 45 | 185 | 1.0 | 6.0 | 0.00 | 0.00 | 0.00 | 90 | 1005.5 |
| 20260509084005 | 45 | 189 | 2.0 | 6.0 | 0.00 | 0.00 | 0.00 | 89 | 1005.5 |
| 20260509083859 | 45 | 179 | 2.0 | 6.0 | 0.00 | 0.00 | 0.00 | 90 | 1005.5 |
| 20260509083754 | 45 | 300 | 0.0 | 6.0 | 0.00 | 0.00 | 0.00 | 89 | 1005.5 |
| 20260509083654 | 45 | 301 | 0.0 | 6.0 | 0.00 | 0.00 | 0.00 | 89 | 1005.5 |
| 20260509083648 | 45 | 301 | 1.0 | 6.0 | 0.00 | 0.00 | 0.00 | 89 | 1005.5 |
| 20260509083542 | 45 | 310 | 1.0 | 6.0 | 0.00 | 0.00 | 0.00 | 89 | 1005.5 |
| 20260509083436 | 45 | 169 | 1.0 | 6.0 | 0.00 | 0.00 | 0.00 | 89 | 1005.5 |
| 20260509083331 | 46 | 187 | 2.0 | 4.0 | 0.00 | 0.00 | 0.00 | 87 | 1005.5 |
| 20260509083225 | 46 | 161 | 2.0 | 4.0 | 0.00 | 0.00 | 0.00 | 88 | 1005.5 |
| 20260509083148 | 46 | 172 | 1.0 | 4.0 | 0.00 | 0.00 | 0.00 | 88 | 1005.5 |
| 20260509083120 | 46 | 187 | 1.0 | 4.0 | 0.00 | 0.00 | 0.00 | 88 | 1005.1 |
| 20260509083013 | 46 | 188 | 0.0 | 4.0 | 0.00 | 0.00 | 0.00 | 88 | 1005.5 |
| 20260509082909 | 46 | 190 | 2.0 | 4.0 | 0.00 | 0.00 | 0.00 | 88 | 1005.1 |
| 20260509082803 | 46 | 211 | 2.0 | 3.0 | 0.00 | 0.00 | 0.00 | 87 | 1005.5 |
| 20260509082641 | 47 | 186 | 2.0 | 3.0 | 0.00 | 0.00 | 0.00 | 87 | 1005.5 |
| 20260509082551 | 47 | 201 | 2.0 | 3.0 | 0.00 | 0.00 | 0.00 | 87 | 1005.5 |
| 20260509082445 | 47 | 193 | 1.0 | 3.0 | 0.00 | 0.00 | 0.00 | 87 | 1005.1 |
| 20260509082340 | 47 | 184 | 2.0 | 3.0 | 0.00 | 0.00 | 0.00 | 88 | 1005.8 |
| 20260509082235 | 47 | 183 | 1.0 | 2.0 | 0.00 | 0.00 | 0.00 | 88 | 1005.5 |
| 20260509082135 | 46 | 180 | 2.0 | 3.0 | 0.00 | 0.00 | 0.00 | 87 | 1005.8 |
| 20260509082128 | 46 | 188 | 1.0 | 3.0 | 0.00 | 0.00 | 0.00 | 88 | 1005.8 |
| 20260509082022 | 46 | 188 | 0.0 | 3.0 | 0.00 | 0.00 | 0.00 | 88 | 1005.5 |
| 20260509081917 | 46 | 203 | 0.0 | 3.0 | 0.00 | 0.00 | 0.00 | 88 | 1005.1 |
| 20260509081812 | 46 | 189 | 0.0 | 3.0 | 0.00 | 0.00 | 0.00 | 87 | 1005.1 |
| 20260509081706 | 46 | 193 | 1.0 | 3.0 | 0.00 | 0.00 | 0.00 | 87 | 1005.1 |
| 20260509081628 | 46 | 188 | 1.0 | 3.0 | 0.00 | 0.00 | 0.00 | 87 | 1005.5 |
| 20260509081600 | 46 | 193 | 0.0 | 3.0 | 0.00 | 0.00 | 0.00 | 87 | 1005.5 |
| 20260509081455 | 46 | 191 | 1.0 | 3.0 | 0.00 | 0.00 | 0.00 | 88 | 1005.5 |
| 20260509081349 | 46 | 189 | 1.0 | 3.0 | 0.00 | 0.00 | 0.00 | 88 | 1005.5 |
| 20260509081244 | 46 | 198 | 2.0 | 3.0 | 0.00 | 0.00 | 0.00 | 88 | 1005.5 |
| 20260509081151 | 46 | 201 | 1.0 | 2.0 | 0.00 | 0.00 | 0.00 | 88 | 1005.5 |
| 20260509081123 | 46 | 213 | 2.0 | 2.0 | 0.00 | 0.00 | 0.00 | 88 | 1005.5 |
| 20260509081032 | 46 | 193 | 0.0 | 1.0 | 0.00 | 0.00 | 0.00 | 87 | 1005.1 |
| 20260509080927 | 46 | 195 | 1.0 | 1.0 | 0.00 | 0.00 | 0.00 | 88 | 1005.5 |
| 20260509080821 | 46 | 205 | 1.0 | 1.0 | 0.00 | 0.00 | 0.00 | 88 | 1005.5 |
| 20260509080715 | 46 | 189 | 1.0 | 1.0 | 0.00 | 0.00 | 0.00 | 88 | 1005.5 |
| 20260509080611 | 46 | 194 | 1.0 | 1.0 | 0.00 | 0.00 | 0.00 | 89 | 1005.5 |
| 20260509080504 | 45 | 173 | 1.0 | 1.0 | 0.00 | 0.00 | 0.00 | 89 | 1005.5 |
| 20260509080358 | 45 | 189 | 0.0 | 0.0 | 0.00 | 0.00 | 0.00 | 89 | 1005.5 |
| 20260509080253 | 45 | 194 | 0.0 | 0.0 | 0.00 | 0.00 | 0.00 | 89 | 1005.5 |
| 20260509080147 | 45 | 195 | 0.0 | 0.0 | 0.00 | 0.00 | 0.00 | 89 | 1005.5 |
| 20260509080109 | 45 | 194 | 0.0 | 0.0 | 0.00 | 0.00 | 0.00 | 89 | 1005.5 |
| 20260509080041 | 45 | 189 | 0.0 | 0.0 | 0.00 | 0.00 | 0.00 | 89 | 1005.5 |
| 20260509075935 | 45 | 188 | 0.0 | 0.0 | 0.00 | 0.00 | 0.00 | 89 | 1005.1 |
| 20260509075829 | 45 | 188 | 0.0 | 0.0 | 0.00 | 0.00 | 0.00 | 89 | 1005.5 |
| 20260509075723 | 45 | 188 | 0.0 | 0.0 | 0.00 | 0.00 | 0.00 | 89 | 1005.5 |
| 20260509075616 | 45 | 188 | 0.0 | 0.0 | 0.00 | 0.00 | 0.00 | 89 | 1005.1 |
| 20260509075600 | 45 | 188 | 0.0 | 0.0 | 0.00 | 0.00 | 0.00 | 89 | 1005.1 |
| 20260509075511 | 45 | 188 | 0.0 | 0.0 | 0.00 | 0.00 | 0.00 | 89 | 1005.5 |
| 20260509075405 | 45 | 189 | 0.0 | 0.0 | 0.00 | 0.00 | 0.00 | 89 | 1005.5 |
| 20260509075259 | 45 | 189 | 0.0 | 0.0 | 0.00 | 0.00 | 0.00 | 89 | 1005.5 |
| 20260509075153 | 45 | 188 | 0.0 | 0.0 | 0.00 | 0.00 | 0.00 | 89 | 1005.5 |
| 20260509075048 | 45 | 189 | 0.0 | 0.0 | 0.00 | 0.00 | 0.00 | 89 | 1005.5 |
| 20260509074942 | 45 | 188 | 0.0 | 0.0 | 0.00 | 0.00 | 0.00 | 89 | 1005.5 |
| 20260509074836 | 45 | 188 | 0.0 | 0.0 | 0.00 | 0.00 | 0.00 | 88 | 1005.5 |
| 20260509074732 | 45 | 189 | 0.0 | 0.0 | 0.00 | 0.00 | 0.00 | 88 | 1005.5 |
| 20260509074626 | 45 | 189 | 0.0 | 0.0 | 0.00 | 0.00 | 0.00 | 88 | 1005.5 |
| 20260509074519 | 45 | 189 | 0.0 | 0.0 | 0.00 | 0.00 | 0.00 | 88 | 1005.5 |
| 20260509074414 | 45 | 189 | 0.0 | 0.0 | 0.00 | 0.00 | 0.00 | 88 | 1005.5 |
| 20260509074308 | 45 | 189 | 0.0 | 0.0 | 0.00 | 0.00 | 0.00 | 88 | 1005.5 |
| 20260509074203 | 45 | 189 | 0.0 | 1.0 | 0.00 | 0.00 | 0.00 | 88 | 1005.5 |
| 20260509074058 | 45 | 189 | 0.0 | 1.0 | 0.00 | 0.00 | 0.00 | 88 | 1005.5 |
| 20260509074040 | 45 | 189 | 0.0 | 1.0 | 0.00 | 0.00 | 0.00 | 88 | 1005.8 |
| 20260509073950 | 45 | 189 | 0.0 | 1.0 | 0.00 | 0.00 | 0.00 | 88 | 1005.8 |
| 20260509073845 | 46 | 189 | 0.0 | 1.0 | 0.00 | 0.00 | 0.00 | 87 | 1005.5 |
| 20260509073739 | 46 | 188 | 0.0 | 1.0 | 0.00 | 0.00 | 0.00 | 87 | 1005.5 |
| 20260509073632 | 46 | 188 | 0.0 | 1.0 | 0.00 | 0.00 | 0.00 | 87 | 1005.8 |
| 20260509073526 | 46 | 189 | 0.0 | 1.0 | 0.00 | 0.00 | 0.00 | 87 | 1005.5 |
| 20260509073422 | 46 | 189 | 0.0 | 1.0 | 0.00 | 0.00 | 0.00 | 88 | 1005.8 |
| 20260509073315 | 46 | 188 | 0.0 | 1.0 | 0.00 | 0.00 | 0.00 | 88 | 1005.5 |
| 20260509073209 | 46 | 188 | 1.0 | 1.0 | 0.00 | 0.00 | 0.00 | 88 | 1005.8 |
| 20260509073104 | 46 | 194 | 0.0 | 1.0 | 0.00 | 0.00 | 0.00 | 87 | 1005.8 |
| 20260509073026 | 46 | 189 | 0.0 | 1.0 | 0.00 | 0.00 | 0.00 | 87 | 1005.8 |
| 20260509072958 | 46 | 188 | 0.0 | 1.0 | 0.00 | 0.00 | 0.00 | 87 | 1005.8 |
| 20260509072853 | 46 | 193 | 0.0 | 1.0 | 0.00 | 0.00 | 0.00 | 87 | 1005.8 |
| 20260509072747 | 46 | 194 | 0.0 | 1.0 | 0.00 | 0.00 | 0.00 | 87 | 1005.5 |
| 20260509072641 | 46 | 194 | 0.0 | 1.0 | 0.00 | 0.00 | 0.00 | 87 | 1005.8 |
| 20260509072520 | 46 | 194 | 0.0 | 1.0 | 0.00 | 0.00 | 0.00 | 87 | 1005.5 |
| 20260509072430 | 46 | 194 | 0.0 | 1.0 | 0.00 | 0.00 | 0.00 | 87 | 1005.8 |
| 20260509072324 | 46 | 194 | 0.0 | 1.0 | 0.00 | 0.00 | 0.00 | 87 | 1005.8 |
| 20260509072218 | 46 | 195 | 0.0 | 1.0 | 0.00 | 0.00 | 0.00 | 87 | 1005.5 |
| 20260509072113 | 46 | 190 | 0.0 | 1.0 | 0.00 | 0.00 | 0.00 | 87 | 1005.8 |
| 20260509072008 | 47 | 194 | 0.0 | 1.0 | 0.00 | 0.00 | 0.00 | 87 | 1005.8 |
| 20260509071902 | 47 | 195 | 0.0 | 1.0 | 0.00 | 0.00 | 0.00 | 87 | 1005.8 |
| 20260509071756 | 47 | 194 | 0.0 | 1.0 | 0.00 | 0.00 | 0.00 | 87 | 1005.8 |
| 20260509071650 | 47 | 189 | 1.0 | 1.0 | 0.00 | 0.00 | 0.00 | 87 | 1005.8 |
| 20260509071543 | 47 | 189 | 0.0 | 1.0 | 0.00 | 0.00 | 0.00 | 87 | 1005.5 |
| 20260509071505 | 47 | 189 | 1.0 | 1.0 | 0.00 | 0.00 | 0.00 | 87 | 1005.5 |
| 20260509071438 | 47 | 192 | 0.0 | 1.0 | 0.00 | 0.00 | 0.00 | 86 | 1005.8 |
| 20260509071332 | 47 | 193 | 0.0 | 1.0 | 0.00 | 0.00 | 0.00 | 87 | 1005.5 |
| 20260509071227 | 47 | 192 | 1.0 | 1.0 | 0.00 | 0.00 | 0.00 | 87 | 1005.5 |
| 20260509071121 | 47 | 190 | 1.0 | 1.0 | 0.00 | 0.00 | 0.00 | 87 | 1005.8 |
| 20260509071015 | 47 | 189 | 1.0 | 1.0 | 0.00 | 0.00 | 0.00 | 87 | 1005.8 |
| 20260509071000 | 47 | 191 | 1.0 | 1.0 | 0.00 | 0.00 | 0.00 | 87 | 1005.8 |
| 20260509070911 | 47 | 191 | 1.0 | 1.0 | 0.00 | 0.00 | 0.00 | 87 | 1005.8 |
| 20260509070804 | 47 | 190 | 1.0 | 1.0 | 0.00 | 0.00 | 0.00 | 87 | 1005.8 |
| 20260509070658 | 47 | 188 | 0.0 | 1.0 | 0.00 | 0.00 | 0.00 | 87 | 1005.8 |
| 20260509070553 | 47 | 183 | 0.0 | 2.0 | 0.00 | 0.00 | 0.00 | 86 | 1005.8 |
| 20260509070447 | 47 | 192 | 0.0 | 2.0 | 0.00 | 0.00 | 0.00 | 86 | 1005.8 |
| 20260509070342 | 47 | 191 | 0.0 | 2.0 | 0.00 | 0.00 | 0.00 | 86 | 1005.8 |
| 20260509070237 | 47 | 191 | 0.0 | 2.0 | 0.00 | 0.00 | 0.00 | 86 | 1005.8 |
| 20260509070129 | 47 | 191 | 0.0 | 3.0 | 0.00 | 0.00 | 0.00 | 85 | 1005.8 |
| 20260509070024 | 47 | 191 | 0.0 | 3.0 | 0.00 | 0.00 | 0.00 | 85 | 1005.8 |
| 20260509065919 | 47 | 191 | 0.0 | 3.0 | 0.00 | 0.00 | 0.00 | 85 | 1005.8 |
| 20260509065814 | 47 | 194 | 0.0 | 3.0 | 0.00 | 0.00 | 0.00 | 85 | 1005.8 |
| 20260509065710 | 47 | 199 | 1.0 | 3.0 | 0.00 | 0.00 | 0.00 | 86 | 1006.1 |
| 20260509065601 | 47 | 195 | 1.0 | 3.0 | 0.00 | 0.00 | 0.00 | 86 | 1005.8 |
| 20260509065455 | 47 | 193 | 1.0 | 3.0 | 0.00 | 0.00 | 0.00 | 86 | 1005.8 |
| 20260509065439 | 47 | 193 | 1.0 | 3.0 | 0.00 | 0.00 | 0.00 | 86 | 1006.1 |
| 20260509065350 | 47 | 185 | 1.0 | 3.0 | 0.00 | 0.00 | 0.00 | 86 | 1006.1 |
| 20260509065243 | 47 | 197 | 2.0 | 3.0 | 0.00 | 0.00 | 0.00 | 86 | 1005.8 |
| 20260509065138 | 47 | 200 | 2.0 | 2.0 | 0.00 | 0.00 | 0.00 | 87 | 1006.1 |
| 20260509065032 | 47 | 186 | 2.0 | 2.0 | 0.00 | 0.00 | 0.00 | 87 | 1006.1 |
| 20260509064926 | 47 | 187 | 1.0 | 2.0 | 0.00 | 0.00 | 0.00 | 87 | 1006.1 |
| 20260509064820 | 47 | 186 | 1.0 | 2.0 | 0.00 | 0.00 | 0.00 | 87 | 1005.8 |
| 20260509064726 | 47 | 182 | 0.0 | 0.0 | 0.00 | 0.00 | 0.00 | 87 | 1005.8 |
| 20260509064619 | 47 | 183 | 0.0 | 0.0 | 0.00 | 0.00 | 0.00 | 87 | 1006.1 |
| 20260509064513 | 47 | 183 | 0.0 | 0.0 | 0.00 | 0.00 | 0.00 | 87 | 1005.8 |
| 20260509064435 | 47 | 183 | 0.0 | 0.0 | 0.00 | 0.00 | 0.00 | 87 | 1005.8 |
| 20260509064408 | 47 | 184 | 0.0 | 0.0 | 0.00 | 0.00 | 0.00 | 87 | 1005.8 |
| 20260509064302 | 47 | 183 | 0.0 | 0.0 | 0.00 | 0.00 | 0.00 | 86 | 1006.1 |
| 20260509064156 | 47 | 184 | 0.0 | 0.0 | 0.00 | 0.00 | 0.00 | 87 | 1006.1 |
| 20260509064053 | 48 | 184 | 0.0 | 0.0 | 0.00 | 0.00 | 0.00 | 86 | 1006.1 |
| 20260509063948 | 48 | 191 | 0.0 | 0.0 | 0.00 | 0.00 | 0.00 | 86 | 1005.8 |
| 20260509063931 | 48 | 192 | 0.0 | 0.0 | 0.00 | 0.00 | 0.00 | 86 | 1005.8 |
| 20260509063841 | 48 | 189 | 0.0 | 0.0 | 0.00 | 0.00 | 0.00 | 86 | 1006.1 |
| 20260509063735 | 48 | 192 | 0.0 | 0.0 | 0.00 | 0.00 | 0.00 | 86 | 1005.8 |
| 20260509063631 | 48 | 188 | 0.0 | 0.0 | 0.00 | 0.00 | 0.00 | 86 | 1006.1 |
| 20260509063524 | 48 | 196 | 0.0 | 0.0 | 0.00 | 0.00 | 0.00 | 86 | 1006.1 |
| 20260509063419 | 48 | 199 | 0.0 | 0.0 | 0.00 | 0.00 | 0.00 | 86 | 1006.1 |
| 20260509063313 | 48 | 201 | 0.0 | 0.0 | 0.00 | 0.00 | 0.00 | 86 | 1006.1 |
| 20260509063209 | 48 | 195 | 0.0 | 0.0 | 0.00 | 0.00 | 0.00 | 86 | 1006.1 |
| 20260509063101 | 48 | 195 | 0.0 | 0.0 | 0.00 | 0.00 | 0.00 | 86 | 1006.1 |
| 20260509062957 | 48 | 196 | 0.0 | 0.0 | 0.00 | 0.00 | 0.00 | 86 | 1006.1 |
| 20260509062918 | 48 | 206 | 0.0 | 0.0 | 0.00 | 0.00 | 0.00 | 86 | 1006.1 |
| 20260509062851 | 48 | 190 | 0.0 | 0.0 | 0.00 | 0.00 | 0.00 | 87 | 1006.1 |
| 20260509062726 | 48 | 200 | 0.0 | 0.0 | 0.00 | 0.00 | 0.00 | 87 | 1006.1 |
| 20260509062619 | 47 | 195 | 0.0 | 0.0 | 0.00 | 0.00 | 0.00 | 87 | 1006.1 |
| 20260509062513 | 47 | 201 | 0.0 | 0.0 | 0.00 | 0.00 | 0.00 | 88 | 1006.1 |
| 20260509062419 | 47 | 198 | 0.0 | 0.0 | 0.00 | 0.00 | 0.00 | 88 | 1006.1 |
| 20260509062415 | 47 | 198 | 0.0 | 0.0 | 0.00 | 0.00 | 0.00 | 88 | 1006.1 |
| 20260509062306 | 47 | 193 | 0.0 | 0.0 | 0.00 | 0.00 | 0.00 | 88 | 1006.1 |
| 20260509062158 | 47 | 188 | 0.0 | 0.0 | 0.00 | 0.00 | 0.00 | 87 | 1006.1 |
| 20260509062103 | 47 | 188 | 0.0 | 0.0 | 0.00 | 0.00 | 0.00 | 87 | 1006.1 |
| 20260509061945 | 47 | 191 | 0.0 | 0.0 | 0.00 | 0.00 | 0.00 | 86 | 1006.1 |
| 20260509061840 | 47 | 191 | 0.0 | 0.0 | 0.00 | 0.00 | 0.00 | 86 | 1006.1 |
| 20260509061733 | 47 | 191 | 0.0 | 0.0 | 0.00 | 0.00 | 0.00 | 86 | 1006.1 |
| 20260509061628 | 47 | 191 | 0.0 | 0.0 | 0.00 | 0.00 | 0.00 | 86 | 1006.1 |
| 20260509061523 | 47 | 191 | 0.0 | 0.0 | 0.00 | 0.00 | 0.00 | 86 | 1006.1 |
| 20260509061416 | 47 | 192 | 0.0 | 0.0 | 0.00 | 0.00 | 0.00 | 87 | 1006.1 |
| 20260509061400 | 47 | 192 | 0.0 | 0.0 | 0.00 | 0.00 | 0.00 | 87 | 1006.1 |
| 20260509061311 | 47 | 192 | 0.0 | 0.0 | 0.00 | 0.00 | 0.00 | 87 | 1006.1 |
| 20260509061205 | 47 | 192 | 0.0 | 0.0 | 0.00 | 0.00 | 0.00 | 87 | 1006.1 |
| 20260509061101 | 47 | 190 | 0.0 | 0.0 | 0.00 | 0.00 | 0.00 | 86 | 1006.1 |
| 20260509060955 | 47 | 189 | 0.0 | 0.0 | 0.00 | 0.00 | 0.00 | 86 | 1006.1 |
| 20260509060849 | 47 | 184 | 0.0 | 0.0 | 0.00 | 0.00 | 0.00 | 85 | 1006.1 |
| 20260509060743 | 47 | 191 | 0.0 | 0.0 | 0.00 | 0.00 | 0.00 | 86 | 1006.1 |
| 20260509060636 | 47 | 191 | 0.0 | 0.0 | 0.00 | 0.00 | 0.00 | 85 | 1006.1 |
| 20260509060519 | 47 | 191 | 0.0 | 0.0 | 0.00 | 0.00 | 0.00 | 86 | 1006.1 |
| 20260509060413 | 47 | 191 | 0.0 | 0.0 | 0.00 | 0.00 | 0.00 | 85 | 1006.1 |
| 20260509060308 | 47 | 191 | 0.0 | 0.0 | 0.00 | 0.00 | 0.00 | 85 | 1006.1 |
| 20260509060203 | 47 | 191 | 0.0 | 0.0 | 0.00 | 0.00 | 0.00 | 85 | 1006.1 |
| 20260509055950 | 47 | 191 | 0.0 | 1.0 | 0.00 | 0.00 | 0.00 | 85 | 1006.6 |
| 20260509055830 | 47 | 191 | 0.0 | 1.0 | 0.00 | 0.00 | 0.00 | 85 | 1006.6 |
| 20260509055739 | 47 | 191 | 0.0 | 1.0 | 0.00 | 0.00 | 0.00 | 85 | 1006.1 |
| 20260509055635 | 48 | 191 | 0.0 | 1.0 | 0.00 | 0.00 | 0.00 | 84 | 1006.6 |
| 20260509055529 | 48 | 191 | 0.0 | 1.0 | 0.00 | 0.00 | 0.00 | 84 | 1006.1 |
| 20260509055423 | 48 | 189 | 0.0 | 1.0 | 0.00 | 0.00 | 0.00 | 84 | 1006.6 |
| 20260509055323 | 48 | 191 | 0.0 | 1.0 | 0.00 | 0.00 | 0.00 | 84 | 1006.1 |
| 20260509055316 | 48 | 191 | 0.0 | 2.0 | 0.00 | 0.00 | 0.00 | 84 | 1006.1 |
| 20260509055212 | 48 | 191 | 1.0 | 2.0 | 0.00 | 0.00 | 0.00 | 84 | 1006.1 |
| 20260509055106 | 48 | 191 | 0.0 | 2.0 | 0.00 | 0.00 | 0.00 | 83 | 1006.1 |
| 20260509054959 | 48 | 189 | 0.0 | 2.0 | 0.00 | 0.00 | 0.00 | 83 | 1006.1 |
| 20260509054853 | 48 | 189 | 0.0 | 2.0 | 0.00 | 0.00 | 0.00 | 83 | 1006.1 |
| 20260509054817 | 48 | 191 | 0.0 | 2.0 | 0.00 | 0.00 | 0.00 | 83 | 1006.6 |
| 20260509054749 | 48 | 188 | 0.0 | 2.0 | 0.00 | 0.00 | 0.00 | 83 | 1006.6 |
| 20260509054642 | 48 | 191 | 1.0 | 2.0 | 0.00 | 0.00 | 0.00 | 83 | 1006.6 |
| 20260509054537 | 49 | 192 | 1.0 | 2.0 | 0.00 | 0.00 | 0.00 | 83 | 1006.9 |
| 20260509054432 | 48 | 186 | 1.0 | 2.0 | 0.00 | 0.00 | 0.00 | 83 | 1006.6 |
| 20260509054310 | 48 | 183 | 1.0 | 2.0 | 0.00 | 0.00 | 0.00 | 83 | 1006.6 |
| 20260509054220 | 49 | 192 | 1.0 | 2.0 | 0.00 | 0.00 | 0.00 | 82 | 1006.6 |
| 20260509054115 | 49 | 192 | 1.0 | 2.0 | 0.00 | 0.00 | 0.00 | 83 | 1006.6 |
| 20260509054010 | 48 | 194 | 1.0 | 2.0 | 0.00 | 0.00 | 0.00 | 82 | 1006.6 |
| 20260509053904 | 48 | 193 | 1.0 | 2.0 | 0.00 | 0.00 | 0.00 | 82 | 1006.9 |
| 20260509053814 | 48 | 191 | 1.0 | 2.0 | 0.00 | 0.00 | 0.00 | 82 | 1006.6 |
| 20260509053810 | 48 | 191 | 1.0 | 2.0 | 0.00 | 0.00 | 0.00 | 82 | 1006.6 |
| 20260509053655 | 49 | 194 | 1.0 | 2.0 | 0.00 | 0.00 | 0.00 | 81 | 1006.6 |
| 20260509053553 | 49 | 193 | 1.0 | 2.0 | 0.00 | 0.00 | 0.00 | 82 | 1006.6 |
| 20260509053441 | 49 | 191 | 1.0 | 2.0 | 0.00 | 0.00 | 0.00 | 82 | 1006.9 |
| 20260509053336 | 49 | 189 | 1.0 | 2.0 | 0.00 | 0.00 | 0.00 | 82 | 1006.9 |
| 20260509053257 | 49 | 194 | 1.0 | 2.0 | 0.00 | 0.00 | 0.00 | 82 | 1006.9 |
| 20260509053229 | 49 | 195 | 1.0 | 2.0 | 0.00 | 0.00 | 0.00 | 81 | 1006.9 |
| 20260509053124 | 49 | 195 | 1.0 | 2.0 | 0.00 | 0.00 | 0.00 | 82 | 1006.9 |
| 20260509053018 | 49 | 196 | 1.0 | 2.0 | 0.00 | 0.00 | 0.00 | 82 | 1006.6 |
| 20260509052913 | 49 | 195 | 1.0 | 1.0 | 0.00 | 0.00 | 0.00 | 81 | 1006.6 |
| 20260509052807 | 49 | 196 | 1.0 | 2.0 | 0.00 | 0.00 | 0.00 | 81 | 1006.6 |
| 20260509052751 | 49 | 195 | 0.0 | 2.0 | 0.00 | 0.00 | 0.00 | 81 | 1006.6 |
| 20260509052701 | 49 | 195 | 0.0 | 2.0 | 0.00 | 0.00 | 0.00 | 81 | 1006.9 |
| 20260509052556 | 49 | 196 | 1.0 | 2.0 | 0.00 | 0.00 | 0.00 | 80 | 1006.6 |
| 20260509052450 | 49 | 196 | 1.0 | 2.0 | 0.00 | 0.00 | 0.00 | 80 | 1006.9 |
| 20260509052344 | 49 | 196 | 1.0 | 2.0 | 0.00 | 0.00 | 0.00 | 80 | 1006.9 |
| 20260509052244 | 49 | 196 | 1.0 | 2.0 | 0.00 | 0.00 | 0.00 | 80 | 1006.9 |
| 20260509052239 | 49 | 195 | 1.0 | 2.0 | 0.00 | 0.00 | 0.00 | 80 | 1006.9 |
| 20260509052133 | 49 | 195 | 1.0 | 2.0 | 0.00 | 0.00 | 0.00 | 80 | 1006.9 |
| 20260509052027 | 49 | 195 | 1.0 | 2.0 | 0.00 | 0.00 | 0.00 | 79 | 1006.9 |
| 20260509051935 | 49 | 184 | 1.0 | 2.0 | 0.00 | 0.00 | 0.00 | 79 | 1006.9 |
| 20260509051818 | 50 | 206 | 0.0 | 2.0 | 0.00 | 0.00 | 0.00 | 79 | 1006.9 |
| 20260509051711 | 50 | 206 | 1.0 | 2.0 | 0.00 | 0.00 | 0.00 | 79 | 1006.9 |
| 20260509051605 | 50 | 204 | 2.0 | 2.0 | 0.00 | 0.00 | 0.00 | 79 | 1006.9 |
| 20260509051500 | 50 | 199 | 1.0 | 2.0 | 0.00 | 0.00 | 0.00 | 79 | 1006.9 |
| 20260509051355 | 49 | 199 | 2.0 | 2.0 | 0.00 | 0.00 | 0.00 | 79 | 1006.9 |
| 20260509051232 | 49 | 194 | 2.0 | 2.0 | 0.00 | 0.00 | 0.00 | 78 | 1006.9 |
| 20260509051142 | 49 | 199 | 2.0 | 2.0 | 0.00 | 0.00 | 0.00 | 78 | 1007.3 |
| 20260509051035 | 49 | 205 | 1.0 | 2.0 | 0.00 | 0.00 | 0.00 | 78 | 1006.9 |
| 20260509051025 | 47 | 270 | 1.0 | 2.0 | 0.00 | 0.00 | 0.00 | 75 | 1007.3 |
| 20260509051021 | 47 | 283 | 1.0 | 1.0 | 0.00 | 0.00 | 0.00 | 76 | 1007.3 |
| 20260509051016 | 50 | 195 | 1.0 | 2.0 | 0.00 | 0.00 | 0.00 | 70 | 1007.3 |
| 20260509051012 | 48 | 179 | 1.0 | 3.0 | 0.00 | 0.00 | 0.00 | 77 | 1007.3 |
| 20260509051008 | 47 | 205 | 2.0 | 2.0 | 0.00 | 0.00 | 0.00 | 79 | 1007.3 |
| 20260509051002 | 48 | 195 | 0.0 | 2.0 | 0.00 | 0.00 | 0.00 | 76 | 1006.9 |
| 20260509050958 | 48 | 189 | 1.0 | 2.0 | 0.00 | 0.00 | 0.00 | 76 | 1006.9 |
| 20260509050952 | 47 | 195 | 0.0 | 1.0 | 0.00 | 0.00 | 0.00 | 76 | 1007.3 |
| 20260509050947 | 48 | 195 | 0.0 | 1.0 | 0.00 | 0.00 | 0.00 | 75 | 1007.3 |
| 20260509050943 | 48 | 195 | 0.0 | 1.0 | 0.00 | 0.00 | 0.00 | 74 | 1007.3 |
| 20260509050937 | 49 | 178 | 0.0 | 1.0 | 0.00 | 0.00 | 0.00 | 72 | 1007.3 |
| 20260509050933 | 49 | 197 | 2.0 | 2.0 | 0.00 | 0.00 | 0.00 | 78 | 1006.9 |
| 20260509050923 | 50 | 198 | 0.0 | 1.0 | 0.00 | 0.00 | 0.00 | 71 | 1007.3 |
| 20260509050919 | 50 | 200 | 0.0 | 2.0 | 0.00 | 0.00 | 0.00 | 70 | 1007.3 |
| 20260509050914 | 50 | 201 | 1.0 | 2.0 | 0.00 | 0.00 | 0.00 | 70 | 1007.3 |
| 20260509050910 | 49 | 199 | 2.0 | 2.0 | 0.00 | 0.00 | 0.00 | 78 | 1006.9 |
| 20260509050855 | 49 | 206 | 1.0 | 2.0 | 0.00 | 0.00 | 0.00 | 78 | 1006.9 |
| 20260509050635 | 48 | 200 | 2.0 | 2.0 | 0.00 | 0.00 | 0.00 | 78 | 1007.3 |
| 20260509050626 | 48 | 189 | 2.0 | 2.0 | 0.00 | 0.00 | 0.00 | 79 | 1007.3 |
| 20260509050618 | 48 | 186 | 2.0 | 2.0 | 0.00 | 0.00 | 0.00 | 78 | 1006.9 |
| 20260509050608 | 48 | 175 | 0.0 | 2.0 | 0.00 | 0.00 | 0.00 | 77 | 1006.9 |
| 20260509050343 | 49 | 180 | 0.0 | 3.0 | 0.00 | 0.00 | 0.00 | 77 | 1007.3 |
| 20260509050122 | 48 | 206 | 1.0 | 3.0 | 0.00 | 0.00 | 0.00 | 76 | 1007.3 |
| 20260509050117 | 49 | 180 | 1.0 | 3.0 | 0.00 | 0.00 | 0.00 | 77 | 1007.3 |
| 20260509050104 | 49 | 184 | 0.0 | 3.0 | 0.00 | 0.00 | 0.00 | 75 | 1006.9 |
| 20260509045837 | 49 | 198 | 1.0 | 3.0 | 0.00 | 0.00 | 0.00 | 76 | 1007.3 |
| 20260509045828 | 49 | 205 | 0.0 | 3.0 | 0.00 | 0.00 | 0.00 | 76 | 1006.9 |
| 20260509045818 | 49 | 205 | 0.0 | 3.0 | 0.00 | 0.00 | 0.00 | 77 | 1006.9 |
| 20260509045814 | 49 | 205 | 0.0 | 3.0 | 0.00 | 0.00 | 0.00 | 76 | 1007.3 |
| 20260509045446 | 48 | 205 | 1.0 | 3.0 | 0.00 | 0.00 | 0.00 | 77 | 1007.3 |
| 20260509045436 | 47 | 201 | 2.0 | 3.0 | 0.00 | 0.00 | 0.00 | 78 | 1007.3 |
| 20260509045215 | 47 | 208 | 2.0 | 2.0 | 0.00 | 0.00 | 0.00 | 79 | 1007.3 |
| 20260509045207 | 47 | 210 | 1.0 | 2.0 | 0.00 | 0.00 | 0.00 | 78 | 1007.3 |
| 20260509045158 | 47 | 177 | 1.0 | 2.0 | 0.00 | 0.00 | 0.00 | 78 | 1007.3 |
| 20260509045150 | 48 | 177 | 1.0 | 2.0 | 0.00 | 0.00 | 0.00 | 77 | 1007.3 |
| 20260509045139 | 48 | 195 | 0.0 | 2.0 | 0.00 | 0.00 | 0.00 | 76 | 1006.9 |
| 20260509044841 | 48 | 195 | 0.0 | 2.0 | 0.00 | 0.00 | 0.00 | 76 | 1006.9 |
| 20260509044617 | 48 | 196 | 0.0 | 2.0 | 0.00 | 0.00 | 0.00 | 75 | 1006.9 |
| 20260509044608 | 49 | 193 | 0.0 | 2.0 | 0.00 | 0.00 | 0.00 | 75 | 1006.9 |
| 20260509044558 | 49 | 188 | 0.0 | 2.0 | 0.00 | 0.00 | 0.00 | 75 | 1007.3 |
| 20260509044548 | 48 | 189 | 1.0 | 2.0 | 0.00 | 0.00 | 0.00 | 76 | 1006.9 |
| 20260509044112 | 48 | 186 | 2.0 | 2.0 | 0.00 | 0.00 | 0.00 | 76 | 1007.3 |
| 20260509044104 | 47 | 196 | 2.0 | 2.0 | 0.00 | 0.00 | 0.00 | 77 | 1006.9 |
| 20260509044056 | 47 | 193 | 0.0 | 1.0 | 0.00 | 0.00 | 0.00 | 76 | 1007.3 |
| 20260509044045 | 47 | 195 | 0.0 | 1.0 | 0.00 | 0.00 | 0.00 | 76 | 1007.3 |
| 20260509043801 | 47 | 195 | 0.0 | 1.0 | 0.00 | 0.00 | 0.00 | 76 | 1007.3 |
| 20260509043538 | 47 | 195 | 0.0 | 1.0 | 0.00 | 0.00 | 0.00 | 75 | 1007.3 |
| 20260509043530 | 48 | 196 | 0.0 | 1.0 | 0.00 | 0.00 | 0.00 | 75 | 1007.3 |
| 20260509043522 | 48 | 195 | 0.0 | 0.0 | 0.00 | 0.00 | 0.00 | 75 | 1007.3 |
| 20260509043513 | 48 | 195 | 0.0 | 0.0 | 0.00 | 0.00 | 0.00 | 75 | 1007.3 |
| 20260509043248 | 48 | 195 | 0.0 | 1.0 | 0.00 | 0.00 | 0.00 | 75 | 1007.3 |
| 20260509043026 | 48 | 195 | 0.0 | 1.0 | 0.00 | 0.00 | 0.00 | 75 | 1007.3 |
| 20260509043018 | 48 | 195 | 0.0 | 1.0 | 0.00 | 0.00 | 0.00 | 75 | 1007.3 |
| 20260509043010 | 48 | 195 | 0.0 | 1.0 | 0.00 | 0.00 | 0.00 | 74 | 1007.3 |
| 20260509043001 | 48 | 195 | 0.0 | 1.0 | 0.00 | 0.00 | 0.00 | 75 | 1007.3 |
| 20260509042739 | 48 | 195 | 0.0 | 1.0 | 0.00 | 0.00 | 0.00 | 74 | 1007.3 |
| 20260509042514 | 48 | 195 | 0.0 | 1.0 | 0.00 | 0.00 | 0.00 | 73 | 1007.3 |
| 20260509042503 | 49 | 195 | 0.0 | 1.0 | 0.00 | 0.00 | 0.00 | 73 | 1007.3 |
| 20260509042452 | 49 | 195 | 0.0 | 1.0 | 0.00 | 0.00 | 0.00 | 72 | 1007.3 |
| 20260509042201 | 49 | 178 | 0.0 | 1.0 | 0.00 | 0.00 | 0.00 | 72 | 1007.3 |
| 20260509042153 | 50 | 178 | 0.0 | 1.0 | 0.00 | 0.00 | 0.00 | 72 | 1007.3 |
| 20260509041929 | 50 | 178 | 0.0 | 1.0 | 0.00 | 0.00 | 0.00 | 72 | 1007.3 |
| 20260509041918 | 50 | 178 | 0.0 | 1.0 | 0.00 | 0.00 | 0.00 | 72 | 1007.3 |
| 20260509041908 | 50 | 198 | 0.0 | 1.0 | 0.00 | 0.00 | 0.00 | 71 | 1007.3 |
| 20260509041644 | 50 | 199 | 0.0 | 1.0 | 0.00 | 0.00 | 0.00 | 71 | 1007.3 |
| 20260509041635 | 50 | 202 | 0.0 | 2.0 | 0.00 | 0.00 | 0.00 | 70 | 1007.3 |
| 20260509041415 | 50 | 204 | 0.0 | 2.0 | 0.00 | 0.00 | 0.00 | 70 | 1007.3 |
| 20260509041404 | 50 | 200 | 0.0 | 2.0 | 0.00 | 0.00 | 0.00 | 70 | 1007.3 |
| 20260509041356 | 50 | 200 | 0.0 | 2.0 | 0.00 | 0.00 | 0.00 | 70 | 1007.3 |
| 20260509041132 | 50 | 200 | 1.0 | 2.0 | 0.00 | 0.00 | 0.00 | 70 | 1007.3 |
| 20260509041123 | 50 | 200 | 0.0 | 2.0 | 0.00 | 0.00 | 0.00 | 70 | 1007.3 |
| 20260509040900 | 50 | 200 | 0.0 | 2.0 | 0.00 | 0.00 | 0.00 | 70 | 1007.3 |
| 20260509040851 | 50 | 201 | 1.0 | 2.0 | 0.00 | 0.00 | 0.00 | 70 | 1007.3 |
| 20260509040627 | 50 | 201 | 1.0 | 2.0 | 0.00 | 0.00 | 0.00 | 70 | 1007.3 |
| 20260509040617 | 49 | 197 | 1.0 | 2.0 | 0.00 | 0.00 | 0.00 | 70 | 1007.3 |
| 20260509040356 | 49 | 198 | 2.0 | 2.0 | 0.00 | 0.00 | 0.00 | 70 | 1007.6 |
| 20260509040348 | 49 | 194 | 1.0 | 2.0 | 0.00 | 0.00 | 0.00 | 70 | 1007.3 |
| 20260509040339 | 50 | 195 | 2.0 | 2.0 | 0.00 | 0.00 | 0.00 | 70 | 1007.3 |
| 20260509040116 | 50 | 195 | 1.0 | 3.0 | 0.00 | 0.00 | 0.00 | 70 | 1007.3 |
| 20260509035834 | 51 | 195 | 1.0 | 3.0 | 0.00 | 0.00 | 0.00 | 68 | 1007.3 |
| 20260509035825 | 51 | 195 | 1.0 | 3.0 | 0.00 | 0.00 | 0.00 | 67 | 1007.3 |
| 20260509035604 | 51 | 196 | 1.0 | 3.0 | 0.00 | 0.00 | 0.00 | 67 | 1007.3 |
| 20260509035554 | 51 | 197 | 1.0 | 3.0 | 0.00 | 0.00 | 0.00 | 67 | 1007.3 |
| 20260509035550 | 50 | 197 | 1.0 | 3.0 | 0.00 | 0.00 | 0.00 | 67 | 1007.3 |
| 20260509035541 | 50 | 210 | 1.0 | 3.0 | 0.00 | 0.00 | 0.00 | 67 | 1007.3 |
| 20260509035321 | 50 | 204 | 0.0 | 3.0 | 0.00 | 0.00 | 0.00 | 68 | 1007.3 |
| 20260509035313 | 50 | 200 | 2.0 | 3.0 | 0.00 | 0.00 | 0.00 | 67 | 1007.3 |
| 20260509035050 | 49 | 201 | 3.0 | 3.0 | 0.00 | 0.00 | 0.00 | 68 | 1007.3 |
| 20260509035046 | 49 | 247 | 1.0 | 3.0 | 0.00 | 0.00 | 0.00 | 70 | 1007.3 |
| 20260509035037 | 49 | 257 | 2.0 | 3.0 | 0.00 | 0.00 | 0.00 | 70 | 1007.3 |
| 20260509035029 | 48 | 265 | 1.0 | 2.0 | 0.00 | 0.00 | 0.00 | 72 | 1007.3 |
| 20260509034805 | 47 | 266 | 1.0 | 2.0 | 0.00 | 0.00 | 0.00 | 74 | 1007.3 |
| 20260509034757 | 47 | 270 | 1.0 | 2.0 | 0.00 | 0.00 | 0.00 | 75 | 1007.3 |
| 20260509034535 | 47 | 271 | 1.0 | 2.0 | 0.00 | 0.00 | 0.00 | 76 | 1007.3 |
| 20260509034527 | 47 | 275 | 1.0 | 2.0 | 0.00 | 0.00 | 0.00 | 76 | 1007.3 |
| 20260509034307 | 47 | 276 | 1.0 | 2.0 | 0.00 | 0.00 | 0.00 | 76 | 1007.3 |
| 20260509034259 | 47 | 283 | 1.0 | 1.0 | 0.00 | 0.00 | 0.00 | 76 | 1007.3 |
| 20260509034250 | 47 | 283 | 1.0 | 1.0 | 0.00 | 0.00 | 0.00 | 76 | 1007.3 |
| 20260509034027 | 47 | 284 | 0.0 | 0.0 | 0.00 | 0.00 | 0.00 | 76 | 1007.3 |
| 20260509034023 | 47 | 283 | 1.0 | 1.0 | 0.00 | 0.00 | 0.00 | 76 | 1007.3 |
| 20260509034015 | 47 | 283 | 1.0 | 1.0 | 0.00 | 0.00 | 0.00 | 77 | 1007.3 |
| 20260509033751 | 47 | 284 | 0.0 | 0.0 | 0.00 | 0.00 | 0.00 | 76 | 1007.6 |
| 20260509033743 | 47 | 284 | 0.0 | 0.0 | 0.00 | 0.00 | 0.00 | 76 | 1007.3 |
| 20260509033516 | 47 | 284 | 0.0 | 0.0 | 0.00 | 0.00 | 0.00 | 76 | 1007.3 |
| 20260509033410 | 48 | 284 | 0.0 | 0.0 | 0.00 | 0.00 | 0.00 | 76 | 1007.3 |
| 20260509033333 | 48 | 284 | 0.0 | 0.0 | 0.00 | 0.00 | 0.00 | 76 | 1007.3 |
| 20260509033325 | 48 | 284 | 0.0 | 0.0 | 0.00 | 0.00 | 0.00 | 75 | 1007.3 |
| 20260509033104 | 48 | 284 | 0.0 | 0.0 | 0.00 | 0.00 | 0.00 | 75 | 1007.3 |
| 20260509033054 | 48 | 284 | 0.0 | 0.0 | 0.00 | 0.00 | 0.00 | 75 | 1007.6 |
| 20260509033050 | 48 | 284 | 0.0 | 0.0 | 0.00 | 0.00 | 0.00 | 75 | 1007.6 |
| 20260509033041 | 48 | 284 | 0.0 | 0.0 | 0.00 | 0.00 | 0.00 | 75 | 1007.3 |
| 20260509032821 | 48 | 284 | 0.0 | 0.0 | 0.00 | 0.00 | 0.00 | 75 | 1007.3 |
| 20260509032813 | 48 | 284 | 0.0 | 0.0 | 0.00 | 0.00 | 0.00 | 75 | 1007.3 |
| 20260509032538 | 49 | 284 | 0.0 | 0.0 | 0.00 | 0.00 | 0.00 | 74 | 1007.3 |
| 20260509032534 | 49 | 284 | 0.0 | 0.0 | 0.00 | 0.00 | 0.00 | 74 | 1007.6 |
| 20260509032313 | 49 | 284 | 0.0 | 0.0 | 0.00 | 0.00 | 0.00 | 74 | 1007.6 |
| 20260509032306 | 49 | 284 | 0.0 | 0.0 | 0.00 | 0.00 | 0.00 | 73 | 1007.6 |
| 20260509032255 | 49 | 284 | 0.0 | 1.0 | 0.00 | 0.00 | 0.00 | 73 | 1007.3 |
| 20260509032029 | 49 | 284 | 0.0 | 1.0 | 0.00 | 0.00 | 0.00 | 73 | 1007.3 |
| 20260509032025 | 49 | 284 | 0.0 | 1.0 | 0.00 | 0.00 | 0.00 | 73 | 1007.3 |
| 20260509032017 | 49 | 284 | 0.0 | 1.0 | 0.00 | 0.00 | 0.00 | 73 | 1007.3 |
| 20260509031755 | 49 | 284 | 0.0 | 1.0 | 0.00 | 0.00 | 0.00 | 72 | 1007.6 |
| 20260509031746 | 50 | 284 | 0.0 | 1.0 | 0.00 | 0.00 | 0.00 | 72 | 1007.3 |
| 20260509031738 | 50 | 284 | 0.0 | 1.0 | 0.00 | 0.00 | 0.00 | 72 | 1007.3 |
| 20260509031508 | 50 | 284 | 0.0 | 1.0 | 0.00 | 0.00 | 0.00 | 72 | 1007.3 |
| 20260509031459 | 50 | 284 | 0.0 | 1.0 | 0.00 | 0.00 | 0.00 | 72 | 1007.3 |
| 20260509031239 | 50 | 284 | 0.0 | 1.0 | 0.00 | 0.00 | 0.00 | 71 | 1007.3 |
| 20260509031230 | 50 | 284 | 0.0 | 1.0 | 0.00 | 0.00 | 0.00 | 72 | 1007.3 |
| 20260509030957 | 50 | 284 | 0.0 | 1.0 | 0.00 | 0.00 | 0.00 | 72 | 1007.3 |
| 20260509030953 | 50 | 284 | 1.0 | 1.0 | 0.00 | 0.00 | 0.00 | 72 | 1007.6 |
| 20260509030944 | 50 | 284 | 0.0 | 1.0 | 0.00 | 0.00 | 0.00 | 72 | 1007.6 |
| 20260509030708 | 50 | 284 | 0.0 | 1.0 | 0.00 | 0.00 | 0.00 | 72 | 1007.6 |
| 20260509030659 | 50 | 284 | 0.0 | 1.0 | 0.00 | 0.00 | 0.00 | 72 | 1007.6 |
| 20260509030435 | 49 | 284 | 0.0 | 1.0 | 0.00 | 0.00 | 0.00 | 72 | 1007.6 |
| 20260509030330 | 49 | 284 | 0.0 | 1.0 | 0.00 | 0.00 | 0.00 | 72 | 1007.3 |
| 20260509030225 | 49 | 284 | 0.0 | 1.0 | 0.00 | 0.00 | 0.00 | 71 | 1007.3 |
| 20260509030119 | 49 | 284 | 0.0 | 1.0 | 0.00 | 0.00 | 0.00 | 70 | 1007.6 |
| 20260509030013 | 49 | 284 | 0.0 | 1.0 | 0.00 | 0.00 | 0.00 | 70 | 1007.6 |
| 20260509025907 | 49 | 284 | 0.0 | 1.0 | 0.00 | 0.00 | 0.00 | 70 | 1007.6 |
| 20260509025801 | 49 | 284 | 1.0 | 1.0 | 0.00 | 0.00 | 0.00 | 70 | 1007.3 |
| 20260509025655 | 49 | 284 | 0.0 | 1.0 | 0.00 | 0.00 | 0.00 | 70 | 1007.6 |
| 20260509025550 | 49 | 284 | 0.0 | 1.0 | 0.00 | 0.00 | 0.00 | 70 | 1007.3 |
| 20260509025429 | 50 | 284 | 0.0 | 1.0 | 0.00 | 0.00 | 0.00 | 70 | 1007.6 |
| 20260509025339 | 50 | 284 | 0.0 | 1.0 | 0.00 | 0.00 | 0.00 | 70 | 1007.6 |
| 20260509025233 | 50 | 284 | 0.0 | 1.0 | 0.00 | 0.00 | 0.00 | 70 | 1007.6 |
| 20260509025129 | 50 | 284 | 1.0 | 1.0 | 0.00 | 0.00 | 0.00 | 69 | 1007.6 |
| 20260509025022 | 50 | 284 | 1.0 | 1.0 | 0.00 | 0.00 | 0.00 | 69 | 1007.6 |
| 20260509024917 | 50 | 284 | 0.0 | 1.0 | 0.00 | 0.00 | 0.00 | 68 | 1007.3 |
| 20260509024811 | 50 | 284 | 0.0 | 1.0 | 0.00 | 0.00 | 0.00 | 68 | 1007.6 |
| 20260509024705 | 50 | 284 | 1.0 | 1.0 | 0.00 | 0.00 | 0.00 | 68 | 1007.6 |
| 20260509024557 | 50 | 284 | 1.0 | 1.0 | 0.00 | 0.00 | 0.00 | 68 | 1007.6 |
| 20260509024452 | 50 | 284 | 0.0 | 0.0 | 0.00 | 0.00 | 0.00 | 68 | 1007.6 |
| 20260509024416 | 51 | 284 | 0.0 | 0.0 | 0.00 | 0.00 | 0.00 | 67 | 1007.6 |
| 20260509024346 | 51 | 284 | 0.0 | 0.0 | 0.00 | 0.00 | 0.00 | 67 | 1007.6 |
| 20260509024240 | 51 | 284 | 0.0 | 0.0 | 0.00 | 0.00 | 0.00 | 67 | 1007.3 |
| 20260509024135 | 51 | 284 | 0.0 | 0.0 | 0.00 | 0.00 | 0.00 | 66 | 1007.6 |
| 20260509024029 | 51 | 284 | 0.0 | 1.0 | 0.00 | 0.00 | 0.00 | 66 | 1007.3 |
| 20260509023909 | 51 | 284 | 0.0 | 1.0 | 0.00 | 0.00 | 0.00 | 65 | 1007.6 |
| 20260509023818 | 51 | 284 | 0.0 | 1.0 | 0.00 | 0.00 | 0.00 | 66 | 1007.6 |
| 20260509023713 | 51 | 284 | 0.0 | 1.0 | 0.00 | 0.00 | 0.00 | 66 | 1007.6 |
| 20260509023606 | 52 | 284 | 0.0 | 1.0 | 0.00 | 0.00 | 0.00 | 65 | 1007.6 |
| 20260509023500 | 52 | 284 | 0.0 | 1.0 | 0.00 | 0.00 | 0.00 | 64 | 1007.3 |
| 20260509023402 | 52 | 284 | 0.0 | 1.0 | 0.00 | 0.00 | 0.00 | 64 | 1007.3 |
| 20260509023355 | 52 | 284 | 0.0 | 1.0 | 0.00 | 0.00 | 0.00 | 64 | 1007.3 |
| 20260509023249 | 52 | 284 | 0.0 | 1.0 | 0.00 | 0.00 | 0.00 | 65 | 1007.3 |
| 20260509023144 | 52 | 284 | 0.0 | 1.0 | 0.00 | 0.00 | 0.00 | 63 | 1007.3 |
| 20260509023038 | 53 | 284 | 0.0 | 1.0 | 0.00 | 0.00 | 0.00 | 63 | 1007.3 |
| 20260509022932 | 53 | 284 | 0.0 | 1.0 | 0.00 | 0.00 | 0.00 | 64 | 1007.6 |
| 20260509022855 | 53 | 284 | 0.0 | 1.0 | 0.00 | 0.00 | 0.00 | 63 | 1007.6 |
| 20260509022826 | 53 | 284 | 0.0 | 1.0 | 0.00 | 0.00 | 0.00 | 62 | 1007.3 |
| 20260509022720 | 53 | 284 | 0.0 | 1.0 | 0.00 | 0.00 | 0.00 | 60 | 1007.3 |
| 20260509022615 | 53 | 284 | 0.0 | 1.0 | 0.00 | 0.00 | 0.00 | 60 | 1007.3 |
| 20260509022510 | 53 | 287 | 0.0 | 1.0 | 0.00 | 0.00 | 0.00 | 61 | 1007.3 |
| 20260509022349 | 53 | 287 | 0.0 | 1.0 | 0.00 | 0.00 | 0.00 | 63 | 1007.3 |
| 20260509022259 | 54 | 287 | 0.0 | 1.0 | 0.00 | 0.00 | 0.00 | 60 | 1007.3 |
| 20260509022153 | 54 | 287 | 0.0 | 1.0 | 0.00 | 0.00 | 0.00 | 59 | 1007.3 |
| 20260509022047 | 54 | 287 | 1.0 | 1.0 | 0.00 | 0.00 | 0.00 | 59 | 1007.3 |
| 20260509021941 | 54 | 319 | 0.0 | 1.0 | 0.00 | 0.00 | 0.00 | 60 | 1007.3 |
| 20260509021843 | 53 | 319 | 0.0 | 1.0 | 0.00 | 0.00 | 0.00 | 59 | 1007.3 |
| 20260509021835 | 53 | 319 | 0.0 | 1.0 | 0.00 | 0.00 | 0.00 | 58 | 1007.3 |
| 20260509021731 | 53 | 295 | 0.0 | 0.0 | 0.00 | 0.00 | 0.00 | 65 | 1007.3 |
| 20260509021625 | 53 | 295 | 0.0 | 2.0 | 0.00 | 0.00 | 0.00 | 64 | 1007.3 |
| 20260509021519 | 53 | 295 | 0.0 | 2.0 | 0.00 | 0.00 | 0.00 | 63 | 1007.3 |
| 20260509021413 | 54 | 295 | 0.0 | 2.0 | 0.00 | 0.00 | 0.00 | 63 | 1007.3 |
| 20260509021336 | 54 | 298 | 0.0 | 2.0 | 0.00 | 0.00 | 0.00 | 65 | 1007.3 |
| 20260509021308 | 54 | 298 | 0.0 | 2.0 | 0.00 | 0.00 | 0.00 | 66 | 1007.3 |
| 20260509021202 | 54 | 299 | 0.0 | 2.0 | 0.00 | 0.00 | 0.00 | 67 | 1007.3 |
| 20260509021056 | 54 | 299 | 0.0 | 3.0 | 0.00 | 0.00 | 0.00 | 67 | 1007.3 |
| 20260509020951 | 54 | 299 | 0.0 | 3.0 | 0.00 | 0.00 | 0.00 | 67 | 1007.3 |
| 20260509020829 | 54 | 298 | 0.0 | 3.0 | 0.00 | 0.00 | 0.00 | 67 | 1007.3 |
| 20260509020739 | 54 | 299 | 0.0 | 3.0 | 0.00 | 0.00 | 0.00 | 67 | 1007.3 |
| 20260509020634 | 53 | 332 | 0.0 | 3.0 | 0.00 | 0.00 | 0.00 | 69 | 1007.3 |
| 20260509020528 | 53 | 332 | 1.0 | 3.0 | 0.00 | 0.00 | 0.00 | 69 | 1007.3 |
| 20260509020422 | 53 | 328 | 1.0 | 3.0 | 0.00 | 0.00 | 0.00 | 72 | 1007.3 |
| 20260509020316 | 53 | 329 | 2.0 | 3.0 | 0.00 | 0.00 | 0.00 | 74 | 1007.3 |
| 20260509020211 | 53 | 314 | 2.0 | 3.0 | 0.00 | 0.00 | 0.00 | 75 | 1007.3 |
| 20260509020115 | 53 | 0 | 2.0 | 3.0 | 0.00 | 0.00 | 0.00 | 75 | 1007.3 |
| 20260509015959 | 54 | 346 | 3.0 | 3.0 | 0.00 | 0.00 | 0.00 | 73 | 1007.3 |
| 20260509015853 | 54 | 348 | 2.0 | 2.0 | 0.00 | 0.00 | 0.00 | 73 | 1007.3 |
| 20260509015816 | 55 | 349 | 1.0 | 2.0 | 0.00 | 0.00 | 0.00 | 72 | 1007.3 |
| 20260509015748 | 55 | 352 | 2.0 | 2.0 | 0.00 | 0.00 | 0.00 | 72 | 1007.3 |
| 20260509015642 | 55 | 241 | 1.0 | 2.0 | 0.00 | 0.00 | 0.00 | 71 | 1007.3 |
| 20260509015537 | 55 | 185 | 0.0 | 2.0 | 0.00 | 0.00 | 0.00 | 70 | 1007.3 |
| 20260509015431 | 55 | 196 | 1.0 | 2.0 | 0.00 | 0.00 | 0.00 | 70 | 1007.3 |
| 20260509015310 | 55 | 196 | 1.0 | 2.0 | 0.00 | 0.00 | 0.00 | 70 | 1007.3 |
| 20260509015220 | 55 | 196 | 1.0 | 2.0 | 0.00 | 0.00 | 0.00 | 70 | 1006.9 |
| 20260509015115 | 55 | 196 | 1.0 | 2.0 | 0.00 | 0.00 | 0.00 | 70 | 1006.9 |
| 20260509015009 | 55 | 196 | 1.0 | 2.0 | 0.00 | 0.00 | 0.00 | 71 | 1007.3 |
| 20260509014903 | 55 | 197 | 0.0 | 2.0 | 0.00 | 0.00 | 0.00 | 70 | 1007.3 |
| 20260509014804 | 55 | 189 | 1.0 | 2.0 | 0.00 | 0.00 | 0.00 | 71 | 1007.3 |
| 20260509014758 | 55 | 182 | 1.0 | 2.0 | 0.00 | 0.00 | 0.00 | 71 | 1007.3 |
| 20260509014652 | 55 | 182 | 1.0 | 2.0 | 0.00 | 0.00 | 0.00 | 70 | 1007.3 |
| 20260509014546 | 55 | 183 | 1.0 | 2.0 | 0.00 | 0.00 | 0.00 | 70 | 1007.3 |
| 20260509014440 | 55 | 183 | 1.0 | 2.0 | 0.00 | 0.00 | 0.00 | 70 | 1007.3 |
| 20260509014334 | 55 | 189 | 2.0 | 2.0 | 0.00 | 0.00 | 0.00 | 70 | 1006.9 |
| 20260509014257 | 55 | 189 | 1.0 | 2.0 | 0.00 | 0.00 | 0.00 | 70 | 1006.9 |
| 20260509014229 | 55 | 176 | 1.0 | 2.0 | 0.00 | 0.00 | 0.00 | 70 | 1007.3 |
| 20260509014120 | 55 | 196 | 1.0 | 1.0 | 0.00 | 0.00 | 0.00 | 70 | 1006.9 |
| 20260509014014 | 55 | 196 | 1.0 | 1.0 | 0.00 | 0.00 | 0.00 | 70 | 1006.9 |
| 20260509013909 | 55 | 197 | 0.0 | 1.0 | 0.00 | 0.00 | 0.00 | 70 | 1006.9 |
| 20260509013747 | 55 | 197 | 0.0 | 1.0 | 0.00 | 0.00 | 0.00 | 70 | 1006.9 |
| 20260509013658 | 55 | 197 | 0.0 | 1.0 | 0.00 | 0.00 | 0.00 | 70 | 1007.3 |
| 20260509013552 | 55 | 197 | 0.0 | 1.0 | 0.00 | 0.00 | 0.00 | 70 | 1006.9 |
| 20260509013447 | 55 | 197 | 1.0 | 1.0 | 0.00 | 0.00 | 0.00 | 70 | 1006.9 |
| 20260509013340 | 55 | 196 | 0.0 | 1.0 | 0.00 | 0.00 | 0.00 | 71 | 1006.9 |
| 20260509013235 | 55 | 196 | 0.0 | 0.0 | 0.00 | 0.00 | 0.00 | 70 | 1006.9 |
| 20260509013129 | 55 | 196 | 0.0 | 0.0 | 0.00 | 0.00 | 0.00 | 70 | 1006.9 |
| 20260509013023 | 55 | 196 | 0.0 | 0.0 | 0.00 | 0.00 | 0.00 | 70 | 1006.9 |
| 20260509012917 | 55 | 196 | 0.0 | 1.0 | 0.00 | 0.00 | 0.00 | 70 | 1006.9 |
| 20260509012812 | 56 | 196 | 0.0 | 1.0 | 0.00 | 0.00 | 0.00 | 70 | 1006.6 |
| 20260509012735 | 56 | 196 | 0.0 | 1.0 | 0.00 | 0.00 | 0.00 | 70 | 1006.9 |
| 20260509012707 | 56 | 196 | 0.0 | 2.0 | 0.00 | 0.00 | 0.00 | 69 | 1006.9 |
| 20260509012601 | 56 | 196 | 0.0 | 2.0 | 0.00 | 0.00 | 0.00 | 69 | 1006.9 |
| 20260509012455 | 56 | 196 | 0.0 | 2.0 | 0.00 | 0.00 | 0.00 | 69 | 1006.9 |
| 20260509012350 | 56 | 196 | 0.0 | 2.0 | 0.00 | 0.00 | 0.00 | 68 | 1006.9 |
| 20260509012228 | 56 | 196 | 0.0 | 2.0 | 0.00 | 0.00 | 0.00 | 68 | 1006.9 |
| 20260509012138 | 57 | 196 | 0.0 | 2.0 | 0.00 | 0.00 | 0.00 | 68 | 1006.6 |
| 20260509012032 | 57 | 196 | 0.0 | 2.0 | 0.00 | 0.00 | 0.00 | 68 | 1006.9 |
| 20260509011927 | 57 | 197 | 1.0 | 2.0 | 0.00 | 0.00 | 0.00 | 68 | 1006.6 |
| 20260509011820 | 57 | 177 | 0.0 | 2.0 | 0.00 | 0.00 | 0.00 | 67 | 1006.9 |
| 20260509011717 | 57 | 180 | 2.0 | 2.0 | 0.00 | 0.00 | 0.00 | 67 | 1006.6 |
| 20260509011616 | 57 | 188 | 1.0 | 2.0 | 0.00 | 0.00 | 0.00 | 67 | 1006.6 |
| 20260509011512 | 57 | 209 | 1.0 | 2.0 | 0.00 | 0.00 | 0.00 | 68 | 1006.9 |
| 20260509011406 | 57 | 211 | 1.0 | 2.0 | 0.00 | 0.00 | 0.00 | 67 | 1006.6 |
| 20260509011300 | 57 | 203 | 0.0 | 2.0 | 0.00 | 0.00 | 0.00 | 67 | 1006.9 |
| 20260509011223 | 57 | 203 | 0.0 | 2.0 | 0.00 | 0.00 | 0.00 | 67 | 1006.9 |
| 20260509011155 | 57 | 203 | 0.0 | 2.0 | 0.00 | 0.00 | 0.00 | 67 | 1006.9 |
| 20260509011049 | 57 | 211 | 2.0 | 2.0 | 0.00 | 0.00 | 0.00 | 67 | 1006.9 |
| 20260509010944 | 57 | 203 | 1.0 | 2.0 | 0.00 | 0.00 | 0.00 | 67 | 1006.9 |
| 20260509010839 | 57 | 189 | 1.0 | 2.0 | 0.00 | 0.00 | 0.00 | 67 | 1006.6 |
| 20260509010733 | 57 | 201 | 0.0 | 0.0 | 0.00 | 0.00 | 0.00 | 67 | 1006.9 |
| 20260509010717 | 57 | 193 | 0.0 | 0.0 | 0.00 | 0.00 | 0.00 | 67 | 1006.9 |
| 20260509010628 | 57 | 178 | 0.0 | 0.0 | 0.00 | 0.00 | 0.00 | 67 | 1006.9 |
| 20260509010522 | 57 | 177 | 0.0 | 0.0 | 0.00 | 0.00 | 0.00 | 67 | 1006.9 |
| 20260509010416 | 57 | 182 | 0.0 | 0.0 | 0.00 | 0.00 | 0.00 | 67 | 1006.6 |
| 20260509010310 | 57 | 191 | 0.0 | 0.0 | 0.00 | 0.00 | 0.00 | 66 | 1006.9 |
| 20260509010205 | 57 | 208 | 0.0 | 0.0 | 0.00 | 0.00 | 0.00 | 66 | 1006.9 |
| 20260509010104 | 57 | 209 | 0.0 | 1.0 | 0.00 | 0.00 | 0.00 | 66 | 1006.9 |
| 20260509005954 | 57 | 208 | 0.0 | 1.0 | 0.00 | 0.00 | 0.00 | 66 | 1006.9 |
| 20260509005849 | 57 | 205 | 0.0 | 1.0 | 0.00 | 0.00 | 0.00 | 66 | 1006.6 |
| 20260509005743 | 57 | 208 | 0.0 | 2.0 | 0.00 | 0.00 | 0.00 | 66 | 1006.9 |
| 20260509005706 | 57 | 208 | 0.0 | 2.0 | 0.00 | 0.00 | 0.00 | 66 | 1006.9 |
| 20260509005638 | 57 | 208 | 0.0 | 3.0 | 0.00 | 0.00 | 0.00 | 66 | 1006.6 |
| 20260509005532 | 58 | 208 | 0.0 | 4.0 | 0.00 | 0.00 | 0.00 | 66 | 1006.9 |
| 20260509005427 | 58 | 208 | 0.0 | 4.0 | 0.00 | 0.00 | 0.00 | 66 | 1006.9 |
| 20260509005322 | 58 | 201 | 0.0 | 4.0 | 0.00 | 0.00 | 0.00 | 65 | 1006.9 |
| 20260509005216 | 58 | 206 | 0.0 | 4.0 | 0.00 | 0.00 | 0.00 | 65 | 1006.6 |
| 20260509005200 | 58 | 206 | 0.0 | 4.0 | 0.00 | 0.00 | 0.00 | 65 | 1006.6 |
| 20260509005122 | 58 | 206 | 1.0 | 4.0 | 0.00 | 0.00 | 0.00 | 65 | 1006.6 |
| 20260509005004 | 58 | 189 | 1.0 | 4.0 | 0.00 | 0.00 | 0.00 | 65 | 1006.6 |
| 20260509004850 | 58 | 182 | 0.0 | 6.0 | 0.00 | 0.00 | 0.00 | 65 | 1006.9 |
| 20260509004744 | 58 | 211 | 2.0 | 6.0 | 0.00 | 0.00 | 0.00 | 65 | 1006.6 |
| 20260509004656 | 58 | 205 | 3.0 | 6.0 | 0.00 | 0.00 | 0.00 | 64 | 1006.6 |
| 20260509004639 | 58 | 207 | 2.0 | 6.0 | 0.00 | 0.00 | 0.00 | 65 | 1006.9 |
| 20260509004533 | 58 | 186 | 2.0 | 6.0 | 0.00 | 0.00 | 0.00 | 65 | 1006.6 |
| 20260509004429 | 58 | 196 | 2.0 | 6.0 | 0.00 | 0.00 | 0.00 | 65 | 1006.9 |
| 20260509004324 | 58 | 172 | 1.0 | 6.0 | 0.00 | 0.00 | 0.00 | 65 | 1006.6 |
| 20260509004219 | 58 | 199 | 1.0 | 6.0 | 0.00 | 0.00 | 0.00 | 64 | 1006.9 |
| 20260509004153 | 58 | 189 | 2.0 | 6.0 | 0.00 | 0.00 | 0.00 | 64 | 1006.9 |
| 20260509004113 | 58 | 217 | 1.0 | 6.0 | 0.00 | 0.00 | 0.00 | 64 | 1006.6 |
| 20260509004007 | 58 | 193 | 2.0 | 6.0 | 0.00 | 0.00 | 0.00 | 64 | 1006.6 |
| 20260509003903 | 58 | 185 | 4.0 | 6.0 | 0.00 | 0.00 | 0.00 | 64 | 1006.6 |
| 20260509003758 | 58 | 217 | 3.0 | 6.0 | 0.00 | 0.00 | 0.00 | 64 | 1006.6 |
| 20260509003651 | 58 | 251 | 2.0 | 6.0 | 0.00 | 0.00 | 0.00 | 63 | 1006.6 |
| 20260509003546 | 59 | 218 | 2.0 | 6.0 | 0.00 | 0.00 | 0.00 | 63 | 1006.6 |
| 20260509003440 | 59 | 211 | 1.0 | 6.0 | 0.00 | 0.00 | 0.00 | 63 | 1006.6 |
| 20260509003335 | 59 | 187 | 4.0 | 6.0 | 0.00 | 0.00 | 0.00 | 63 | 1006.6 |
| 20260509003229 | 59 | 171 | 4.0 | 6.0 | 0.00 | 0.00 | 0.00 | 63 | 1006.6 |
| 20260509003141 | 59 | 215 | 3.0 | 6.0 | 0.00 | 0.00 | 0.00 | 63 | 1006.6 |
| 20260509003125 | 59 | 197 | 4.0 | 6.0 | 0.00 | 0.00 | 0.00 | 62 | 1006.6 |
| 20260509003018 | 59 | 195 | 3.0 | 4.0 | 0.00 | 0.00 | 0.00 | 63 | 1006.6 |
| 20260509002913 | 59 | 196 | 2.0 | 2.0 | 0.00 | 0.00 | 0.00 | 64 | 1006.6 |
| 20260509002807 | 59 | 195 | 1.0 | 1.0 | 0.00 | 0.00 | 0.00 | 64 | 1006.1 |
| 20260509002702 | 59 | 162 | 0.0 | 1.0 | 0.00 | 0.00 | 0.00 | 63 | 1006.1 |
| 20260509002635 | 59 | 145 | 0.0 | 1.0 | 0.00 | 0.00 | 0.00 | 63 | 1006.6 |
| 20260509002556 | 59 | 144 | 0.0 | 1.0 | 0.00 | 0.00 | 0.00 | 63 | 1006.6 |
| 20260509002450 | 59 | 146 | 0.0 | 1.0 | 0.00 | 0.00 | 0.00 | 63 | 1006.6 |
| 20260509002346 | 59 | 147 | 0.0 | 1.0 | 0.00 | 0.00 | 0.00 | 63 | 1006.6 |
| 20260509002240 | 59 | 144 | 1.0 | 1.0 | 0.00 | 0.00 | 0.00 | 62 | 1006.6 |
| 20260509002134 | 59 | 167 | 0.0 | 2.0 | 0.00 | 0.00 | 0.00 | 62 | 1006.6 |
| 20260509002029 | 59 | 167 | 0.0 | 2.0 | 0.00 | 0.00 | 0.00 | 61 | 1006.6 |
| 20260509001923 | 60 | 168 | 0.0 | 2.0 | 0.00 | 0.00 | 0.00 | 61 | 1006.6 |
| 20260509001818 | 60 | 167 | 0.0 | 2.0 | 0.00 | 0.00 | 0.00 | 61 | 1006.1 |
| 20260509001712 | 60 | 167 | 0.0 | 2.0 | 0.00 | 0.00 | 0.00 | 61 | 1006.6 |
| 20260509001624 | 60 | 167 | 0.0 | 2.0 | 0.00 | 0.00 | 0.00 | 60 | 1006.1 |
| 20260509001606 | 60 | 167 | 0.0 | 2.0 | 0.00 | 0.00 | 0.00 | 61 | 1006.1 |
| 20260509001502 | 60 | 167 | 1.0 | 2.0 | 0.00 | 0.00 | 0.00 | 60 | 1006.6 |
| 20260509001356 | 60 | 138 | 1.0 | 3.0 | 0.00 | 0.00 | 0.00 | 60 | 1006.6 |
| 20260509001250 | 61 | 140 | 1.0 | 3.0 | 0.00 | 0.00 | 0.00 | 57 | 1006.1 |
| 20260509001144 | 61 | 115 | 2.0 | 3.0 | 0.00 | 0.00 | 0.00 | 54 | 1006.1 |
| 20260509001118 | 61 | 106 | 1.0 | 3.0 | 0.00 | 0.00 | 0.00 | 54 | 1006.1 |
| 20260509001039 | 61 | 114 | 1.0 | 3.0 | 0.00 | 0.00 | 0.00 | 46 | 1006.1 |
| 20260509000934 | 61 | 114 | 0.0 | 3.0 | 0.00 | 0.00 | 0.00 | 45 | 1006.1 |
| 20260509000828 | 61 | 110 | 1.0 | 3.0 | 0.00 | 0.00 | 0.00 | 44 | 1006.6 |
| 20260509000722 | 61 | 321 | 0.0 | 3.0 | 0.00 | 0.00 | 0.00 | 44 | 1006.6 |
| 20260509000617 | 61 | 291 | 1.0 | 3.0 | 0.00 | 0.00 | 0.00 | 43 | 1006.6 |
| 20260509000511 | 61 | 229 | 2.0 | 3.0 | 0.00 | 0.00 | 0.00 | 42 | 1006.6 |
| 20260509000406 | 61 | 257 | 3.0 | 4.0 | 0.00 | 0.00 | 0.00 | 41 | 1006.1 |
| 20260509000303 | 61 | 150 | 1.0 | 4.0 | 0.00 | 0.00 | 0.00 | 50 | 1006.6 |
| 20260509000155 | 62 | 148 | 1.0 | 4.0 | 0.00 | 0.00 | 0.00 | 48 | 1006.1 |
| 20260509000107 | 62 | 202 | 3.0 | 4.0 | 0.00 | 0.00 | 0.00 | 46 | 1006.6 |
| 20260508235944 | 62 | 188 | 3.0 | 4.0 | 0.00 | 0.00 | 0.00 | 38 | 1006.6 |
| 20260508235838 | 62 | 173 | 1.0 | 4.0 | 0.00 | 0.00 | 0.00 | 38 | 1006.1 |
| 20260508235731 | 62 | 213 | 2.0 | 4.0 | 0.00 | 0.00 | 0.00 | 38 | 1006.1 |
| 20260508235626 | 62 | 232 | 0.0 | 4.0 | 0.00 | 0.00 | 0.00 | 38 | 1006.6 |
| 20260508235600 | 62 | 245 | 0.0 | 4.0 | 0.00 | 0.00 | 0.00 | 38 | 1006.6 |
| 20260508235520 | 62 | 208 | 4.0 | 4.0 | 0.00 | 0.00 | 0.00 | 38 | 1006.1 |
| 20260508235415 | 62 | 204 | 2.0 | 4.0 | 0.00 | 0.00 | 0.00 | 38 | 1006.6 |
| 20260508235309 | 62 | 342 | 1.0 | 4.0 | 0.00 | 0.00 | 0.00 | 38 | 1006.6 |
| 20260508235204 | 62 | 1 | 2.0 | 4.0 | 0.00 | 0.00 | 0.00 | 39 | 1006.1 |
| 20260508235110 | 62 | 226 | 2.0 | 4.0 | 0.00 | 0.00 | 0.00 | 38 | 1006.6 |
| 20260508234951 | 62 | 203 | 3.0 | 4.0 | 0.00 | 0.00 | 0.00 | 38 | 1006.6 |
| 20260508234845 | 62 | 253 | 2.0 | 3.0 | 0.00 | 0.00 | 0.00 | 38 | 1006.1 |
| 20260508234740 | 62 | 170 | 2.0 | 3.0 | 0.00 | 0.00 | 0.00 | 37 | 1006.6 |
| 20260508234634 | 62 | 329 | 1.0 | 2.0 | 0.00 | 0.00 | 0.00 | 38 | 1006.1 |
| 20260508234547 | 62 | 231 | 1.0 | 2.0 | 0.00 | 0.00 | 0.00 | 38 | 1006.1 |
| 20260508234529 | 62 | 183 | 0.0 | 3.0 | 0.00 | 0.00 | 0.00 | 38 | 1006.6 |
| 20260508234423 | 62 | 262 | 1.0 | 3.0 | 0.00 | 0.00 | 0.00 | 38 | 1006.6 |
| 20260508234318 | 62 | 350 | 0.0 | 3.0 | 0.00 | 0.00 | 0.00 | 39 | 1006.1 |
| 20260508234212 | 62 | 349 | 0.0 | 3.0 | 0.00 | 0.00 | 0.00 | 38 | 1006.6 |
| 20260508234106 | 62 | 329 | 1.0 | 3.0 | 0.00 | 0.00 | 0.00 | 38 | 1006.6 |
| 20260508234040 | 62 | 317 | 1.0 | 3.0 | 0.00 | 0.00 | 0.00 | 37 | 1006.1 |
| 20260508234001 | 62 | 300 | 0.0 | 3.0 | 0.00 | 0.00 | 0.00 | 38 | 1006.1 |
| 20260508233855 | 62 | 254 | 0.0 | 3.0 | 0.00 | 0.00 | 0.00 | 38 | 1006.6 |
| 20260508233751 | 62 | 255 | 0.0 | 3.0 | 0.00 | 0.00 | 0.00 | 37 | 1006.1 |
| 20260508233645 | 63 | 255 | 1.0 | 3.0 | 0.00 | 0.00 | 0.00 | 37 | 1006.6 |
| 20260508233539 | 63 | 191 | 1.0 | 3.0 | 0.00 | 0.00 | 0.00 | 37 | 1006.1 |
| 20260508233436 | 63 | 343 | 0.0 | 3.0 | 0.00 | 0.00 | 0.00 | 37 | 1006.1 |
| 20260508233330 | 63 | 342 | 2.0 | 3.0 | 0.00 | 0.00 | 0.00 | 37 | 1006.6 |
| 20260508233224 | 63 | 322 | 1.0 | 3.0 | 0.00 | 0.00 | 0.00 | 37 | 1006.6 |
| 20260508233119 | 63 | 313 | 0.0 | 3.0 | 0.00 | 0.00 | 0.00 | 36 | 1006.6 |
| 20260508233031 | 64 | 309 | 0.0 | 3.0 | 0.00 | 0.00 | 0.00 | 37 | 1006.6 |
| 20260508233014 | 64 | 306 | 1.0 | 3.0 | 0.00 | 0.00 | 0.00 | 36 | 1006.6 |
| 20260508232909 | 64 | 170 | 1.0 | 3.0 | 0.00 | 0.00 | 0.00 | 36 | 1006.6 |
| 20260508232803 | 64 | 262 | 1.0 | 2.0 | 0.00 | 0.00 | 0.00 | 36 | 1006.6 |
| 20260508232657 | 64 | 268 | 0.0 | 2.0 | 0.00 | 0.00 | 0.00 | 35 | 1006.6 |
| 20260508232551 | 64 | 359 | 0.0 | 2.0 | 0.00 | 0.00 | 0.00 | 36 | 1006.6 |
| 20260508232524 | 64 | 359 | 0.0 | 2.0 | 0.00 | 0.00 | 0.00 | 36 | 1006.1 |
| 20260508232446 | 64 | 346 | 0.0 | 2.0 | 0.00 | 0.00 | 0.00 | 36 | 1006.6 |
| 20260508232340 | 64 | 339 | 0.0 | 2.0 | 0.00 | 0.00 | 0.00 | 37 | 1006.6 |
| 20260508232234 | 64 | 339 | 0.0 | 2.0 | 0.00 | 0.00 | 0.00 | 36 | 1006.6 |
| 20260508232129 | 64 | 349 | 0.0 | 2.0 | 0.00 | 0.00 | 0.00 | 36 | 1006.1 |
| 20260508232024 | 64 | 0.0 | 0.0 | 0.00 | 0.00 | 0.00 | 35 | ||
| 20260508225855 | 64 | 302 | 2.0 | 8.0 | 0.00 | 0.00 | 0.00 | 36 | 1006.6 |
| 20260508225807 | 64 | 232 | 2.0 | 8.0 | 0.00 | 0.00 | 0.00 | 36 | 1006.6 |
| 20260508225748 | 64 | 226 | 2.0 | 8.0 | 0.00 | 0.00 | 0.00 | 35 | 1006.6 |
| 20260508225643 | 64 | 210 | 0.0 | 8.0 | 0.00 | 0.00 | 0.00 | 35 | 1006.9 |
| 20260508225538 | 64 | 200 | 2.0 | 8.0 | 0.00 | 0.00 | 0.00 | 35 | 1006.6 |
| 20260508225432 | 64 | 267 | 1.0 | 8.0 | 0.00 | 0.00 | 0.00 | 35 | 1006.6 |
| 20260508225326 | 64 | 303 | 6.0 | 8.0 | 0.00 | 0.00 | 0.00 | 34 | 1006.6 |
| 20260508225300 | 64 | 241 | 3.0 | 7.0 | 0.00 | 0.00 | 0.00 | 36 | 1006.6 |
| 20260508225221 | 64 | 190 | 2.0 | 7.0 | 0.00 | 0.00 | 0.00 | 36 | 1006.9 |
| 20260508225114 | 64 | 259 | 1.0 | 7.0 | 0.00 | 0.00 | 0.00 | 35 | 1006.6 |
| 20260508225009 | 65 | 139 | 3.0 | 7.0 | 0.00 | 0.00 | 0.00 | 35 | 1006.6 |
| 20260508224903 | 65 | 227 | 2.0 | 7.0 | 0.00 | 0.00 | 0.00 | 34 | 1006.6 |
| 20260508224758 | 65 | 220 | 1.0 | 7.0 | 0.00 | 0.00 | 0.00 | 34 | 1006.9 |
| 20260508224650 | 64 | 231 | 2.0 | 7.0 | 0.00 | 0.00 | 0.00 | 35 | 1006.9 |
| 20260508224544 | 65 | 331 | 3.0 | 7.0 | 0.00 | 0.00 | 0.00 | 36 | 1006.6 |
| 20260508224439 | 65 | 63 | 3.0 | 7.0 | 0.00 | 0.00 | 0.00 | 35 | 1006.6 |
| 20260508224333 | 65 | 291 | 5.0 | 7.0 | 0.00 | 0.00 | 0.00 | 34 | 1006.9 |
| 20260508224245 | 65 | 220 | 1.0 | 6.0 | 0.00 | 0.00 | 0.00 | 35 | 1006.9 |
| 20260508224228 | 65 | 253 | 1.0 | 6.0 | 0.00 | 0.00 | 0.00 | 34 | 1006.9 |
| 20260508224122 | 64 | 308 | 2.0 | 6.0 | 0.00 | 0.00 | 0.00 | 34 | 1006.6 |
| 20260508224029 | 64 | 212 | 1.0 | 6.0 | 0.00 | 0.00 | 0.00 | 35 | 1006.9 |
| 20260508223911 | 64 | 242 | 2.0 | 6.0 | 0.00 | 0.00 | 0.00 | 34 | 1006.9 |
| 20260508223805 | 64 | 269 | 2.0 | 6.0 | 0.00 | 0.00 | 0.00 | 36 | 1006.9 |
| 20260508223738 | 64 | 269 | 2.0 | 6.0 | 0.00 | 0.00 | 0.00 | 36 | 1006.6 |
| 20260508223700 | 64 | 195 | 2.0 | 6.0 | 0.00 | 0.00 | 0.00 | 37 | 1006.6 |
| 20260508223554 | 65 | 194 | 5.0 | 6.0 | 0.00 | 0.00 | 0.00 | 35 | 1006.9 |
| 20260508223448 | 65 | 152 | 2.0 | 6.0 | 0.00 | 0.00 | 0.00 | 40 | 1006.9 |
| 20260508223343 | 65 | 201 | 1.0 | 6.0 | 0.00 | 0.00 | 0.00 | 36 | 1006.6 |
| 20260508223237 | 65 | 251 | 3.0 | 6.0 | 0.00 | 0.00 | 0.00 | 36 | 1006.9 |
| 20260508223131 | 65 | 238 | 3.0 | 7.0 | 0.00 | 0.00 | 0.00 | 36 | 1006.9 |
| 20260508223026 | 66 | 161 | 3.0 | 7.0 | 0.00 | 0.00 | 0.00 | 35 | 1006.6 |
| 20260508222921 | 65 | 241 | 3.0 | 7.0 | 0.00 | 0.00 | 0.00 | 36 | 1006.9 |
| 20260508222815 | 64 | 233 | 0.0 | 7.0 | 0.00 | 0.00 | 0.00 | 36 | 1006.9 |
| 20260508222727 | 64 | 234 | 0.0 | 8.0 | 0.00 | 0.00 | 0.00 | 38 | 1006.6 |
| 20260508222707 | 64 | 233 | 0.0 | 8.0 | 0.00 | 0.00 | 0.00 | 36 | 1006.6 |
| 20260508222600 | 64 | 200 | 2.0 | 8.0 | 0.00 | 0.00 | 0.00 | 36 | 1006.9 |
| 20260508222454 | 64 | 234 | 3.0 | 8.0 | 0.00 | 0.00 | 0.00 | 36 | 1006.9 |
| 20260508222348 | 64 | 181 | 2.0 | 8.0 | 0.00 | 0.00 | 0.00 | 36 | 1006.9 |
| 20260508222242 | 64 | 119 | 2.0 | 8.0 | 0.00 | 0.00 | 0.00 | 36 | 1006.9 |
| 20260508222227 | 64 | 147 | 3.0 | 8.0 | 0.00 | 0.00 | 0.00 | 36 | 1006.9 |
| 20260508222137 | 64 | 191 | 6.0 | 8.0 | 0.00 | 0.00 | 0.00 | 36 | 1006.9 |
| 20260508222031 | 64 | 258 | 4.0 | 8.0 | 0.00 | 0.00 | 0.00 | 36 | 1006.9 |
| 20260508221926 | 65 | 176 | 3.0 | 8.0 | 0.00 | 0.00 | 0.00 | 36 | 1006.9 |
| 20260508221820 | 65 | 185 | 6.0 | 8.0 | 0.00 | 0.00 | 0.00 | 35 | 1006.9 |
| 20260508221721 | 64 | 310 | 3.0 | 7.0 | 0.00 | 0.00 | 0.00 | 37 | 1006.9 |
| 20260508221715 | 64 | 275 | 1.0 | 7.0 | 0.00 | 0.00 | 0.00 | 36 | 1006.9 |
| 20260508221622 | 64 | 265 | 1.0 | 10.0 | 0.00 | 0.00 | 0.00 | 36 | 1006.9 |
| 20260508221503 | 64 | 144 | 3.0 | 10.0 | 0.00 | 0.00 | 0.00 | 36 | 1006.9 |
| 20260508221357 | 64 | 142 | 1.0 | 10.0 | 0.00 | 0.00 | 0.00 | 36 | 1006.6 |
| 20260508221251 | 64 | 202 | 3.0 | 10.0 | 0.00 | 0.00 | 0.00 | 35 | 1006.6 |
| 20260508221214 | 65 | 256 | 2.0 | 10.0 | 0.00 | 0.00 | 0.00 | 35 | 1006.6 |
| 20260508221146 | 65 | 143 | 4.0 | 10.0 | 0.00 | 0.00 | 0.00 | 35 | 1006.6 |
| 20260508221040 | 64 | 268 | 2.0 | 10.0 | 0.00 | 0.00 | 0.00 | 35 | 1006.6 |
| 20260508220935 | 64 | 238 | 3.0 | 10.0 | 0.00 | 0.00 | 0.00 | 36 | 1006.6 |
| 20260508220829 | 64 | 201 | 4.0 | 10.0 | 0.00 | 0.00 | 0.00 | 36 | 1006.9 |
| 20260508220724 | 64 | 181 | 4.0 | 10.0 | 0.00 | 0.00 | 0.00 | 35 | 1006.9 |
| 20260508220708 | 64 | 184 | 8.0 | 10.0 | 0.00 | 0.00 | 0.00 | 35 | 1006.9 |
| 20260508220618 | 64 | 227 | 2.0 | 10.0 | 0.00 | 0.00 | 0.00 | 36 | 1006.9 |
| 20260508220512 | 64 | 144 | 2.0 | 10.0 | 0.00 | 0.00 | 0.00 | 36 | 1006.9 |
| 20260508220406 | 64 | 139 | 3.0 | 10.0 | 0.00 | 0.00 | 0.00 | 36 | 1006.9 |
| 20260508220301 | 64 | 230 | 2.0 | 10.0 | 0.00 | 0.00 | 0.00 | 37 | 1007.3 |
| 20260508220201 | 64 | 187 | 8.0 | 10.0 | 0.00 | 0.00 | 0.00 | 36 | 1006.9 |
| 20260508220155 | 64 | 187 | 8.0 | 10.0 | 0.00 | 0.00 | 0.00 | 36 | 1006.9 |
| 20260508215942 | 65 | 147 | 3.0 | 8.0 | 0.00 | 0.00 | 0.00 | 36 | 1006.9 |
| 20260508215837 | 65 | 246 | 4.0 | 8.0 | 0.00 | 0.00 | 0.00 | 36 | 1006.9 |
| 20260508215731 | 65 | 202 | 4.0 | 8.0 | 0.00 | 0.00 | 0.00 | 36 | 1007.3 |
| 20260508215653 | 65 | 156 | 2.0 | 8.0 | 0.00 | 0.00 | 0.00 | 36 | 1007.3 |
| 20260508215625 | 65 | 227 | 2.0 | 8.0 | 0.00 | 0.00 | 0.00 | 37 | 1006.9 |
| 20260508215519 | 64 | 187 | 1.0 | 8.0 | 0.00 | 0.00 | 0.00 | 38 | 1006.9 |
| 20260508215414 | 64 | 197 | 3.0 | 13.0 | 0.00 | 0.00 | 0.00 | 36 | 1006.9 |
| 20260508215309 | 63 | 172 | 1.0 | 13.0 | 0.00 | 0.00 | 0.00 | 37 | 1006.9 |
| 20260508215203 | 63 | 206 | 1.0 | 13.0 | 0.00 | 0.00 | 0.00 | 37 | 1006.9 |
| 20260508215148 | 63 | 189 | 4.0 | 13.0 | 0.00 | 0.00 | 0.00 | 37 | 1006.9 |
| 20260508215058 | 64 | 193 | 7.0 | 13.0 | 0.00 | 0.00 | 0.00 | 36 | 1007.3 |
| 20260508214952 | 63 | 160 | 7.0 | 13.0 | 0.00 | 0.00 | 0.00 | 36 | 1007.3 |
| 20260508214847 | 63 | 180 | 3.0 | 13.0 | 0.00 | 0.00 | 0.00 | 37 | 1006.9 |
| 20260508214740 | 63 | 205 | 4.0 | 13.0 | 0.00 | 0.00 | 0.00 | 37 | 1007.3 |
| 20260508214641 | 63 | 179 | 3.0 | 13.0 | 0.00 | 0.00 | 0.00 | 37 | 1006.9 |
| 20260508214634 | 63 | 153 | 2.0 | 13.0 | 0.00 | 0.00 | 0.00 | 37 | 1006.9 |
| 20260508214530 | 64 | 237 | 8.0 | 13.0 | 0.00 | 0.00 | 0.00 | 37 | 1007.3 |
| 20260508214424 | 64 | 178 | 2.0 | 4.0 | 0.00 | 0.00 | 0.00 | 39 | 1007.3 |
| 20260508214318 | 63 | 196 | 0.0 | 4.0 | 0.00 | 0.00 | 0.00 | 40 | 1007.3 |
| 20260508214212 | 63 | 298 | 1.0 | 4.0 | 0.00 | 0.00 | 0.00 | 38 | 1007.3 |
| 20260508214134 | 63 | 230 | 0.0 | 4.0 | 0.00 | 0.00 | 0.00 | 41 | 1007.3 |
| 20260508214107 | 63 | 178 | 2.0 | 8.0 | 0.00 | 0.00 | 0.00 | 38 | 1007.3 |
| 20260508214002 | 64 | 162 | 1.0 | 8.0 | 0.00 | 0.00 | 0.00 | 37 | 1007.3 |
| 20260508213856 | 64 | 155 | 1.0 | 8.0 | 0.00 | 0.00 | 0.00 | 38 | 1007.3 |
| 20260508213750 | 64 | 178 | 2.0 | 8.0 | 0.00 | 0.00 | 0.00 | 37 | 1007.3 |
| 20260508213657 | 63 | 219 | 1.0 | 10.0 | 0.00 | 0.00 | 0.00 | 44 | 1007.3 |
| 20260508213628 | 63 | 215 | 2.0 | 10.0 | 0.00 | 0.00 | 0.00 | 45 | 1007.3 |
| 20260508213539 | 63 | 228 | 1.0 | 10.0 | 0.00 | 0.00 | 0.00 | 45 | 1007.3 |
| 20260508213432 | 63 | 122 | 2.0 | 10.0 | 0.00 | 0.00 | 0.00 | 45 | 1007.3 |
| 20260508213328 | 63 | 172 | 3.0 | 10.0 | 0.00 | 0.00 | 0.00 | 46 | 1007.3 |
| 20260508213221 | 62 | 151 | 2.0 | 10.0 | 0.00 | 0.00 | 0.00 | 47 | 1007.3 |
| 20260508213115 | 62 | 150 | 6.0 | 10.0 | 0.00 | 0.00 | 0.00 | 43 | 1007.3 |
| 20260508213010 | 62 | 176 | 2.0 | 10.0 | 0.00 | 0.00 | 0.00 | 47 | 1007.3 |
| 20260508212905 | 63 | 124 | 4.0 | 10.0 | 0.00 | 0.00 | 0.00 | 47 | 1007.3 |
| 20260508212758 | 64 | 201 | 6.0 | 10.0 | 0.00 | 0.00 | 0.00 | 46 | 1007.3 |
| 20260508212653 | 65 | 200 | 5.0 | 10.0 | 0.00 | 0.00 | 0.00 | 43 | 1006.9 |
| 20260508212616 | 66 | 183 | 5.0 | 10.0 | 0.00 | 0.00 | 0.00 | 42 | 1006.9 |
| 20260508212547 | 66 | 181 | 8.0 | 10.0 | 0.00 | 0.00 | 0.00 | 40 | 1006.9 |
| 20260508212441 | 66 | 340 | 1.0 | 8.0 | 0.00 | 0.00 | 0.00 | 36 | 1006.6 |
| 20260508212336 | 64 | 216 | 1.0 | 8.0 | 0.00 | 0.00 | 0.00 | 36 | 1007.3 |
| 20260508212230 | 64 | 216 | 0.0 | 8.0 | 0.00 | 0.00 | 0.00 | 37 | 1007.3 |
| 20260508212124 | 64 | 154 | 3.0 | 9.0 | 0.00 | 0.00 | 0.00 | 36 | 1007.3 |
| 20260508212109 | 64 | 125 | 2.0 | 9.0 | 0.00 | 0.00 | 0.00 | 37 | 1007.3 |
| 20260508212020 | 64 | 157 | 4.0 | 9.0 | 0.00 | 0.00 | 0.00 | 37 | 1007.3 |
| 20260508211913 | 64 | 205 | 2.0 | 9.0 | 0.00 | 0.00 | 0.00 | 36 | 1007.3 |
| 20260508211808 | 64 | 278 | 3.0 | 9.0 | 0.00 | 0.00 | 0.00 | 36 | 1007.3 |
| 20260508211702 | 64 | 254 | 4.0 | 9.0 | 0.00 | 0.00 | 0.00 | 36 | 1007.3 |
| 20260508211603 | 64 | 274 | 2.0 | 9.0 | 0.00 | 0.00 | 0.00 | 36 | 1007.3 |
| 20260508211557 | 64 | 310 | 2.0 | 9.0 | 0.00 | 0.00 | 0.00 | 37 | 1007.3 |
| 20260508211451 | 64 | 279 | 3.0 | 9.0 | 0.00 | 0.00 | 0.00 | 36 | 1007.3 |
| 20260508211358 | 64 | 280 | 4.0 | 9.0 | 0.00 | 0.00 | 0.00 | 37 | 1007.3 |
| 20260508211240 | 64 | 256 | 4.0 | 9.0 | 0.00 | 0.00 | 0.00 | 37 | 1007.3 |
| 20260508211134 | 63 | 231 | 3.0 | 10.0 | 0.00 | 0.00 | 0.00 | 37 | 1007.3 |
| 20260508211057 | 63 | 288 | 2.0 | 10.0 | 0.00 | 0.00 | 0.00 | 37 | 1007.3 |
| 20260508211028 | 63 | 249 | 3.0 | 10.0 | 0.00 | 0.00 | 0.00 | 37 | 1007.3 |
| 20260508210923 | 62 | 223 | 3.0 | 10.0 | 0.00 | 0.00 | 0.00 | 37 | 1007.3 |
| 20260508210816 | 62 | 234 | 3.0 | 10.0 | 0.00 | 0.00 | 0.00 | 38 | 1007.3 |
| 20260508210711 | 63 | 244 | 6.0 | 10.0 | 0.00 | 0.00 | 0.00 | 37 | 1007.3 |
| 20260508210550 | 64 | 346 | 2.0 | 10.0 | 0.00 | 0.00 | 0.00 | 37 | 1007.3 |
| 20260508210459 | 64 | 284 | 3.0 | 10.0 | 0.00 | 0.00 | 0.00 | 36 | 1007.3 |
| 20260508210354 | 64 | 227 | 3.0 | 10.0 | 0.00 | 0.00 | 0.00 | 35 | 1007.3 |
| 20260508210248 | 64 | 267 | 4.0 | 10.0 | 0.00 | 0.00 | 0.00 | 36 | 1007.3 |
| 20260508210142 | 64 | 290 | 8.0 | 10.0 | 0.00 | 0.00 | 0.00 | 35 | 1006.9 |
| 20260508210043 | 64 | 239 | 4.0 | 8.0 | 0.00 | 0.00 | 0.00 | 35 | 1006.9 |
| 20260508210037 | 64 | 239 | 4.0 | 8.0 | 0.00 | 0.00 | 0.00 | 35 | 1007.3 |
| 20260508205931 | 65 | 216 | 3.0 | 8.0 | 0.00 | 0.00 | 0.00 | 35 | 1007.6 |
| 20260508205826 | 66 | 176 | 5.0 | 8.0 | 0.00 | 0.00 | 0.00 | 34 | 1007.3 |
| 20260508205720 | 66 | 256 | 3.0 | 8.0 | 0.00 | 0.00 | 0.00 | 34 | 1007.3 |
| 20260508205614 | 66 | 339 | 3.0 | 8.0 | 0.00 | 0.00 | 0.00 | 32 | 1007.3 |
| 20260508205536 | 66 | 266 | 1.0 | 8.0 | 0.00 | 0.00 | 0.00 | 34 | 1007.6 |
| 20260508205508 | 66 | 238 | 2.0 | 8.0 | 0.00 | 0.00 | 0.00 | 34 | 1007.6 |
| 20260508205402 | 66 | 134 | 0.0 | 8.0 | 0.00 | 0.00 | 0.00 | 34 | 1007.3 |
| 20260508205256 | 66 | 177 | 3.0 | 8.0 | 0.00 | 0.00 | 0.00 | 34 | 1007.3 |
| 20260508205151 | 66 | 206 | 4.0 | 8.0 | 0.00 | 0.00 | 0.00 | 34 | 1007.3 |
| 20260508205045 | 65 | 279 | 2.0 | 8.0 | 0.00 | 0.00 | 0.00 | 35 | 1007.3 |
| 20260508205029 | 65 | 268 | 0.0 | 8.0 | 0.00 | 0.00 | 0.00 | 35 | 1007.3 |
| 20260508204939 | 65 | 350 | 2.0 | 8.0 | 0.00 | 0.00 | 0.00 | 34 | 1007.3 |
| 20260508204833 | 65 | 266 | 2.0 | 8.0 | 0.00 | 0.00 | 0.00 | 34 | 1007.3 |
| 20260508204727 | 66 | 276 | 3.0 | 6.0 | 0.00 | 0.00 | 0.00 | 33 | 1007.3 |
| 20260508204623 | 65 | 251 | 2.0 | 8.0 | 0.00 | 0.00 | 0.00 | 33 | 1007.6 |
| 20260508204516 | 65 | 342 | 0.0 | 8.0 | 0.00 | 0.00 | 0.00 | 35 | 1007.3 |
| 20260508204411 | 65 | 257 | 1.0 | 9.0 | 0.00 | 0.00 | 0.00 | 35 | 1007.6 |
| 20260508204306 | 65 | 210 | 2.0 | 9.0 | 0.00 | 0.00 | 0.00 | 34 | 1007.3 |
| 20260508204200 | 64 | 216 | 2.0 | 9.0 | 0.00 | 0.00 | 0.00 | 36 | 1007.3 |
| 20260508204054 | 63 | 99 | 0.0 | 9.0 | 0.00 | 0.00 | 0.00 | 35 | 1007.6 |
| 20260508204017 | 63 | 359 | 2.0 | 9.0 | 0.00 | 0.00 | 0.00 | 35 | 1007.3 |
| 20260508203949 | 63 | 226 | 3.0 | 9.0 | 0.00 | 0.00 | 0.00 | 35 | 1007.3 |
| 20260508203843 | 63 | 222 | 5.0 | 9.0 | 0.00 | 0.00 | 0.00 | 35 | 1007.3 |
| 20260508203737 | 63 | 170 | 6.0 | 9.0 | 0.00 | 0.00 | 0.00 | 35 | 1007.6 |
| 20260508203631 | 63 | 187 | 3.0 | 9.0 | 0.00 | 0.00 | 0.00 | 35 | 1007.6 |
| 20260508203510 | 63 | 190 | 8.0 | 9.0 | 0.00 | 0.00 | 0.00 | 35 | 1007.6 |
| 20260508203420 | 63 | 203 | 4.0 | 9.0 | 0.00 | 0.00 | 0.00 | 35 | 1007.6 |
| 20260508203314 | 63 | 323 | 1.0 | 9.0 | 0.00 | 0.00 | 0.00 | 35 | 1007.6 |
| 20260508203208 | 63 | 289 | 6.0 | 9.0 | 0.00 | 0.00 | 0.00 | 34 | 1007.6 |
| 20260508203102 | 63 | 276 | 3.0 | 9.0 | 0.00 | 0.00 | 0.00 | 35 | 1007.6 |
| 20260508203003 | 63 | 261 | 4.0 | 8.0 | 0.00 | 0.00 | 0.00 | 34 | 1007.6 |
| 20260508202957 | 63 | 261 | 4.0 | 8.0 | 0.00 | 0.00 | 0.00 | 34 | 1007.6 |
| 20260508202851 | 63 | 208 | 5.0 | 8.0 | 0.00 | 0.00 | 0.00 | 35 | 1007.6 |
| 20260508202746 | 63 | 196 | 5.0 | 8.0 | 0.00 | 0.00 | 0.00 | 35 | 1007.6 |
| 20260508202640 | 64 | 247 | 4.0 | 8.0 | 0.00 | 0.00 | 0.00 | 35 | 1007.6 |
| 20260508202534 | 64 | 72 | 4.0 | 8.0 | 0.00 | 0.00 | 0.00 | 34 | 1007.9 |
| 20260508202457 | 64 | 272 | 6.0 | 8.0 | 0.00 | 0.00 | 0.00 | 34 | 1007.9 |
| 20260508202429 | 64 | 113 | 1.0 | 8.0 | 0.00 | 0.00 | 0.00 | 36 | 1007.9 |
| 20260508202323 | 64 | 205 | 2.0 | 8.0 | 0.00 | 0.00 | 0.00 | 34 | 1007.6 |
| 20260508202231 | 64 | 184 | 0.0 | 8.0 | 0.00 | 0.00 | 0.00 | 33 | 1007.9 |
| 20260508202111 | 64 | 255 | 0.0 | 8.0 | 0.00 | 0.00 | 0.00 | 33 | 1007.6 |
| 20260508202019 | 63 | 229 | 0.0 | 11.0 | 0.00 | 0.00 | 0.00 | 35 | 1007.9 |
| 20260508201950 | 63 | 153 | 0.0 | 11.0 | 0.00 | 0.00 | 0.00 | 36 | 1007.9 |
| 20260508201859 | 62 | 295 | 3.0 | 11.0 | 0.00 | 0.00 | 0.00 | 34 | 1007.9 |
| 20260508201755 | 63 | 244 | 3.0 | 11.0 | 0.00 | 0.00 | 0.00 | 35 | 1007.9 |
| 20260508201648 | 63 | 249 | 4.0 | 11.0 | 0.00 | 0.00 | 0.00 | 35 | 1007.9 |
| 20260508201542 | 63 | 236 | 5.0 | 11.0 | 0.00 | 0.00 | 0.00 | 34 | 1007.9 |
| 20260508201530 | 62 | 186 | 4.0 | 9.0 | 0.00 | 0.00 | 0.00 | 36 | 1008.6 |
| 20260508201526 | 61 | 236 | 0.0 | 13.0 | 0.00 | 0.00 | 0.00 | 36 | 1008.6 |
| 20260508201522 | 63 | 272 | 2.0 | 9.0 | 0.00 | 0.00 | 0.00 | 36 | 1008.3 |
| 20260508201518 | 63 | 139 | 3.0 | 11.0 | 0.00 | 0.00 | 0.00 | 37 | 1008.3 |
| 20260508201514 | 62 | 233 | 4.0 | 8.0 | 0.00 | 0.00 | 0.00 | 35 | 1007.9 |
| 20260508201506 | 63 | 277 | 0.0 | 11.0 | 0.00 | 0.00 | 0.00 | 36 | 1007.9 |
| 20260508201502 | 63 | 172 | 1.0 | 11.0 | 0.00 | 0.00 | 0.00 | 34 | 1007.9 |
| 20260508201453 | 63 | 230 | 4.0 | 11.0 | 0.00 | 0.00 | 0.00 | 37 | 1007.9 |
| 20260508201231 | 63 | 203 | 2.0 | 11.0 | 0.00 | 0.00 | 0.00 | 36 | 1007.9 |
| 20260508201223 | 63 | 244 | 6.0 | 11.0 | 0.00 | 0.00 | 0.00 | 34 | 1007.9 |
| 20260508201214 | 62 | 265 | 3.0 | 10.0 | 0.00 | 0.00 | 0.00 | 36 | 1007.9 |
| 20260508200948 | 62 | 242 | 3.0 | 10.0 | 0.00 | 0.00 | 0.00 | 35 | 1007.9 |
| 20260508200944 | 62 | 283 | 4.0 | 10.0 | 0.00 | 0.00 | 0.00 | 36 | 1007.9 |
| 20260508200936 | 62 | 254 | 4.0 | 10.0 | 0.00 | 0.00 | 0.00 | 35 | 1007.9 |
| 20260508200716 | 62 | 213 | 6.0 | 10.0 | 0.00 | 0.00 | 0.00 | 35 | 1007.9 |
| 20260508200707 | 62 | 232 | 6.0 | 8.0 | 0.00 | 0.00 | 0.00 | 35 | 1007.9 |
| 20260508200659 | 62 | 233 | 4.0 | 8.0 | 0.00 | 0.00 | 0.00 | 35 | 1007.9 |
| 20260508200437 | 62 | 197 | 6.0 | 8.0 | 0.00 | 0.00 | 0.00 | 35 | 1008.3 |
| 20260508200429 | 63 | 193 | 1.0 | 8.0 | 0.00 | 0.00 | 0.00 | 34 | 1008.3 |
| 20260508200205 | 63 | 186 | 6.0 | 8.0 | 0.00 | 0.00 | 0.00 | 34 | 1008.3 |
| 20260508200157 | 63 | 254 | 2.0 | 8.0 | 0.00 | 0.00 | 0.00 | 36 | 1008.3 |
| 20260508195935 | 63 | 272 | 2.0 | 9.0 | 0.00 | 0.00 | 0.00 | 36 | 1008.3 |
| 20260508195927 | 63 | 339 | 1.0 | 11.0 | 0.00 | 0.00 | 0.00 | 37 | 1008.3 |
| 20260508195705 | 63 | 323 | 2.0 | 11.0 | 0.00 | 0.00 | 0.00 | 37 | 1008.3 |
| 20260508195656 | 63 | 299 | 5.0 | 11.0 | 0.00 | 0.00 | 0.00 | 36 | 1008.3 |
| 20260508195648 | 63 | 290 | 2.0 | 11.0 | 0.00 | 0.00 | 0.00 | 35 | 1008.3 |
| 20260508195427 | 63 | 241 | 1.0 | 11.0 | 0.00 | 0.00 | 0.00 | 35 | 1008.3 |
| 20260508195423 | 63 | 201 | 2.0 | 11.0 | 0.00 | 0.00 | 0.00 | 35 | 1008.3 |
| 20260508195414 | 63 | 255 | 4.0 | 11.0 | 0.00 | 0.00 | 0.00 | 36 | 1008.3 |
| 20260508195150 | 62 | 234 | 5.0 | 11.0 | 0.00 | 0.00 | 0.00 | 36 | 1008.3 |
| 20260508195142 | 62 | 242 | 7.0 | 11.0 | 0.00 | 0.00 | 0.00 | 38 | 1008.3 |
| 20260508195133 | 63 | 150 | 2.0 | 11.0 | 0.00 | 0.00 | 0.00 | 36 | 1008.3 |
| 20260508194911 | 63 | 174 | 10.0 | 11.0 | 0.00 | 0.00 | 0.00 | 35 | 1008.3 |
| 20260508194902 | 63 | 213 | 4.0 | 9.0 | 0.00 | 0.00 | 0.00 | 36 | 1008.3 |
| 20260508194642 | 64 | 264 | 4.0 | 8.0 | 0.00 | 0.00 | 0.00 | 35 | 1008.3 |
| 20260508194634 | 64 | 196 | 1.0 | 7.0 | 0.00 | 0.00 | 0.00 | 36 | 1008.6 |
| 20260508194411 | 64 | 230 | 0.0 | 7.0 | 0.00 | 0.00 | 0.00 | 37 | 1008.6 |
| 20260508194406 | 64 | 256 | 0.0 | 7.0 | 0.00 | 0.00 | 0.00 | 36 | 1008.6 |
| 20260508194358 | 63 | 198 | 1.0 | 7.0 | 0.00 | 0.00 | 0.00 | 37 | 1008.6 |
| 20260508194349 | 62 | 209 | 2.0 | 9.0 | 0.00 | 0.00 | 0.00 | 37 | 1008.3 |
| 20260508194127 | 62 | 53 | 1.0 | 9.0 | 0.00 | 0.00 | 0.00 | 36 | 1008.6 |
| 20260508194118 | 62 | 134 | 4.0 | 9.0 | 0.00 | 0.00 | 0.00 | 36 | 1008.6 |
| 20260508193856 | 62 | 221 | 6.0 | 9.0 | 0.00 | 0.00 | 0.00 | 35 | 1008.6 |
| 20260508193848 | 62 | 154 | 3.0 | 11.0 | 0.00 | 0.00 | 0.00 | 37 | 1008.6 |
| 20260508193627 | 62 | 303 | 1.0 | 11.0 | 0.00 | 0.00 | 0.00 | 37 | 1008.6 |
| 20260508193619 | 61 | 289 | 2.0 | 11.0 | 0.00 | 0.00 | 0.00 | 37 | 1009.0 |
| 20260508193611 | 61 | 67 | 0.0 | 13.0 | 0.00 | 0.00 | 0.00 | 38 | 1008.6 |
| 20260508193259 | 62 | 227 | 5.0 | 13.0 | 0.00 | 0.00 | 0.00 | 37 | 1009.0 |
| 20260508193153 | 62 | 189 | 4.0 | 13.0 | 0.00 | 0.00 | 0.00 | 36 | 1009.0 |
| 20260508193048 | 62 | 231 | 4.0 | 13.0 | 0.00 | 0.00 | 0.00 | 37 | 1009.0 |
| 20260508192943 | 62 | 237 | 3.0 | 13.0 | 0.00 | 0.00 | 0.00 | 36 | 1009.0 |
| 20260508192837 | 62 | 193 | 4.0 | 13.0 | 0.00 | 0.00 | 0.00 | 37 | 1009.0 |
| 20260508192732 | 62 | 194 | 8.0 | 13.0 | 0.00 | 0.00 | 0.00 | 36 | 1009.0 |
| 20260508192626 | 62 | 213 | 3.0 | 13.0 | 0.00 | 0.00 | 0.00 | 38 | 1008.6 |
| 20260508192520 | 62 | 163 | 7.0 | 13.0 | 0.00 | 0.00 | 0.00 | 36 | 1009.0 |
| 20260508192415 | 62 | 264 | 5.0 | 10.0 | 0.00 | 0.00 | 0.00 | 37 | 1008.6 |
| 20260508192338 | 62 | 199 | 3.0 | 10.0 | 0.00 | 0.00 | 0.00 | 38 | 1009.0 |
| 20260508192308 | 62 | 247 | 5.0 | 10.0 | 0.00 | 0.00 | 0.00 | 37 | 1009.0 |